賞金稼ぎシリーズ 2023年10月

復活させる

毎日10,000ドルの賞金王リーダーボード付き!

指名手配

10月15日~11月6日

$50

ミリオン

保証付き

狩人にも獲物にもなる。
これは単なるビジネスであり、個人的なものではない

ハイライト

デイリー$10Kバウンティ・キング・リーダーボード- ノックアウトを記録する

バウンティジャックポット- 最大$1Mのメガバウンティを獲得!

210ミステリーミリオン$メインイベント- $5M GTD、$500Kトップバウンティ

グローバル・ミリオン・バウンティ(賞金100万ドル)・エディション- わずか50ドルで125万ドルの分け前を獲得!

スピードレーサー・パワーアワーとエキサイティングなサイドイベントのバリエーション

最安サテライト- バイインはわずか1ドルから

賞金王リーダーボード

バウンティキングになるために最も多くのノックアウトを取得します!

( 1 KO = 1 リーダーボード・ポイント )

賞金王は$10K WSOPパラダイス・パッケージを獲得

5Kメインイベント
バイイン

10泊
アトランティスにて

日替わり
ランチビュッフェ

賞金王 今日の賞金王

10/15
mochalov13
10/16
Tom_Poker_NL
10/17
UFC@Poker
10/18
Dio Cane
10/19
IIKattII
10/20
False Happiness
10/21
Korbelyk
10/22
EIuaworshipper
10/23
Ikbenlen
10/24
RESILIENCIARICH
10/25
PaiGow
10/26
SzwarnyChlapiec
10/27
tiltducKK
10/28
Jackson Pimentel
10/29
MentalEnergy
10/30
Mercass
10/31
Thomas Hejda
11/1
Francisco
11/2
N Neto
11/3
KammyStyyle
11/4
twardy666
11/5
W3LL
11/6
D Ferreira
Nickname

D Ferreira

シリーズスケジュール

DATE DAY UTC EVENT BUY-IN GTD
10月10日 18:30 Global MILLION$ Bounty Edition, $1M GTD [Stage 1] $50 $1,250,000
10月11日 水曜日 12:30 Global MILLION$ Bounty Edition, $1M GTD [Stage 1] $50 $1,250,000
10月11日 水曜日 18:30 Global MILLION$ Bounty Edition, $1M GTD [Stage 1] $50 $1,250,000
10月12日 11:30 MYSTERY BOUNTY Mini Main - $200K Top Bounty [Stage 1] $25 $2,000,000
10月12日 12:30 Global MILLION$ Bounty Edition, $1M GTD [Stage 1] $50 $1,250,000
10月12日 15:30 MYSTERY BOUNTY Mini Main - $200K Top Bounty [Stage 1] $25 $2,000,000
10月12日 18:30 Global MILLION$ Bounty Edition, $1M GTD [Stage 1] $50 $1,250,000
10月12日 19:30 MYSTERY BOUNTY Mini Main - $200K Top Bounty [Stage 1] $25 $2,000,000
10月13日 11:30 MYSTERY BOUNTY Mini Main - $200K Top Bounty [Stage 1] $25 $2,000,000
10月13日 12:30 Global MILLION$ Bounty Edition, $1M GTD [Stage 1] $50 $1,250,000
10月13日 15:30 MYSTERY BOUNTY Mini Main - $200K Top Bounty [Stage 1] $25 $2,000,000
10月13日 18:30 Global MILLION$ Bounty Edition, $1M GTD [Stage 1] $50 $1,250,000
10月13日 19:30 MYSTERY BOUNTY Mini Main - $200K Top Bounty [Stage 1] $25 $2,000,000
10月14日 11:30 MYSTERY BOUNTY Mini Main - $200K Top Bounty [Stage 1] $25 $2,000,000
10月14日 12:30 Global MILLION$ Bounty Edition, $1M GTD [Stage 1] $50 $1,250,000
10月14日 15:30 MYSTERY BOUNTY Mini Main - $200K Top Bounty [Stage 1] $25 $2,000,000
10月14日 18:30 Global MILLION$ Bounty Edition, $1M GTD [Stage 1] $50 $1,250,000
10月14日 19:30 MYSTERY BOUNTY Mini Main - $200K Top Bounty [Stage 1] $25 $2,000,000
10月14日 23:30 MYSTERY BOUNTY Mini Main - $200K Top Bounty [Stage 1] $25 $2,000,000
10月15日 01:00 Speed Racer POWER HOUR $5 [10 BB] $5 $2,000
10月15日 01:10 Speed Racer POWER HOUR $10 [10 BB] $10 $3,000
10月15日 01:20 Speed Racer POWER HOUR $25 [10 BB] $25 $3,500
10月15日 01:30 Speed Racer POWER HOUR $50 [10 BB] $50 $4,000
10月15日 01:40 Speed Racer POWER HOUR $100 [10 BB] $100 $4,500
10月15日 01:50 Speed Racer POWER HOUR $200 [10 BB] $200 $5,000
10月15日 11:30 MYSTERY BOUNTY Mini Main - $200K Top Bounty [Stage 1] $25 $2,000,000
10月15日 12:30 Sunday Blast-Off $215 $215 $40,000
10月15日 12:30 Sunday Blast-Off $25 $25 $70,000
10月15日 12:30 Global MILLION$ Bounty Edition, $1M GTD [Stage 1] $50 $1,250,000
10月15日 13:15 Ultra Deepstack Bounty Turbo $54 $54 $50,000
10月15日 13:30 Sunday Six-Max $108 $108 $50,000
10月15日 13:30 Sunday Six-Max $10.80 $10.80 $65,000
10月15日 14:00 Battle of Marathon $320 $320 $125,000
10月15日 14:00 Battle of Marathon $32.10 $32.10 $125,000
10月15日 14:30 Sunday Bounty Superstack $85.50 $85.50 $150,000
10月15日 14:30 Sunday Bounty Superstack $8.55 $8.55 $50,000
10月15日 15:00 Sunday Grand Prix $150 [Bounty Edition] $150 $250,000
10月15日 15:00 GGMasters Sunday Bounty $25 $25 $120,000
10月15日 15:15 Ultra Deepstack Bounty Turbo $21.60 $21.60 $35,000
10月15日 15:30 Sunday Forty Stack $44 $44 $150,000
10月15日 15:30 MYSTERY BOUNTY Mini Main - $200K Top Bounty [Stage 1] $25 $2,000,000
10月15日 15:40 Sunday Omaholic Forty Stack $44 $44 $20,000
10月15日 16:30 Bounty Hunters HR Main Event $525, $1M GTD $525 $1,000,000
10月15日 16:30 Bounty Hunters Sunday Main Event $54, $500K GTD $54 $500,000
10月15日 17:30 Sunday Big Game $215 $215 $350,000
10月15日 17:30 Sunday Big Game $21.60 $21.60 $150,000
10月15日 17:40 Sunday Big Game Omaholic $215 $215 $40,000
10月15日 17:40 Sunday Big Game Omaholic $21.60 $21.60 $30,000
10月15日 18:30 GGMasters Bounty Special Edition $320 $320 $400,000
10月15日 18:30 Sunday Bounty King Jr $32.10 $32.10 $150,000
10月15日 18:30 Global MILLION$ Bounty Edition, $1M GTD [Stage 1] $50 $1,250,000
10月15日 19:30 Sunday BIG KO $108 [Big Bounties] $108 $75,000
10月15日 19:30 MYSTERY BOUNTY Mini Main - $200K Top Bounty [Stage 1] $25 $2,000,000
10月15日 19:40 Sunday BIG KO Omaholic $108 [Big Bounties] $108 $20,000
10月15日 20:30 Bounty Hunters HR Encore $525 $525 $75,000
10月15日 20:30 Bounty Hunters Encore $54 $54 $100,000
10月15日 21:00 Sunday Heater Special Edition $215 [Turbo] $215 $125,000
10月15日 21:00 Sunday Heater Special Edition $25 [Turbo] $25 $75,000
10月15日 21:40 Sunday Omaholic Heater $215 [Turbo] $215 $15,000
10月15日 21:40 Sunday Omaholic Heater $25 [Turbo] $25 $10,000
10月15日 22:00 SUPER SIX HR $630 [Turbo] $630 $30,000
10月15日 22:00 SUPER SIX $64.50 [Turbo] $64.50 $50,000
10月15日 22:30 America Bounty Bonaza $129 $129 $40,000
10月15日 22:30 America Bounty Bonaza $12.90 $12.90 $12,500
10月15日 23:30 Sunday Last Call $215 [Hyper] $215 $60,000
10月15日 23:30 Sunday Last Call $25 [Hyper] $25 $22,500
10月15日 23:30 MYSTERY BOUNTY Mini Main - $200K Top Bounty [Stage 1] $25 $2,000,000
10月16日 00:00 Midnight Madness $85.50 [Bounty Edition] $85.50 $40,000
10月16日 00:00 Midnight Madness $8.55 [Bounty Edition] $8.55 $12,500
10月16日 01:00 Speed Racer POWER HOUR $5 [10 BB] $5 $2,500
10月16日 01:10 Speed Racer POWER HOUR $10 [10 BB] $10 $3,500
10月16日 01:20 Speed Racer POWER HOUR $25 [10 BB] $25 $4,000
10月16日 01:30 Speed Racer POWER HOUR $50 [10 BB] $50 $4,500
10月16日 01:30 MYSTERY BOUNTY Mini Main - $200K Top Bounty [Stage 1] $25 $2,000,000
10月16日 01:40 Speed Racer POWER HOUR $100 [10 BB] $100 $5,000
10月16日 01:50 Speed Racer POWER HOUR $200 [10 BB] $200 $6,000
10月16日 03:30 MYSTERY BOUNTY Mini Main - $200K Top Bounty [Stage 1] $25 $2,000,000
10月16日 05:30 MYSTERY BOUNTY Mini Main - $200K Top Bounty [Stage 1] $25 $2,000,000
10月16日 07:30 MYSTERY BOUNTY Mini Main - $200K Top Bounty [Stage 1] $25 $2,000,000
10月16日 09:30 MYSTERY BOUNTY Mini Main - $200K Top Bounty [Stage 1] $25 $2,000,000
10月16日 11:30 MYSTERY BOUNTY Mini Main - $200K Top Bounty [Stage 1] $25 $2,000,000
10月16日 12:30 Bounty Blast-Off $88 $88 $20,000
10月16日 12:30 Bounty Blast-Off $8.80 $8.80 $25,000
10月16日 12:30 Global MILLION$ Bounty Edition, $1M GTD [Stage 1] $50 $1,250,000
10月16日 13:15 Ultra Deepstack Bounty Turbo $54 $54 $30,000
10月16日 13:15 Ultra Deepstack Bounty Turbo $5.40 $5.40 $20,000
10月16日 13:30 Monday Hangover $108 [Variable Levels] $108 $17,500
10月16日 13:30 Monday Hangover $10.80 [Variable Levels] $10.80 $15,000
10月16日 13:30 MYSTERY BOUNTY Mini Main - $200K Top Bounty [Stage 1] $25 $2,000,000
10月16日 14:30 Bounty Superstack $85.50 $85.50 $50,000
10月16日 14:30 Bounty Superstack $8.55 $8.55 $40,000
10月16日 15:00 GGMasters Bounty Warm-Up Special Edition $25 $25 $75,000
10月16日 15:00 Bounty Warm-Up $250 $250 $50,000
10月16日 15:30 Bounty Forty Stack HR $444 $444 $50,000
10月16日 15:30 Bounty Forty Stack $44 $44 $75,000
10月16日 15:30 MYSTERY BOUNTY Mini Main - $200K Top Bounty [Stage 1] $25 $2,000,000
10月16日 15:40 Omaholic Forty Stack $44 $44 $10,000
10月16日 16:30 Bounty Hunters HR $525 [6-Max] $525 $225,000
10月16日 16:30 Bounty Hunters Daily Main $54 [6-Max] $54 $175,000
10月16日 16:30 Bounty Hunters Mini Main $5.40 [6-Max] $5.40 $30,000
10月16日 17:30 Big Game $215 $215 $125,000
10月16日 17:30 Big Game $21.60 $21.60 $70,000
10月16日 17:30 MYSTERY BOUNTY Mini Main - $200K Top Bounty [Stage 1] $25 $2,000,000
10月16日 17:40 Big Game Omaholic $215 $215 $12,500
10月16日 17:40 Big Game Omaholic $21.60 $21.60 $12,500
10月16日 18:00 Monday Monster Stack $150 [Bounty Edition] $150 $100,000
10月16日 18:00 Monday Monster Stack $15 [Bounty Edition] $15 $50,000
10月16日 18:30 Bounty King Special Edition $320 $320 $50,000
10月16日 18:30 Bounty King Jr $32.10 $32.10 $65,000
10月16日 18:30 Global MILLION$ Bounty Edition, $1M GTD [Stage 1] $50 $1,250,000
10月16日 19:00 GGMasters Bounty Special Edition $25 $25 $40,000
10月16日 19:30 Big KO $108 [Big Bounties] $108 $40,000
10月16日 19:30 Big KO $15 [Big Bounties] $15 $30,000
10月16日 19:30 MYSTERY BOUNTY Mini Main - $200K Top Bounty [Stage 1] $25 $2,000,000
10月16日 20:30 Bounty Hunters HR Encore $525 $525 $20,000
10月16日 20:30 Bounty Hunters Encore $54 $54 $30,000
10月16日 21:00 Daily Heater Special Edition $215 [Turbo] $215 $35,000
10月16日 21:00 GGMasters Bounty Special Edition $25 [Turbo] $25 $25,000
10月16日 21:30 MYSTERY BOUNTY Mini Main - $200K Top Bounty [Stage 1] $25 $2,000,000
10月16日 22:00 SUPER SIX $64.50 [Turbo] $64.50 $25,000
10月16日 22:15 4-MAX HYPER $108 $108 $7,500
10月16日 22:15 4-MAX HYPER $10.80 $10.80 $8,000
10月16日 23:30 Turbo Takedown $215 [25 BB] $215 $10,000
10月16日 23:30 Turbo Takedown $25 [25 BB] $25 $10,000
10月16日 23:30 MYSTERY BOUNTY Mini Main - $200K Top Bounty [Stage 1] $25 $2,000,000
10月17日 00:00 Midnight Madness $85.50 [Bounty Edition] $85.50 $20,000
10月17日 00:00 Midnight Madness $8.55 [Bounty Edition] $8.55 $8,888
10月17日 01:00 Speed Racer POWER HOUR $5 [10 BB] $5 $2,000
10月17日 01:10 Speed Racer POWER HOUR $10 [10 BB] $10 $3,000
10月17日 01:20 Speed Racer POWER HOUR $25 [10 BB] $25 $3,500
10月17日 01:30 Speed Racer POWER HOUR $50 [10 BB] $50 $4,000
10月17日 01:30 MYSTERY BOUNTY Mini Main - $200K Top Bounty [Stage 1] $25 $2,000,000
10月17日 01:40 Speed Racer POWER HOUR $100 [10 BB] $100 $4,500
10月17日 01:50 Speed Racer POWER HOUR $200 [10 BB] $200 $5,000
10月17日 03:30 MYSTERY BOUNTY Mini Main - $200K Top Bounty [Stage 1] $25 $2,000,000
10月17日 05:30 MYSTERY BOUNTY Mini Main - $200K Top Bounty [Stage 1] $25 $2,000,000
10月17日 07:30 MYSTERY BOUNTY Mini Main - $200K Top Bounty [Stage 1] $25 $2,000,000
10月17日 09:30 MYSTERY BOUNTY Mini Main - $200K Top Bounty [Stage 1] $25 $2,000,000
10月17日 11:30 MYSTERY BOUNTY Mini Main - $200K Top Bounty [Stage 1] $25 $2,000,000
10月17日 12:30 Bounty Blast-Off $88 $88 $25,000
10月17日 12:30 Bounty Blast-Off $8.80 $8.80 $30,000
10月17日 12:30 Global MILLION$ Bounty Edition, $1M GTD [Stage 1] $50 $1,250,000
10月17日 13:15 Ultra Deepstack Bounty Turbo $54 $54 $30,000
10月17日 13:15 Ultra Deepstack Bounty Turbo $5.40 $5.40 $20,000
10月17日 13:30 Bounty Hunters 6-Max $108 $108 $20,000
10月17日 13:30 Bounty Hunters 6-Max $10.80 $10.80 $30,000
10月17日 13:30 MYSTERY BOUNTY Mini Main - $200K Top Bounty [Stage 1] $25 $2,000,000
10月17日 14:30 Bounty Superstack $85.50 $85.50 $50,000
10月17日 14:30 Bounty Superstack $8.55 $8.55 $40,000
10月17日 15:00 GGMasters Bounty Warm-Up Special Edition $25 $25 $75,000
10月17日 15:00 Bounty Warm-Up $250 $250 $40,000
10月17日 15:30 Bounty Forty Stack HR $444 $444 $40,000
10月17日 15:30 Bounty Forty Stack $44 $44 $75,000
10月17日 15:30 MYSTERY BOUNTY Mini Main - $200K Top Bounty [Stage 1] $25 $2,000,000
10月17日 15:40 Omaholic Forty Stack $44 $44 $10,000
10月17日 16:30 Bounty Hunters HR $525 [Deepstack] $525 $175,000
10月17日 16:30 Bounty Hunters Daily Main $54 [Deepstack] $54 $200,000
10月17日 16:30 Bounty Hunters Mini Main $5.40 [Deepstack] $5.40 $35,000
10月17日 17:30 Big Game $215 $215 $125,000
10月17日 17:30 Big Game $21.60 $21.60 $70,000
10月17日 17:30 MYSTERY BOUNTY Mini Main - $200K Top Bounty [Stage 1] $25 $2,000,000
10月17日 17:40 Big Game Omaholic $215 $215 $15,000
10月17日 17:40 Big Game Omaholic $21.60 $21.60 $12,500
10月17日 18:00 Tuesday Twinkle $150 [Mystery Bounty] $150 $150,000
10月17日 18:00 Tuesday Twinkle $15 [Mystery Bounty] $15 $100,000
10月17日 18:30 Bounty King Special Edition $320 $320 $30,000
10月17日 18:30 Bounty King Jr $32.10 $32.10 $65,000
10月17日 18:30 Global MILLION$ Bounty Edition, $1M GTD [Stage 1] $50 $1,250,000
10月17日 19:00 GGMasters Bounty Special Edition $25 $25 $40,000
10月17日 19:30 Big KO $108 [Big Bounties] $108 $30,000
10月17日 19:30 Big KO $15 [Big Bounties] $15 $40,000
10月17日 19:30 MYSTERY BOUNTY Mini Main - $200K Top Bounty [Stage 1] $25 $2,000,000
10月17日 20:30 Bounty Hunters HR Encore $525 $525 $20,000
10月17日 20:30 Bounty Hunters Encore $54 $54 $30,000
10月17日 21:00 Daily Heater Special Edition $215 [Turbo] $215 $35,000
10月17日 21:00 GGMasters Bounty Special Edition $25 [Turbo] $25 $25,000
10月17日 21:30 MYSTERY BOUNTY Mini Main - $200K Top Bounty [Stage 1] $25 $2,000,000
10月17日 22:00 SUPER SIX $64.50 [Turbo] $64.50 $25,000
10月17日 22:15 4-MAX HYPER $108 $108 $12,000
10月17日 22:15 4-MAX HYPER $10.80 $10.80 $10,000
10月17日 23:30 Turbo Takedown $215 [25 BB] $215 $10,000
10月17日 23:30 Turbo Takedown $25 [25 BB] $25 $10,000
10月17日 23:30 MYSTERY BOUNTY Mini Main - $200K Top Bounty [Stage 1] $25 $2,000,000
10月18日 水曜日 00:00 Midnight Madness $85.50 [Bounty Edition] $85.50 $20,000
10月18日 水曜日 00:00 Midnight Madness $8.55 [Bounty Edition] $8.55 $10,000
10月18日 水曜日 01:00 Speed Racer POWER HOUR $5 [10 BB] $5 $2,500
10月18日 水曜日 01:10 Speed Racer POWER HOUR $10 [10 BB] $10 $3,500
10月18日 水曜日 01:20 Speed Racer POWER HOUR $25 [10 BB] $25 $4,000
10月18日 水曜日 01:30 Speed Racer POWER HOUR $50 [10 BB] $50 $5,000
10月18日 水曜日 01:30 MYSTERY BOUNTY Mini Main - $200K Top Bounty [Stage 1] $25 $2,000,000
10月18日 水曜日 01:40 Speed Racer POWER HOUR $100 [10 BB] $100 $5,000
10月18日 水曜日 01:50 Speed Racer POWER HOUR $200 [10 BB] $200 $5,500
10月18日 水曜日 03:30 MYSTERY BOUNTY Mini Main - $200K Top Bounty [Stage 1] $25 $2,000,000
10月18日 水曜日 05:30 MYSTERY BOUNTY Mini Main - $200K Top Bounty [Stage 1] $25 $2,000,000
10月18日 水曜日 07:30 MYSTERY BOUNTY Mini Main - $200K Top Bounty [Stage 1] $25 $2,000,000
10月18日 水曜日 09:30 MYSTERY BOUNTY Mini Main - $200K Top Bounty [Stage 1] $25 $2,000,000
10月18日 水曜日 11:30 MYSTERY BOUNTY Mini Main - $200K Top Bounty [Stage 1] $25 $2,000,000
10月18日 水曜日 12:30 Bounty Blast-Off $88 $88 $25,000
10月18日 水曜日 12:30 Bounty Blast-Off $8.80 $8.80 $30,000
10月18日 水曜日 12:30 Global MILLION$ Bounty Edition, $1M GTD [Stage 1] $50 $1,250,000
10月18日 水曜日 13:15 Ultra Deepstack Bounty Turbo $54 $54 $30,000
10月18日 水曜日 13:15 Ultra Deepstack Bounty Turbo $5.40 $5.40 $20,000
10月18日 水曜日 13:30 Bounty Hunters 6-Max $108 $108 $25,000
10月18日 水曜日 13:30 Bounty Hunters 6-Max $10.80 $10.80 $30,000
10月18日 水曜日 13:30 MYSTERY BOUNTY Mini Main - $200K Top Bounty [Stage 1] $25 $2,000,000
10月18日 水曜日 14:30 Bounty Superstack $85.50 $85.50 $50,000
10月18日 水曜日 14:30 Bounty Superstack $8.55 $8.55 $40,000
10月18日 水曜日 15:00 GGMasters Bounty Warm-Up Special Edition $25 $25 $75,000
10月18日 水曜日 15:00 Bounty Warm-Up $250 $250 $25,000
10月18日 水曜日 15:30 Bounty Forty Stack HR $444 $444 $20,000
10月18日 水曜日 15:30 Bounty Forty Stack $44 $44 $75,000
10月18日 水曜日 15:30 MYSTERY BOUNTY Mini Main - $200K Top Bounty [Stage 1] $25 $2,000,000
10月18日 水曜日 15:40 Omaholic Forty Stack $44 $44 $10,000
10月18日 水曜日 16:30 Bounty Hunters HR $525 [Double Stack] $525 $150,000
10月18日 水曜日 16:30 Bounty Hunters Daily Main $54 [Double Stack] $54 $200,000
10月18日 水曜日 16:30 Bounty Hunters Mini Main $5.40 [Double Stack] $5.40 $35,000
10月18日 水曜日 16:30 MYSTERY BOUNTY Mini Main - $200K Top Bounty [Stage 1] $25 $2,000,000
10月18日 水曜日 17:30 Big Game $215 $215 $85,000
10月18日 水曜日 17:30 Big Game $21.60 $21.60 $70,000
10月18日 水曜日 17:40 Big Game Omaholic $215 $215 $15,000
10月18日 水曜日 17:40 Big Game Omaholic $21.60 $21.60 $12,500
10月18日 水曜日 18:00 Wednesday Double Stack $150 [Bounty Edition] $150 $100,000
10月18日 水曜日 18:00 Wednesday Double Stack $15 [Bounty Edition] $15 $60,000
10月18日 水曜日 18:30 Bounty King Special Edition $320 $320 $25,000
10月18日 水曜日 18:30 Bounty King Jr $32.10 $32.10 $65,000
10月18日 水曜日 18:30 Global MILLION$ Bounty Edition, $1M GTD [Stage 1] $50 $1,250,000
10月18日 水曜日 19:00 GGMasters Bounty Special Edition $25 $25 $40,000
10月18日 水曜日 19:30 Big KO $108 [Big Bounties] $108 $35,000
10月18日 水曜日 19:30 Big KO $15 [Big Bounties] $15 $50,000
10月18日 水曜日 19:30 MYSTERY BOUNTY Mini Main - $200K Top Bounty [Stage 1] $25 $2,000,000
10月18日 水曜日 20:30 Bounty Hunters HR Encore $525 $525 $20,000
10月18日 水曜日 20:30 Bounty Hunters Encore $54 $54 $30,000
10月18日 水曜日 21:00 Daily Heater Special Edition $215 [Turbo] $215 $25,000
10月18日 水曜日 21:00 GGMasters Bounty Special Edition $25 [Turbo] $25 $25,000
10月18日 水曜日 22:00 SUPER SIX $64.50 [Turbo] $64.50 $25,000
10月18日 水曜日 22:15 4-MAX HYPER $108 $108 $12,500
10月18日 水曜日 22:15 4-MAX HYPER $10.80 $10.80 $12,500
10月18日 水曜日 22:30 MYSTERY BOUNTY Mini Main - $200K Top Bounty [Stage 1] $25 $2,000,000
10月18日 水曜日 23:30 Turbo Takedown $215 [25 BB] $215 $10,000
10月18日 水曜日 23:30 Turbo Takedown $25 [25 BB] $25 $10,000
10月19日 00:00 Midnight Madness $85.50 [Bounty Edition] $85.50 $20,000
10月19日 00:00 Midnight Madness $8.55 [Bounty Edition] $8.55 $10,000
10月19日 01:00 Speed Racer POWER HOUR $5 [10 BB] $5 $3,000
10月19日 01:10 Speed Racer POWER HOUR $10 [10 BB] $10 $4,000
10月19日 01:20 Speed Racer POWER HOUR $25 [10 BB] $25 $4,000
10月19日 01:30 Speed Racer POWER HOUR $50 [10 BB] $50 $5,000
10月19日 01:30 MYSTERY BOUNTY Mini Main - $200K Top Bounty [Stage 1] $25 $2,000,000
10月19日 01:40 Speed Racer POWER HOUR $100 [10 BB] $100 $5,000
10月19日 01:50 Speed Racer POWER HOUR $200 [10 BB] $200 $5,000
10月19日 04:30 MYSTERY BOUNTY Mini Main - $200K Top Bounty [Stage 1] $25 $2,000,000
10月19日 07:30 MYSTERY BOUNTY Mini Main - $200K Top Bounty [Stage 1] $25 $2,000,000
10月19日 10:30 MYSTERY BOUNTY Mini Main - $200K Top Bounty [Stage 1] $25 $2,000,000
10月19日 12:30 Bounty Blast-Off $88 $88 $25,000
10月19日 12:30 Bounty Blast-Off $8.80 $8.80 $30,000
10月19日 12:30 Global MILLION$ Bounty Edition, $1M GTD [Stage 1] $50 $1,250,000
10月19日 13:15 Ultra Deepstack Bounty Turbo $54 $54 $30,000
10月19日 13:15 Ultra Deepstack Bounty Turbo $5.40 $5.40 $20,000
10月19日 13:30 Bounty Hunters 6-Max $108 $108 $25,000
10月19日 13:30 Bounty Hunters 6-Max $10.80 $10.80 $30,000
10月19日 13:30 MYSTERY BOUNTY Mini Main - $200K Top Bounty [Stage 1] $25 $2,000,000
10月19日 14:30 Bounty Superstack $85.50 $85.50 $50,000
10月19日 14:30 Bounty Superstack $8.55 $8.55 $40,000
10月19日 15:00 GGMasters Bounty Warm-Up Special Edition $25 $25 $75,000
10月19日 15:00 Bounty Warm-Up $250 $250 $40,000
10月19日 15:30 Bounty Forty Stack HR $444 $444 $30,000
10月19日 15:30 Bounty Forty Stack $44 $44 $75,000
10月19日 15:40 Omaholic Forty Stack $44 $44 $10,000
10月19日 16:30 Bounty Hunters HR $525 [Classic] $525 $225,000
10月19日 16:30 Bounty Hunters Daily Main $54 [Classic] $54 $200,000
10月19日 16:30 Bounty Hunters Mini Main $5.40 [Classic] $5.40 $35,000
10月19日 16:30 MYSTERY BOUNTY Mini Main - $200K Top Bounty [Stage 1] $25 $2,000,000
10月19日 17:30 Big Game $215 $215 $100,000
10月19日 17:30 Big Game $21.60 $21.60 $70,000
10月19日 17:40 Big Game Omaholic $215 $215 $15,000
10月19日 17:40 Big Game Omaholic $21.60 $21.60 $12,500
10月19日 18:00 Thursday Throwdown $150 $150 $150,000
10月19日 18:00 Thursday Throwdown $15 $15 $60,000
10月19日 18:30 Bounty King Special Edition $320 $320 $40,000
10月19日 18:30 Bounty King Jr $32.10 $32.10 $65,000
10月19日 18:30 Global MILLION$ Bounty Edition, $1M GTD [Stage 1] $50 $1,250,000
10月19日 19:00 GGMasters Bounty Special Edition $25 $25 $40,000
10月19日 19:30 Big KO $108 [Big Bounties] $108 $40,000
10月19日 19:30 Big KO $15 [Big Bounties] $15 $50,000
10月19日 19:30 MYSTERY BOUNTY Mini Main - $200K Top Bounty [Stage 1] $25 $2,000,000
10月19日 20:30 Bounty Hunters HR Encore $525 $525 $20,000
10月19日 20:30 Bounty Hunters Encore $54 $54 $30,000
10月19日 21:00 Daily Heater Special Edition $215 [Turbo] $215 $35,000
10月19日 21:00 GGMasters Bounty Special Edition $25 [Turbo] $25 $25,000
10月19日 22:00 SUPER SIX $64.50 [Turbo] $64.50 $25,000
10月19日 22:15 4-MAX HYPER $108 $108 $12,500
10月19日 22:15 4-MAX HYPER $10.80 $10.80 $12,500
10月19日 22:30 MYSTERY BOUNTY Mini Main - $200K Top Bounty [Stage 1] $25 $2,000,000
10月19日 23:30 Turbo Takedown $215 [25 BB] $215 $10,000
10月19日 23:30 Turbo Takedown $25 [25 BB] $25 $10,000
10月20日 00:00 Midnight Madness $85.50 [Bounty Edition] $85.50 $20,000
10月20日 00:00 Midnight Madness $8.55 [Bounty Edition] $8.55 $10,000
10月20日 01:00 Speed Racer POWER HOUR $5 [10 BB] $5 $3,000
10月20日 01:10 Speed Racer POWER HOUR $10 [10 BB] $10 $4,000
10月20日 01:20 Speed Racer POWER HOUR $25 [10 BB] $25 $4,000
10月20日 01:30 Speed Racer POWER HOUR $50 [10 BB] $50 $5,000
10月20日 01:30 MYSTERY BOUNTY Mini Main - $200K Top Bounty [Stage 1] $25 $2,000,000
10月20日 01:40 Speed Racer POWER HOUR $100 [10 BB] $100 $5,000
10月20日 01:50 Speed Racer POWER HOUR $200 [10 BB] $200 $5,000
10月20日 04:30 MYSTERY BOUNTY Mini Main - $200K Top Bounty [Stage 1] $25 $2,000,000
10月20日 07:30 MYSTERY BOUNTY Mini Main - $200K Top Bounty [Stage 1] $25 $2,000,000
10月20日 10:30 MYSTERY BOUNTY Mini Main - $200K Top Bounty [Stage 1] $25 $2,000,000
10月20日 12:30 Bounty Blast-Off $88 $88 $25,000
10月20日 12:30 Bounty Blast-Off $8.80 $8.80 $30,000
10月20日 12:30 Global MILLION$ Bounty Edition, $1M GTD [Stage 1] $50 $1,250,000
10月20日 13:15 Ultra Deepstack Bounty Turbo $54 $54 $30,000
10月20日 13:15 Ultra Deepstack Bounty Turbo $5.40 $5.40 $20,000
10月20日 13:30 Furious Friday 5-Max $108 $108 $15,000
10月20日 13:30 Furious Friday 5-Max $10.80 $10.80 $25,000
10月20日 13:30 MYSTERY BOUNTY Mini Main - $200K Top Bounty [Stage 1] $25 $2,000,000
10月20日 14:00 Speed Racer POWER HOUR $5 [10 BB] $5 $3,500
10月20日 14:10 Speed Racer POWER HOUR $10 [10 BB] $10 $4,000
10月20日 14:20 Speed Racer POWER HOUR $20 [10 BB] $20 $5,000
10月20日 14:30 Bounty Superstack $85.50 $85.50 $40,000
10月20日 14:30 Bounty Superstack $8.55 $8.55 $40,000
10月20日 14:30 Speed Racer POWER HOUR $40 [10 BB] $40 $5,000
10月20日 14:40 Speed Racer POWER HOUR $80 [10 BB] $80 $5,000
10月20日 14:50 Speed Racer POWER HOUR $150 [10 BB] $150 $5,000
10月20日 15:00 GGMasters Bounty Warm-Up Special Edition $25 $25 $75,000
10月20日 15:00 Bounty Warm-Up $250 $250 $20,000
10月20日 15:30 Bounty Forty Stack HR $444 $444 $15,000
10月20日 15:30 Bounty Forty Stack $44 $44 $75,000
10月20日 15:40 Omaholic Forty Stack $44 $44 $10,000
10月20日 16:30 Bounty Hunters HR $525 [Ultradeep] $525 $125,000
10月20日 16:30 Bounty Hunters Daily Main $54 [Ultradeep] $54 $200,000
10月20日 16:30 Bounty Hunters Mini Main $5.40 [Ultradeep] $5.40 $35,000
10月20日 16:30 MYSTERY BOUNTY Mini Main - $200K Top Bounty [Stage 1] $25 $2,000,000
10月20日 17:30 Big Game $215 $215 $70,000
10月20日 17:30 Big Game $21.60 $21.60 $70,000
10月20日 17:40 Big Game Omaholic $215 $215 $8,000
10月20日 17:40 Big Game Omaholic $21.60 $21.60 $12,500
10月20日 18:00 Friday Night Fight $150 [6-Max] $150 $125,000
10月20日 18:00 Friday Night Fight $15 [6-Max] $15 $60,000
10月20日 18:30 Bounty King Special Edition $320 $320 $20,000
10月20日 18:30 Bounty King Jr $32.10 $32.10 $65,000
10月20日 18:30 Global MILLION$ Bounty Edition, $1M GTD [Stage 1] $50 $1,250,000
10月20日 19:00 GGMasters Bounty Special Edition $25 $25 $40,000
10月20日 19:30 Big KO $108 [Big Bounties] $108 $25,000
10月20日 19:30 Big KO $15 [Big Bounties] $15 $50,000
10月20日 19:30 MYSTERY BOUNTY Mini Main - $200K Top Bounty [Stage 1] $25 $2,000,000
10月20日 20:30 Bounty Hunters HR Encore $525 $525 $15,000
10月20日 20:30 Bounty Hunters Encore $54 $54 $30,000
10月20日 21:00 Daily Heater Special Edition $215 [Turbo] $215 $20,000
10月20日 21:00 GGMasters Bounty Special Edition $25 [Turbo] $25 $25,000
10月20日 22:00 SUPER SIX $64.50 [Turbo] $64.50 $25,000
10月20日 22:15 4-MAX HYPER $108 $108 $8,500
10月20日 22:15 4-MAX HYPER $10.80 $10.80 $12,500
10月20日 22:30 MYSTERY BOUNTY Mini Main - $200K Top Bounty [Stage 1] $25 $2,000,000
10月20日 23:30 Turbo Takedown $215 [25 BB] $215 $7,500
10月20日 23:30 Turbo Takedown $25 [25 BB] $25 $10,000
10月21日 00:00 Midnight Madness $85.50 [Bounty Edition] $85.50 $15,000
10月21日 00:00 Midnight Madness $8.55 [Bounty Edition] $8.55 $10,000
10月21日 00:30 Global MILLION$ Bounty Edition, $1M GTD [Stage 1] $50 $1,250,000
10月21日 01:00 Speed Racer POWER HOUR $5 [10 BB] $5 $3,000
10月21日 01:10 Speed Racer POWER HOUR $10 [10 BB] $10 $4,000
10月21日 01:20 Speed Racer POWER HOUR $25 [10 BB] $25 $4,000
10月21日 01:30 Speed Racer POWER HOUR $50 [10 BB] $50 $5,000
10月21日 01:30 MYSTERY BOUNTY Mini Main - $200K Top Bounty [Stage 1] $25 $2,000,000
10月21日 01:40 Speed Racer POWER HOUR $100 [10 BB] $100 $5,000
10月21日 01:50 Speed Racer POWER HOUR $200 [10 BB] $200 $5,000
10月21日 04:30 MYSTERY BOUNTY Mini Main - $200K Top Bounty [Stage 1] $25 $2,000,000
10月21日 06:30 Global MILLION$ Bounty Edition, $1M GTD [Stage 1] $50 $1,250,000
10月21日 07:30 MYSTERY BOUNTY Mini Main - $200K Top Bounty [Stage 1] $25 $2,000,000
10月21日 10:30 MYSTERY BOUNTY Mini Main - $200K Top Bounty [Stage 1] $25 $2,000,000
10月21日 12:30 Bounty Blast-Off $88 $88 $25,000
10月21日 12:30 Bounty Blast-Off $8.80 $8.80 $30,000
10月21日 12:30 Global MILLION$ Bounty Edition, $1M GTD [Stage 1] $50 $1,250,000
10月21日 13:15 Ultra Deepstack Bounty Turbo $54 $54 $30,000
10月21日 13:15 Ultra Deepstack Bounty Turbo $5.40 $5.40 $20,000
10月21日 13:30 Saturday Showdown 7-Max $108 $108 $20,000
10月21日 13:30 Saturday Showdown 7-Max $10.80 $10.80 $40,000
10月21日 13:30 MYSTERY BOUNTY Mini Main - $200K Top Bounty [Stage 1] $25 $2,000,000
10月21日 14:00 Speed Racer POWER HOUR $5 [10 BB] $5 $3,500
10月21日 14:10 Speed Racer POWER HOUR $10 [10 BB] $10 $4,000
10月21日 14:20 Speed Racer POWER HOUR $20 [10 BB] $20 $5,000
10月21日 14:30 Bounty Superstack $85.50 $85.50 $50,000
10月21日 14:30 Bounty Superstack $8.55 $8.55 $40,000
10月21日 14:30 Speed Racer POWER HOUR $40 [10 BB] $40 $5,000
10月21日 14:40 Speed Racer POWER HOUR $80 [10 BB] $80 $5,000
10月21日 14:50 Speed Racer POWER HOUR $150 [10 BB] $150 $5,000
10月21日 15:00 GGMasters Bounty Warm-Up Special Edition $25 $25 $75,000
10月21日 15:00 Bounty Warm-Up $250 $250 $25,000
10月21日 15:30 Bounty Forty Stack HR $444 $444 $20,000
10月21日 15:30 Bounty Forty Stack $44 $44 $75,000
10月21日 15:40 Omaholic Forty Stack $44 $44 $10,000
10月21日 16:30 Bounty Hunters HR $525 [Big Bounties] $525 $175,000
10月21日 16:30 Bounty Hunters Daily Main $54 [Big Bounties] $54 $200,000
10月21日 16:30 Bounty Hunters Mini Main $5.40 [Big Bounties] $5.40 $35,000
10月21日 16:30 MYSTERY BOUNTY Mini Main - $200K Top Bounty [Stage 1] $25 $2,000,000
10月21日 17:30 Big Game $21.60 $21.60 $70,000
10月21日 17:40 Big Game Omaholic $215 $215 $15,000
10月21日 17:40 Big Game Omaholic $21.60 $21.60 $12,500
10月21日 18:00 Saturday Secret KO $150 [Mystery Bounty] $150 $300,000
10月21日 18:00 Saturday Secret KO $15 [Mystery Bounty] $15 $175,000
10月21日 18:30 Bounty King Special Edition $320 $320 $20,000
10月21日 18:30 Bounty King Jr $32.10 $32.10 $65,000
10月21日 18:30 Global MILLION$ Bounty Edition, $1M GTD [Stage 1] $50 $1,250,000
10月21日 19:00 GGMasters Bounty Special Edition $25 $25 $40,000
10月21日 19:30 Big KO $108 [Big Bounties] $108 $25,000
10月21日 19:30 Big KO $15 [Big Bounties] $15 $40,000
10月21日 19:30 MYSTERY BOUNTY Mini Main - $200K Top Bounty [Stage 1] $25 $2,000,000
10月21日 20:30 Bounty Hunters HR Encore $525 $525 $15,000
10月21日 20:30 Bounty Hunters Encore $54 $54 $30,000
10月21日 21:00 Daily Heater Special Edition $215 [Turbo] $215 $25,000
10月21日 21:00 GGMasters Bounty Special Edition $25 [Turbo] $25 $25,000
10月21日 22:00 SUPER SIX $64.50 [Turbo] $64.50 $25,000
10月21日 22:15 4-MAX HYPER $108 $108 $8,500
10月21日 22:15 4-MAX HYPER $10.80 $10.80 $12,500
10月21日 22:30 MYSTERY BOUNTY Mini Main - $200K Top Bounty [Stage 1] $25 $2,000,000
10月21日 23:30 Turbo Takedown $215 [25 BB] $215 $7,500
10月21日 23:30 Turbo Takedown $25 [25 BB] $25 $10,000
10月22日 00:00 Midnight Madness $85.50 [Bounty Edition] $85.50 $15,000
10月22日 00:00 Midnight Madness $8.55 [Bounty Edition] $8.55 $10,000
10月22日 00:30 Global MILLION$ Bounty Edition, $1M GTD [Stage 1] $50 $1,250,000
10月22日 01:30 MYSTERY BOUNTY Mini Main - $200K Top Bounty [Stage 1] $25 $2,000,000
10月22日 03:30 MYSTERY BOUNTY Mini Main - $200K Top Bounty [Stage 1] $25 $2,000,000
10月22日 05:30 MYSTERY BOUNTY Mini Main - $200K Top Bounty [Stage 1] $25 $2,000,000
10月22日 06:30 Global MILLION$ Bounty Edition, $1M GTD [Stage 1] $50 $1,250,000
10月22日 07:30 MYSTERY BOUNTY Mini Main - $200K Top Bounty [Stage 1] $25 $2,000,000
10月22日 09:30 MYSTERY BOUNTY Mini Main - $200K Top Bounty [Stage 1] $25 $2,000,000
10月22日 11:30 MYSTERY BOUNTY Mini Main - $200K Top Bounty [Stage 1] $25 $2,000,000
10月22日 11:30 MYSTERY BOUNTY Main Event - $500K Top Bounty [Stage 1] $210 $5,000,000
10月22日 12:30 Sunday Blast-Off $215 $215 $40,000
10月22日 12:30 Sunday Blast-Off $25 $25 $100,000
10月22日 12:30 Global MILLION$ Bounty Edition, $1M GTD [Stage 1] $50 $1,250,000
10月22日 13:15 Ultra Deepstack Bounty Turbo $54 $54 $75,000
10月22日 13:30 MYSTERY BOUNTY Mini Main - $200K Top Bounty [Stage 1] $25 $2,000,000
10月22日 13:30 Sunday Six-Max $108 $108 $60,000
10月22日 13:30 Sunday Six-Max $10.80 $10.80 $75,000
10月22日 14:00 Battle of Marathon $320 $320 $100,000
10月22日 14:00 Battle of Marathon $32.10 $32.10 $125,000
10月22日 14:00 Speed Racer POWER HOUR $5 [10 BB] $5 $3,500
10月22日 14:10 Speed Racer POWER HOUR $10 [10 BB] $10 $4,000
10月22日 14:20 Speed Racer POWER HOUR $20 [10 BB] $20 $5,000
10月22日 14:30 Sunday Bounty Superstack $85.50 $85.50 $150,000
10月22日 14:30 Sunday Bounty Superstack $8.55 $8.55 $75,000
10月22日 14:30 Speed Racer POWER HOUR $40 [10 BB] $40 $5,000
10月22日 14:40 Speed Racer POWER HOUR $80 [10 BB] $80 $5,000
10月22日 14:50 Speed Racer POWER HOUR $150 [10 BB] $150 $5,000
10月22日 15:00 Sunday Grand Prix $150 [Bounty Edition] $150 $250,000
10月22日 15:00 GGMasters Sunday Bounty $25 $25 $150,000
10月22日 15:15 Ultra Deepstack Bounty Turbo $21.60 $21.60 $50,000
10月22日 15:30 MYSTERY BOUNTY Mini Main - $200K Top Bounty [Stage 1] $25 $2,000,000
10月22日 15:30 Sunday Forty Stack $44 $44 $200,000
10月22日 15:30 MYSTERY BOUNTY Main Event - $500K Top Bounty [Stage 1] $210 $5,000,000
10月22日 15:40 Sunday Omaholic Forty Stack $44 $44 $20,000
10月22日 16:30 Bounty Hunters HR Main Event $525, $1M GTD $525 $1,000,000
10月22日 16:30 Bounty Hunters Sunday Main Event $54, $500K GTD $54 $500,000
10月22日 17:30 MYSTERY BOUNTY Mini Main - $200K Top Bounty [Stage 1] $25 $2,000,000
10月22日 17:30 Sunday Big Game $215 $215 $350,000
10月22日 17:30 Sunday Big Game $21.60 $21.60 $150,000
10月22日 17:40 Sunday Big Game Omaholic $215 $215 $40,000
10月22日 17:40 Sunday Big Game Omaholic $21.60 $21.60 $25,000
10月22日 18:30 GGMasters Bounty Special Edition $320 $320 $400,000
10月22日 18:30 Sunday Bounty King Jr $32.10 $32.10 $150,000
10月22日 18:30 Global MILLION$ Bounty Edition, $1M GTD [Stage 1] $50 $1,250,000
10月22日 19:30 MYSTERY BOUNTY Mini Main - $200K Top Bounty [Stage 1] $25 $2,000,000
10月22日 19:30 Sunday BIG KO $108 [Big Bounties] $108 $100,000
10月22日 19:30 MYSTERY BOUNTY Main Event - $500K Top Bounty [Stage 1] $210 $5,000,000
10月22日 19:40 Sunday BIG KO Omaholic $108 [Big Bounties] $108 $25,000
10月22日 20:30 Bounty Hunters HR Encore $525 $525 $50,000
10月22日 20:30 Bounty Hunters Encore $54 $54 $100,000
10月22日 21:00 Sunday Heater Special Edition $215 [Turbo] $215 $120,000
10月22日 21:00 Sunday Heater Special Edition $25 [Turbo] $25 $75,000
10月22日 21:30 MYSTERY BOUNTY Mini Main - $200K Top Bounty [Stage 1] $25 $2,000,000
10月22日 21:40 Sunday Omaholic Heater $215 [Turbo] $215 $15,000
10月22日 21:40 Sunday Omaholic Heater $25 [Turbo] $25 $12,500
10月22日 22:00 SUPER SIX HR $630 [Turbo] $630 $30,000
10月22日 22:00 SUPER SIX $64.50 [Turbo] $64.50 $50,000
10月22日 22:30 America Bounty Bonaza $129 $129 $40,000
10月22日 22:30 America Bounty Bonaza $12.90 $12.90 $20,000
10月22日 23:30 MYSTERY BOUNTY Mini Main - $200K Top Bounty [Stage 1] $25 $2,000,000
10月22日 23:30 Sunday Last Call $215 [Hyper] $215 $50,000
10月22日 23:30 Sunday Last Call $25 [Hyper] $25 $30,000
10月22日 23:30 MYSTERY BOUNTY Main Event - $500K Top Bounty [Stage 1] $210 $5,000,000
10月23日 00:00 Midnight Madness $85.50 [Bounty Edition] $85.50 $40,000
10月23日 00:00 Midnight Madness $8.55 [Bounty Edition] $8.55 $12,500
10月23日 00:30 Global MILLION$ Bounty Edition, $1M GTD [Stage 1] $50 $1,250,000
10月23日 01:00 Speed Racer POWER HOUR $5 [10 BB] $5 $4,000
10月23日 01:10 Speed Racer POWER HOUR $10 [10 BB] $10 $5,000
10月23日 01:20 Speed Racer POWER HOUR $25 [10 BB] $25 $7,500
10月23日 01:30 MYSTERY BOUNTY Mini Main - $200K Top Bounty [Stage 1] $25 $2,000,000
10月23日 01:30 Speed Racer POWER HOUR $50 [10 BB] $50 $8,500
10月23日 01:40 Speed Racer POWER HOUR $100 [10 BB] $100 $10,000
10月23日 01:50 Speed Racer POWER HOUR $200 [10 BB] $200 $10,000
10月23日 03:30 MYSTERY BOUNTY Mini Main - $200K Top Bounty [Stage 1] $25 $2,000,000
10月23日 05:30 MYSTERY BOUNTY Mini Main - $200K Top Bounty [Stage 1] $25 $2,000,000
10月23日 06:30 Global MILLION$ Bounty Edition, $1M GTD [Stage 1] $50 $1,250,000
10月23日 07:30 MYSTERY BOUNTY Mini Main - $200K Top Bounty [Stage 1] $25 $2,000,000
10月23日 09:30 MYSTERY BOUNTY Mini Main - $200K Top Bounty [Stage 1] $25 $2,000,000
10月23日 11:30 MYSTERY BOUNTY Mini Main - $200K Top Bounty [Stage 1] $25 $2,000,000
10月23日 11:30 MYSTERY BOUNTY Main Event - $500K Top Bounty [Stage 1] $210 $5,000,000
10月23日 12:30 Global MILLION$ Bounty Edition, $1M GTD [Stage 1] $50 $1,250,000
10月23日 12:30 Bounty Blast-Off $88 $88 $20,000
10月23日 12:30 Bounty Blast-Off $8.80 $8.80 $25,000
10月23日 13:15 Ultra Deepstack Bounty Turbo $54 $54 $30,000
10月23日 13:15 Ultra Deepstack Bounty Turbo $5.40 $5.40 $20,000
10月23日 13:30 MYSTERY BOUNTY Mini Main - $200K Top Bounty [Stage 1] $25 $2,000,000
10月23日 13:30 Monday Hangover $108 [Variable Levels] $108 $17,500
10月23日 13:30 Monday Hangover $10.80 [Variable Levels] $10.80 $15,000
10月23日 14:00 Speed Racer POWER HOUR $5 [10 BB] $5 $3,500
10月23日 14:10 Speed Racer POWER HOUR $10 [10 BB] $10 $4,000
10月23日 14:20 Speed Racer POWER HOUR $20 [10 BB] $20 $5,000
10月23日 14:30 Bounty Superstack $85.50 $85.50 $50,000
10月23日 14:30 Bounty Superstack $8.55 $8.55 $40,000
10月23日 14:30 Speed Racer POWER HOUR $40 [10 BB] $40 $5,000
10月23日 14:40 Speed Racer POWER HOUR $80 [10 BB] $80 $5,000
10月23日 14:50 Speed Racer POWER HOUR $150 [10 BB] $150 $5,000
10月23日 15:00 GGMasters Bounty Warm-Up Special Edition $25 $25 $75,000
10月23日 15:00 Bounty Warm-Up $250 $250 $50,000
10月23日 15:30 MYSTERY BOUNTY Mini Main - $200K Top [Last Chance] $25 $2,000,000
10月23日 15:30 MYSTERY BOUNTY Main Event - $500K Top Bounty [Stage 1] $210 $5,000,000
10月23日 15:30 Bounty Forty Stack HR $444 $444 $50,000
10月23日 15:30 Bounty Forty Stack $44 $44 $75,000
10月23日 15:40 Omaholic Forty Stack $44 $44 $10,000
10月23日 16:30 MYSTERY BOUNTY Mini Main - $200K Top [Last Minute] $25 $2,000,000
10月23日 16:30 Global MILLION$ Bounty Edition, $1M GTD [Stage 1] $50 $1,250,000
10月23日 16:30 Bounty Hunters HR $525 [6-Max] $525 $225,000
10月23日 16:30 Bounty Hunters Daily Main $54 [6-Max] $54 $175,000
10月23日 16:30 Bounty Hunters Mini Main $5.40 [6-Max] $5.40 $30,000
10月23日 17:30 Big Game $215 $215 $125,000
10月23日 17:30 Big Game $21.60 $21.60 $70,000
10月23日 17:40 Big Game Omaholic $215 $215 $12,500
10月23日 17:40 Big Game Omaholic $21.60 $21.60 $12,500
10月23日 18:00 Monday Monster Stack $150 [Bounty Edition] $150 $100,000
10月23日 18:00 Monday Monster Stack $15 [Bounty Edition] $15 $50,000
10月23日 18:30 MYSTERY BOUNTY Mini Main - $200K Top Bounty [Day 2] $25 $2,000,000
10月23日 18:30 Bounty King Special Edition $320 $320 $50,000
10月23日 18:30 Bounty King Jr $32.10 $32.10 $65,000
10月23日 18:40 Global MILLION$ Bounty Edition, $1M GTD [Stage 1] $50 $1,250,000
10月23日 19:00 GGMasters Bounty Special Edition $25 $25 $40,000
10月23日 19:30 MYSTERY BOUNTY Main Event - $500K Top Bounty [Stage 1] $210 $5,000,000
10月23日 19:30 Big KO $108 [Big Bounties] $108 $40,000
10月23日 19:30 Big KO $15 [Big Bounties] $15 $30,000
10月23日 20:30 Global MILLION$ Bounty Edition, $1M GTD [Stage 1] $50 $1,250,000
10月23日 20:30 Bounty Hunters HR Encore $525 $525 $20,000
10月23日 20:30 Bounty Hunters Encore $54 $54 $30,000
10月23日 21:00 Daily Heater Special Edition $215 [Turbo] $215 $35,000
10月23日 21:00 GGMasters Bounty Special Edition $25 [Turbo] $25 $25,000
10月23日 22:00 SUPER SIX $64.50 [Turbo] $64.50 $25,000
10月23日 22:15 4-MAX HYPER $108 $108 $7,500
10月23日 22:15 4-MAX HYPER $10.80 $10.80 $8,000
10月23日 22:30 Global MILLION$ Bounty Edition, $1M GTD [Stage 1] $50 $1,250,000
10月23日 23:30 MYSTERY BOUNTY Main Event - $500K Top Bounty [Stage 1] $210 $5,000,000
10月23日 23:30 Turbo Takedown $215 [25 BB] $215 $10,000
10月23日 23:30 Turbo Takedown $25 [25 BB] $25 $10,000
10月24日 00:00 Midnight Madness $85.50 [Bounty Edition] $85.50 $20,000
10月24日 00:00 Midnight Madness $8.55 [Bounty Edition] $8.55 $8,888
10月24日 00:30 Global MILLION$ Bounty Edition, $1M GTD [Stage 1] $50 $1,250,000
10月24日 01:00 Speed Racer POWER HOUR $5 [10 BB] $5 $2,000
10月24日 01:10 Speed Racer POWER HOUR $10 [10 BB] $10 $3,000
10月24日 01:20 Speed Racer POWER HOUR $25 [10 BB] $25 $3,500
10月24日 01:30 Speed Racer POWER HOUR $50 [10 BB] $50 $4,000
10月24日 01:40 Speed Racer POWER HOUR $100 [10 BB] $100 $4,500
10月24日 01:50 Speed Racer POWER HOUR $200 [10 BB] $200 $5,000
10月24日 02:30 Global MILLION$ Bounty Edition, $1M GTD [Stage 1] $50 $1,250,000
10月24日 04:30 Global MILLION$ Bounty Edition, $1M GTD [Stage 1] $50 $1,250,000
10月24日 06:30 Global MILLION$ Bounty Edition, $1M GTD [Stage 1] $50 $1,250,000
10月24日 08:30 Global MILLION$ Bounty Edition, $1M GTD [Stage 1] $50 $1,250,000
10月24日 10:30 Global MILLION$ Bounty Edition, $1M GTD [Stage 1] $50 $1,250,000
10月24日 11:30 MYSTERY BOUNTY Main Event - $500K Top Bounty [Stage 1] $210 $5,000,000
10月24日 12:30 Global MILLION$ Bounty Edition, $1M GTD [Stage 1] $50 $1,250,000
10月24日 12:30 Bounty Blast-Off $88 $88 $25,000
10月24日 12:30 Bounty Blast-Off $8.80 $8.80 $30,000
10月24日 13:15 Ultra Deepstack Bounty Turbo $54 $54 $30,000
10月24日 13:15 Ultra Deepstack Bounty Turbo $5.40 $5.40 $20,000
10月24日 13:30 Bounty Hunters 6-Max $108 $108 $20,000
10月24日 13:30 Bounty Hunters 6-Max $10.80 $10.80 $30,000
10月24日 14:00 Speed Racer POWER HOUR $5 [10 BB] $5 $3,500
10月24日 14:10 Speed Racer POWER HOUR $10 [10 BB] $10 $4,000
10月24日 14:20 Speed Racer POWER HOUR $20 [10 BB] $20 $5,000
10月24日 14:30 Global MILLION$ Bounty Edition, $1M GTD [Stage 1] $50 $1,250,000
10月24日 14:30 Bounty Superstack $85.50 $85.50 $50,000
10月24日 14:30 Bounty Superstack $8.55 $8.55 $40,000
10月24日 14:30 Speed Racer POWER HOUR $40 [10 BB] $40 $5,000
10月24日 14:40 Speed Racer POWER HOUR $80 [10 BB] $80 $5,000
10月24日 14:50 Speed Racer POWER HOUR $150 [10 BB] $150 $5,000
10月24日 15:00 GGMasters Bounty Warm-Up Special Edition $25 $25 $75,000
10月24日 15:00 Bounty Warm-Up $250 $250 $40,000
10月24日 15:30 MYSTERY BOUNTY Main Event - $500K Top Bounty [Stage 1] $210 $5,000,000
10月24日 15:30 Bounty Forty Stack HR $444 $444 $40,000
10月24日 15:30 Bounty Forty Stack $44 $44 $75,000
10月24日 15:40 Omaholic Forty Stack $44 $44 $10,000
10月24日 16:30 Global MILLION$ Bounty Edition, $1M GTD [Stage 1] $50 $1,250,000
10月24日 16:30 Bounty Hunters HR $525 [Deepstack] $525 $175,000
10月24日 16:30 Bounty Hunters Daily Main $54 [Deepstack] $54 $200,000
10月24日 16:30 Bounty Hunters Mini Main $5.40 [Deepstack] $5.40 $35,000
10月24日 17:30 Big Game $215 $215 $125,000
10月24日 17:30 Big Game $21.60 $21.60 $70,000
10月24日 17:40 Big Game Omaholic $215 $215 $15,000
10月24日 17:40 Big Game Omaholic $21.60 $21.60 $12,500
10月24日 18:00 Tuesday Twinkle $150 [Mystery Bounty] $150 $150,000
10月24日 18:00 Tuesday Twinkle $15 [Mystery Bounty] $15 $100,000
10月24日 18:30 Global MILLION$ Bounty Edition, $1M GTD [Stage 1] $50 $1,250,000
10月24日 18:30 Bounty King Special Edition $320 $320 $30,000
10月24日 18:30 Bounty King Jr $32.10 $32.10 $65,000
10月24日 19:00 GGMasters Bounty Special Edition $25 $25 $40,000
10月24日 19:30 MYSTERY BOUNTY Main Event - $500K Top Bounty [Stage 1] $210 $5,000,000
10月24日 19:30 Big KO $108 [Big Bounties] $108 $30,000
10月24日 19:30 Big KO $15 [Big Bounties] $15 $40,000
10月24日 20:30 Global MILLION$ Bounty Edition, $1M GTD [Stage 1] $50 $1,250,000
10月24日 20:30 Bounty Hunters HR Encore $525 $525 $20,000
10月24日 20:30 Bounty Hunters Encore $54 $54 $30,000
10月24日 21:00 Daily Heater Special Edition $215 [Turbo] $215 $35,000
10月24日 21:00 GGMasters Bounty Special Edition $25 [Turbo] $25 $25,000
10月24日 22:00 SUPER SIX $64.50 [Turbo] $64.50 $25,000
10月24日 22:15 4-MAX HYPER $108 $108 $12,000
10月24日 22:15 4-MAX HYPER $10.80 $10.80 $10,000
10月24日 22:30 Global MILLION$ Bounty Edition, $1M GTD [Stage 1] $50 $1,250,000
10月24日 23:30 MYSTERY BOUNTY Main Event - $500K Top Bounty [Stage 1] $210 $5,000,000
10月24日 23:30 Turbo Takedown $215 [25 BB] $215 $10,000
10月24日 23:30 Turbo Takedown $25 [25 BB] $25 $10,000
10月25日 水曜日 00:00 Midnight Madness $85.50 [Bounty Edition] $85.50 $20,000
10月25日 水曜日 00:00 Midnight Madness $8.55 [Bounty Edition] $8.55 $10,000
10月25日 水曜日 00:30 Global MILLION$ Bounty Edition, $1M GTD [Stage 1] $50 $1,250,000
10月25日 水曜日 01:00 Speed Racer POWER HOUR $5 [10 BB] $5 $2,500
10月25日 水曜日 01:10 Speed Racer POWER HOUR $10 [10 BB] $10 $3,500
10月25日 水曜日 01:20 Speed Racer POWER HOUR $25 [10 BB] $25 $4,000
10月25日 水曜日 01:30 Speed Racer POWER HOUR $50 [10 BB] $50 $5,000
10月25日 水曜日 01:40 Speed Racer POWER HOUR $100 [10 BB] $100 $5,000
10月25日 水曜日 01:50 Speed Racer POWER HOUR $200 [10 BB] $200 $5,500
10月25日 水曜日 02:30 Global MILLION$ Bounty Edition, $1M GTD [Stage 1] $50 $1,250,000
10月25日 水曜日 04:30 Global MILLION$ Bounty Edition, $1M GTD [Stage 1] $50 $1,250,000
10月25日 水曜日 06:30 Global MILLION$ Bounty Edition, $1M GTD [Stage 1] $50 $1,250,000
10月25日 水曜日 08:30 Global MILLION$ Bounty Edition, $1M GTD [Stage 1] $50 $1,250,000
10月25日 水曜日 10:30 Global MILLION$ Bounty Edition, $1M GTD [Stage 1] $50 $1,250,000
10月25日 水曜日 11:30 MYSTERY BOUNTY Main Event - $500K Top Bounty [Stage 1] $210 $5,000,000
10月25日 水曜日 12:30 Global MILLION$ Bounty Edition, $1M GTD [Stage 1] $50 $1,250,000
10月25日 水曜日 12:30 Bounty Blast-Off $88 $88 $25,000
10月25日 水曜日 12:30 Bounty Blast-Off $8.80 $8.80 $30,000
10月25日 水曜日 13:15 Ultra Deepstack Bounty Turbo $54 $54 $30,000
10月25日 水曜日 13:15 Ultra Deepstack Bounty Turbo $5.40 $5.40 $20,000
10月25日 水曜日 13:30 Bounty Hunters 6-Max $108 $108 $25,000
10月25日 水曜日 13:30 Bounty Hunters 6-Max $10.80 $10.80 $30,000
10月25日 水曜日 14:00 Speed Racer POWER HOUR $5 [10 BB] $5 $3,500
10月25日 水曜日 14:10 Speed Racer POWER HOUR $10 [10 BB] $10 $4,000
10月25日 水曜日 14:20 Speed Racer POWER HOUR $20 [10 BB] $20 $5,000
10月25日 水曜日 14:30 Global MILLION$ Bounty Edition, $1M GTD [Stage 1] $50 $1,250,000
10月25日 水曜日 14:30 Bounty Superstack $85.50 $85.50 $50,000
10月25日 水曜日 14:30 Bounty Superstack $8.55 $8.55 $40,000
10月25日 水曜日 14:30 Speed Racer POWER HOUR $40 [10 BB] $40 $5,000
10月25日 水曜日 14:40 Speed Racer POWER HOUR $80 [10 BB] $80 $5,000
10月25日 水曜日 14:50 Speed Racer POWER HOUR $150 [10 BB] $150 $5,000
10月25日 水曜日 15:00 GGMasters Bounty Warm-Up Special Edition $25 $25 $75,000
10月25日 水曜日 15:00 Bounty Warm-Up $250 $250 $25,000
10月25日 水曜日 15:30 MYSTERY BOUNTY Main Event - $500K Top Bounty [Stage 1] $210 $5,000,000
10月25日 水曜日 15:30 Bounty Forty Stack HR $444 $444 $20,000
10月25日 水曜日 15:30 Bounty Forty Stack $44 $44 $75,000
10月25日 水曜日 15:40 Omaholic Forty Stack $44 $44 $10,000
10月25日 水曜日 16:30 Global MILLION$ Bounty Edition, $1M GTD [Stage 1] $50 $1,250,000
10月25日 水曜日 16:30 Bounty Hunters HR $525 [Double Stack] $525 $150,000
10月25日 水曜日 16:30 Bounty Hunters Daily Main $54 [Double Stack] $54 $200,000
10月25日 水曜日 16:30 Bounty Hunters Mini Main $5.40 [Double Stack] $5.40 $35,000
10月25日 水曜日 17:30 Big Game $215 $215 $85,000
10月25日 水曜日 17:30 Big Game $21.60 $21.60 $70,000
10月25日 水曜日 17:40 Big Game Omaholic $215 $215 $15,000
10月25日 水曜日 17:40 Big Game Omaholic $21.60 $21.60 $12,500
10月25日 水曜日 18:00 Wednesday Double Stack $150 [Bounty Edition] $150 $100,000
10月25日 水曜日 18:00 Wednesday Double Stack $15 [Bounty Edition] $15 $60,000
10月25日 水曜日 18:30 Global MILLION$ Bounty Edition, $1M GTD [Stage 1] $50 $1,250,000
10月25日 水曜日 18:30 Bounty King Special Edition $320 $320 $25,000
10月25日 水曜日 18:30 Bounty King Jr $32.10 $32.10 $65,000
10月25日 水曜日 19:00 GGMasters Bounty Special Edition $25 $25 $40,000
10月25日 水曜日 19:30 MYSTERY BOUNTY Main Event - $500K Top Bounty [Stage 1] $210 $5,000,000
10月25日 水曜日 19:30 Big KO $108 [Big Bounties] $108 $35,000
10月25日 水曜日 19:30 Big KO $15 [Big Bounties] $15 $50,000
10月25日 水曜日 20:30 Global MILLION$ Bounty Edition, $1M GTD [Stage 1] $50 $1,250,000
10月25日 水曜日 20:30 Bounty Hunters HR Encore $525 $525 $20,000
10月25日 水曜日 20:30 Bounty Hunters Encore $54 $54 $30,000
10月25日 水曜日 21:00 Daily Heater Special Edition $215 [Turbo] $215 $25,000
10月25日 水曜日 21:00 GGMasters Bounty Special Edition $25 [Turbo] $25 $25,000
10月25日 水曜日 22:00 SUPER SIX $64.50 [Turbo] $64.50 $25,000
10月25日 水曜日 22:15 4-MAX HYPER $108 $108 $12,500
10月25日 水曜日 22:15 4-MAX HYPER $10.80 $10.80 $12,500
10月25日 水曜日 22:30 Global MILLION$ Bounty Edition, $1M GTD [Stage 1] $50 $1,250,000
10月25日 水曜日 23:30 MYSTERY BOUNTY Main Event - $500K Top Bounty [Stage 1] $210 $5,000,000
10月25日 水曜日 23:30 Turbo Takedown $215 [25 BB] $215 $10,000
10月25日 水曜日 23:30 Turbo Takedown $25 [25 BB] $25 $10,000
10月26日 00:00 Midnight Madness $85.50 [Bounty Edition] $85.50 $20,000
10月26日 00:00 Midnight Madness $8.55 [Bounty Edition] $8.55 $10,000
10月26日 00:30 Global MILLION$ Bounty Edition, $1M GTD [Stage 1] $50 $1,250,000
10月26日 01:00 Speed Racer POWER HOUR $5 [10 BB] $5 $3,000
10月26日 01:10 Speed Racer POWER HOUR $10 [10 BB] $10 $4,000
10月26日 01:20 Speed Racer POWER HOUR $25 [10 BB] $25 $4,000
10月26日 01:30 Speed Racer POWER HOUR $50 [10 BB] $50 $5,000
10月26日 01:40 Speed Racer POWER HOUR $100 [10 BB] $100 $5,000
10月26日 01:50 Speed Racer POWER HOUR $200 [10 BB] $200 $5,000
10月26日 02:30 Global MILLION$ Bounty Edition, $1M GTD [Stage 1] $50 $1,250,000
10月26日 02:30 MYSTERY BOUNTY Main Event - $500K Top Bounty [Stage 1] $210 $5,000,000
10月26日 04:30 Global MILLION$ Bounty Edition, $1M GTD [Stage 1] $50 $1,250,000
10月26日 05:30 MYSTERY BOUNTY Main Event - $500K Top Bounty [Stage 1] $210 $5,000,000
10月26日 06:30 Global MILLION$ Bounty Edition, $1M GTD [Stage 1] $50 $1,250,000
10月26日 08:30 Global MILLION$ Bounty Edition, $1M GTD [Stage 1] $50 $1,250,000
10月26日 08:30 MYSTERY BOUNTY Main Event - $500K Top Bounty [Stage 1] $210 $5,000,000
10月26日 10:30 Global MILLION$ Bounty Edition, $1M GTD [Stage 1] $50 $1,250,000
10月26日 11:30 MYSTERY BOUNTY Main Event - $500K Top Bounty [Stage 1] $210 $5,000,000
10月26日 12:30 Global MILLION$ Bounty Edition, $1M GTD [Stage 1] $50 $1,250,000
10月26日 12:30 Bounty Blast-Off $88 $88 $25,000
10月26日 12:30 Bounty Blast-Off $8.80 $8.80 $30,000
10月26日 13:15 Ultra Deepstack Bounty Turbo $54 $54 $30,000
10月26日 13:15 Ultra Deepstack Bounty Turbo $5.40 $5.40 $20,000
10月26日 13:30 Bounty Hunters 6-Max $108 $108 $25,000
10月26日 13:30 Bounty Hunters 6-Max $10.80 $10.80 $30,000
10月26日 14:00 Speed Racer POWER HOUR $5 [10 BB] $5 $3,500
10月26日 14:10 Speed Racer POWER HOUR $10 [10 BB] $10 $4,000
10月26日 14:20 Speed Racer POWER HOUR $20 [10 BB] $20 $5,000
10月26日 14:30 Global MILLION$ Bounty Edition, $1M GTD [Stage 1] $50 $1,250,000
10月26日 14:30 MYSTERY BOUNTY Main Event - $500K Top Bounty [Stage 1] $210 $5,000,000
10月26日 14:30 Bounty Superstack $85.50 $85.50 $50,000
10月26日 14:30 Bounty Superstack $8.55 $8.55 $40,000
10月26日 14:30 Speed Racer POWER HOUR $40 [10 BB] $40 $5,000
10月26日 14:40 Speed Racer POWER HOUR $80 [10 BB] $80 $5,000
10月26日 14:50 Speed Racer POWER HOUR $150 [10 BB] $150 $5,000
10月26日 15:00 GGMasters Bounty Warm-Up Special Edition $25 $25 $75,000
10月26日 15:00 Bounty Warm-Up $250 $250 $40,000
10月26日 15:30 Bounty Forty Stack HR $444 $444 $30,000
10月26日 15:30 Bounty Forty Stack $44 $44 $75,000
10月26日 15:40 Omaholic Forty Stack $44 $44 $10,000
10月26日 16:30 Global MILLION$ Bounty Edition, $1M GTD [Stage 1] $50 $1,250,000
10月26日 16:30 Bounty Hunters HR $525 [Classic] $525 $225,000
10月26日 16:30 Bounty Hunters Daily Main $54 [Classic] $54 $200,000
10月26日 16:30 Bounty Hunters Mini Main $5.40 [Classic] $5.40 $35,000
10月26日 17:30 MYSTERY BOUNTY Main Event - $500K Top Bounty [Stage 1] $210 $5,000,000
10月26日 17:30 Big Game $215 $215 $100,000
10月26日 17:30 Big Game $21.60 $21.60 $70,000
10月26日 17:40 Big Game Omaholic $215 $215 $15,000
10月26日 17:40 Big Game Omaholic $21.60 $21.60 $12,500
10月26日 18:00 Thursday Throwdown $150 $150 $150,000
10月26日 18:00 Thursday Throwdown $15 $15 $60,000
10月26日 18:30 Global MILLION$ Bounty Edition, $1M GTD [Stage 1] $50 $1,250,000
10月26日 18:30 Bounty King Special Edition $320 $320 $40,000
10月26日 18:30 Bounty King Jr $32.10 $32.10 $65,000
10月26日 19:00 GGMasters Bounty Special Edition $25 $25 $40,000
10月26日 19:30 Big KO $108 [Big Bounties] $108 $40,000
10月26日 19:30 Big KO $15 [Big Bounties] $15 $50,000
10月26日 20:30 Global MILLION$ Bounty Edition, $1M GTD [Stage 1] $50 $1,250,000
10月26日 20:30 MYSTERY BOUNTY Main Event - $500K Top Bounty [Stage 1] $210 $5,000,000
10月26日 20:30 Bounty Hunters HR Encore $525 $525 $20,000
10月26日 20:30 Bounty Hunters Encore $54 $54 $30,000
10月26日 21:00 Daily Heater Special Edition $215 [Turbo] $215 $35,000
10月26日 21:00 GGMasters Bounty Special Edition $25 [Turbo] $25 $25,000
10月26日 22:00 SUPER SIX $64.50 [Turbo] $64.50 $25,000
10月26日 22:15 4-MAX HYPER $108 $108 $12,500
10月26日 22:15 4-MAX HYPER $10.80 $10.80 $12,500
10月26日 22:30 Global MILLION$ Bounty Edition, $1M GTD [Stage 1] $50 $1,250,000
10月26日 23:30 MYSTERY BOUNTY Main Event - $500K Top Bounty [Stage 1] $210 $5,000,000
10月26日 23:30 Turbo Takedown $215 [25 BB] $215 $10,000
10月26日 23:30 Turbo Takedown $25 [25 BB] $25 $10,000
10月27日 00:00 Midnight Madness $85.50 [Bounty Edition] $85.50 $20,000
10月27日 00:00 Midnight Madness $8.55 [Bounty Edition] $8.55 $10,000
10月27日 00:30 Global MILLION$ Bounty Edition, $1M GTD [Stage 1] $50 $1,250,000
10月27日 01:00 Speed Racer POWER HOUR $5 [10 BB] $5 $3,000
10月27日 01:10 Speed Racer POWER HOUR $10 [10 BB] $10 $4,000
10月27日 01:20 Speed Racer POWER HOUR $25 [10 BB] $25 $4,000
10月27日 01:30 Speed Racer POWER HOUR $50 [10 BB] $50 $5,000
10月27日 01:40 Speed Racer POWER HOUR $100 [10 BB] $100 $5,000
10月27日 01:50 Speed Racer POWER HOUR $200 [10 BB] $200 $5,000
10月27日 02:30 Global MILLION$ Bounty Edition, $1M GTD [Stage 1] $50 $1,250,000
10月27日 02:30 MYSTERY BOUNTY Main Event - $500K Top Bounty [Stage 1] $210 $5,000,000
10月27日 04:30 Global MILLION$ Bounty Edition, $1M GTD [Stage 1] $50 $1,250,000
10月27日 05:30 MYSTERY BOUNTY Main Event - $500K Top Bounty [Stage 1] $210 $5,000,000
10月27日 06:30 Global MILLION$ Bounty Edition, $1M GTD [Stage 1] $50 $1,250,000
10月27日 08:30 Global MILLION$ Bounty Edition, $1M GTD [Stage 1] $50 $1,250,000
10月27日 08:30 MYSTERY BOUNTY Main Event - $500K Top Bounty [Stage 1] $210 $5,000,000
10月27日 10:30 Global MILLION$ Bounty Edition, $1M GTD [Stage 1] $50 $1,250,000
10月27日 11:30 MYSTERY BOUNTY Main Event - $500K Top Bounty [Stage 1] $210 $5,000,000
10月27日 12:30 Global MILLION$ Bounty Edition, $1M GTD [Stage 1] $50 $1,250,000
10月27日 12:30 Bounty Blast-Off $88 $88 $25,000
10月27日 12:30 Bounty Blast-Off $8.80 $8.80 $30,000
10月27日 13:15 Ultra Deepstack Bounty Turbo $54 $54 $30,000
10月27日 13:15 Ultra Deepstack Bounty Turbo $5.40 $5.40 $20,000
10月27日 13:30 Furious Friday 5-Max $108 $108 $15,000
10月27日 13:30 Furious Friday 5-Max $10.80 $10.80 $25,000
10月27日 14:00 Speed Racer POWER HOUR $5 [10 BB] $5 $3,500
10月27日 14:10 Speed Racer POWER HOUR $10 [10 BB] $10 $4,000
10月27日 14:20 Speed Racer POWER HOUR $20 [10 BB] $20 $5,000
10月27日 14:30 Global MILLION$ Bounty Edition, $1M GTD [Stage 1] $50 $1,250,000
10月27日 14:30 MYSTERY BOUNTY Main Event - $500K Top Bounty [Stage 1] $210 $5,000,000
10月27日 14:30 Bounty Superstack $85.50 $85.50 $40,000
10月27日 14:30 Bounty Superstack $8.55 $8.55 $40,000
10月27日 14:30 Speed Racer POWER HOUR $40 [10 BB] $40 $5,000
10月27日 14:40 Speed Racer POWER HOUR $80 [10 BB] $80 $5,000
10月27日 14:50 Speed Racer POWER HOUR $150 [10 BB] $150 $5,000
10月27日 15:00 GGMasters Bounty Warm-Up Special Edition $25 $25 $75,000
10月27日 15:00 Bounty Warm-Up $250 $250 $20,000
10月27日 15:30 Bounty Forty Stack HR $444 $444 $15,000
10月27日 15:30 Bounty Forty Stack $44 $44 $75,000
10月27日 15:40 Omaholic Forty Stack $44 $44 $10,000
10月27日 16:30 Global MILLION$ Bounty Edition, $1M GTD [Stage 1] $50 $1,250,000
10月27日 16:30 Bounty Hunters HR $525 [Ultradeep] $525 $125,000
10月27日 16:30 Bounty Hunters Daily Main $54 [Ultradeep] $54 $200,000
10月27日 16:30 Bounty Hunters Mini Main $5.40 [Ultradeep] $5.40 $35,000
10月27日 17:30 MYSTERY BOUNTY Main Event - $500K Top Bounty [Stage 1] $210 $5,000,000
10月27日 17:30 Big Game $215 $215 $70,000
10月27日 17:30 Big Game $21.60 $21.60 $70,000
10月27日 17:40 Big Game Omaholic $215 $215 $8,000
10月27日 17:40 Big Game Omaholic $21.60 $21.60 $12,500
10月27日 18:00 Friday Night Fight $150 [6-Max] $150 $125,000
10月27日 18:00 Friday Night Fight $15 [6-Max] $15 $60,000
10月27日 18:30 Global MILLION$ Bounty Edition, $1M GTD [Stage 1] $50 $1,250,000
10月27日 18:30 Bounty King Special Edition $320 $320 $20,000
10月27日 18:30 Bounty King Jr $32.10 $32.10 $65,000
10月27日 19:00 GGMasters Bounty Special Edition $25 $25 $40,000
10月27日 19:30 Big KO $108 [Big Bounties] $108 $25,000
10月27日 19:30 Big KO $15 [Big Bounties] $15 $50,000
10月27日 20:30 Global MILLION$ Bounty Edition, $1M GTD [Stage 1] $50 $1,250,000
10月27日 20:30 MYSTERY BOUNTY Main Event - $500K Top Bounty [Stage 1] $210 $5,000,000
10月27日 20:30 Bounty Hunters HR Encore $525 $525 $15,000
10月27日 20:30 Bounty Hunters Encore $54 $54 $30,000
10月27日 21:00 Daily Heater Special Edition $215 [Turbo] $215 $20,000
10月27日 21:00 GGMasters Bounty Special Edition $25 [Turbo] $25 $25,000
10月27日 22:00 SUPER SIX $64.50 [Turbo] $64.50 $25,000
10月27日 22:15 4-MAX HYPER $108 $108 $8,500
10月27日 22:15 4-MAX HYPER $10.80 $10.80 $12,500
10月27日 22:30 Global MILLION$ Bounty Edition, $1M GTD [Stage 1] $50 $1,250,000
10月27日 23:30 MYSTERY BOUNTY Main Event - $500K Top Bounty [Stage 1] $210 $5,000,000
10月27日 23:30 Turbo Takedown $215 [25 BB] $215 $7,500
10月27日 23:30 Turbo Takedown $25 [25 BB] $25 $10,000
10月28日 00:00 Midnight Madness $85.50 [Bounty Edition] $85.50 $15,000
10月28日 00:00 Midnight Madness $8.55 [Bounty Edition] $8.55 $10,000
10月28日 00:30 Global MILLION$ Bounty Edition, $1M GTD [Stage 1] $50 $1,250,000
10月28日 01:00 Speed Racer POWER HOUR $5 [10 BB] $5 $3,000
10月28日 01:10 Speed Racer POWER HOUR $10 [10 BB] $10 $4,000
10月28日 01:20 Speed Racer POWER HOUR $25 [10 BB] $25 $4,000
10月28日 01:30 Speed Racer POWER HOUR $50 [10 BB] $50 $5,000
10月28日 01:40 Speed Racer POWER HOUR $100 [10 BB] $100 $5,000
10月28日 01:50 Speed Racer POWER HOUR $200 [10 BB] $200 $5,000
10月28日 02:30 Global MILLION$ Bounty Edition, $1M GTD [Stage 1] $50 $1,250,000
10月28日 02:30 MYSTERY BOUNTY Main Event - $500K Top Bounty [Stage 1] $210 $5,000,000
10月28日 04:30 Global MILLION$ Bounty Edition, $1M GTD [Stage 1] $50 $1,250,000
10月28日 05:30 MYSTERY BOUNTY Main Event - $500K Top Bounty [Stage 1] $210 $5,000,000
10月28日 06:30 Global MILLION$ Bounty Edition, $1M GTD [Stage 1] $50 $1,250,000
10月28日 08:30 Global MILLION$ Bounty Edition, $1M GTD [Stage 1] $50 $1,250,000
10月28日 08:30 MYSTERY BOUNTY Main Event - $500K Top Bounty [Stage 1] $210 $5,000,000
10月28日 10:30 Global MILLION$ Bounty Edition, $1M GTD [Stage 1] $50 $1,250,000
10月28日 11:30 MYSTERY BOUNTY Main Event - $500K Top Bounty [Stage 1] $210 $5,000,000
10月28日 12:30 Global MILLION$ Bounty Edition, $1M GTD [Stage 1] $50 $1,250,000
10月28日 12:30 Bounty Blast-Off $88 $88 $25,000
10月28日 12:30 Bounty Blast-Off $8.80 $8.80 $30,000
10月28日 13:15 Ultra Deepstack Bounty Turbo $54 $54 $30,000
10月28日 13:15 Ultra Deepstack Bounty Turbo $5.40 $5.40 $20,000
10月28日 13:30 Saturday Showdown 7-Max $108 $108 $20,000
10月28日 13:30 Saturday Showdown 7-Max $10.80 $10.80 $40,000
10月28日 14:00 Speed Racer POWER HOUR $5 [10 BB] $5 $3,500
10月28日 14:10 Speed Racer POWER HOUR $10 [10 BB] $10 $4,000
10月28日 14:20 Speed Racer POWER HOUR $20 [10 BB] $20 $5,000
10月28日 14:30 Global MILLION$ Bounty Edition, $1M GTD [Stage 1] $50 $1,250,000
10月28日 14:30 MYSTERY BOUNTY Main Event - $500K Top Bounty [Stage 1] $210 $5,000,000
10月28日 14:30 Bounty Superstack $85.50 $85.50 $50,000
10月28日 14:30 Bounty Superstack $8.55 $8.55 $40,000
10月28日 14:30 Speed Racer POWER HOUR $40 [10 BB] $40 $5,000
10月28日 14:40 Speed Racer POWER HOUR $80 [10 BB] $80 $5,000
10月28日 14:50 Speed Racer POWER HOUR $150 [10 BB] $150 $5,000
10月28日 15:00 GGMasters Bounty Warm-Up Special Edition $25 $25 $75,000
10月28日 15:00 Bounty Warm-Up $250 $250 $25,000
10月28日 15:30 Bounty Forty Stack HR $444 $444 $20,000
10月28日 15:30 Bounty Forty Stack $44 $44 $75,000
10月28日 15:40 Omaholic Forty Stack $44 $44 $10,000
10月28日 16:30 Global MILLION$ Bounty Edition, $1M GTD [Stage 1] $50 $1,250,000
10月28日 16:30 Bounty Hunters HR $525 [Big Bounties] $525 $175,000
10月28日 16:30 Bounty Hunters Daily Main $54 [Big Bounties] $54 $200,000
10月28日 16:30 Bounty Hunters Mini Main $5.40 [Big Bounties] $5.40 $35,000
10月28日 17:30 MYSTERY BOUNTY Main Event - $500K Top Bounty [Stage 1] $210 $5,000,000
10月28日 17:30 Big Game $21.60 $21.60 $70,000
10月28日 17:40 Big Game Omaholic $215 $215 $15,000
10月28日 17:40 Big Game Omaholic $21.60 $21.60 $12,500
10月28日 18:00 Saturday Secret KO $150 [Mystery Bounty] $150 $300,000
10月28日 18:00 Saturday Secret KO $15 [Mystery Bounty] $15 $175,000
10月28日 18:30 Global MILLION$ Bounty Edition, $1M GTD [Stage 1] $50 $1,250,000
10月28日 18:30 Bounty King Special Edition $320 $320 $20,000
10月28日 18:30 Bounty King Jr $32.10 $32.10 $65,000
10月28日 19:00 GGMasters Bounty Special Edition $25 $25 $40,000
10月28日 19:30 Big KO $108 [Big Bounties] $108 $25,000
10月28日 19:30 Big KO $15 [Big Bounties] $15 $40,000
10月28日 20:30 Global MILLION$ Bounty Edition, $1M GTD [Stage 1] $50 $1,250,000
10月28日 20:30 MYSTERY BOUNTY Main Event - $500K Top Bounty [Stage 1] $210 $5,000,000
10月28日 20:30 Bounty Hunters HR Encore $525 $525 $15,000
10月28日 20:30 Bounty Hunters Encore $54 $54 $30,000
10月28日 21:00 Daily Heater Special Edition $215 [Turbo] $215 $25,000
10月28日 21:00 GGMasters Bounty Special Edition $25 [Turbo] $25 $25,000
10月28日 22:00 SUPER SIX $64.50 [Turbo] $64.50 $25,000
10月28日 22:15 4-MAX HYPER $108 $108 $8,500
10月28日 22:15 4-MAX HYPER $10.80 $10.80 $12,500
10月28日 22:30 Global MILLION$ Bounty Edition, $1M GTD [Stage 1] $50 $1,250,000
10月28日 23:30 MYSTERY BOUNTY Main Event - $500K Top Bounty [Stage 1] $210 $5,000,000
10月28日 23:30 Turbo Takedown $215 [25 BB] $215 $7,500
10月28日 23:30 Turbo Takedown $25 [25 BB] $25 $10,000
10月29日 00:00 Midnight Madness $85.50 [Bounty Edition] $85.50 $15,000
10月29日 00:00 Midnight Madness $8.55 [Bounty Edition] $8.55 $10,000
10月29日 00:30 Global MILLION$ Bounty Edition, $1M GTD [Stage 1] $50 $1,250,000
10月29日 01:00 Speed Racer POWER HOUR $5 [10 BB] $5 $3,000
10月29日 01:10 Speed Racer POWER HOUR $10 [10 BB] $10 $4,000
10月29日 01:20 Speed Racer POWER HOUR $25 [10 BB] $25 $4,000
10月29日 01:30 Speed Racer POWER HOUR $50 [10 BB] $50 $5,000
10月29日 01:40 Speed Racer POWER HOUR $100 [10 BB] $100 $5,000
10月29日 01:50 Speed Racer POWER HOUR $200 [10 BB] $200 $5,000
10月29日 02:30 Global MILLION$ Bounty Edition, $1M GTD [Stage 1] $50 $1,250,000
10月29日 02:30 MYSTERY BOUNTY Main Event - $500K Top Bounty [Stage 1] $210 $5,000,000
10月29日 04:30 Global MILLION$ Bounty Edition, $1M GTD [Stage 1] $50 $1,250,000
10月29日 05:30 MYSTERY BOUNTY Main Event - $500K Top Bounty [Stage 1] $210 $5,000,000
10月29日 06:30 Global MILLION$ Bounty Edition, $1M GTD [Stage 1] $50 $1,250,000
10月29日 08:30 Global MILLION$ Bounty Edition, $1M GTD [Stage 1] $50 $1,250,000
10月29日 08:30 MYSTERY BOUNTY Main Event - $500K Top Bounty [Stage 1] $210 $5,000,000
10月29日 10:30 Global MILLION$ Bounty Edition, $1M GTD [Stage 1] $50 $1,250,000
10月29日 11:30 MYSTERY BOUNTY Main Event - $500K Top Bounty [Stage 1] $210 $5,000,000
10月29日 12:30 Global MILLION$ Bounty Edition, $1M GTD [Stage 1] $50 $1,250,000
10月29日 12:30 Sunday Blast-Off $215 $215 $40,000
10月29日 12:30 Sunday Blast-Off $25 $25 $100,000
10月29日 13:15 Ultra Deepstack Bounty Turbo $54 $54 $75,000
10月29日 13:30 Sunday Six-Max $108 $108 $60,000
10月29日 13:30 Sunday Six-Max $10.80 $10.80 $75,000
10月29日 14:00 Battle of Marathon $320 $320 $100,000
10月29日 14:00 Battle of Marathon $32.10 $32.10 $125,000
10月29日 14:00 Speed Racer POWER HOUR $5 [10 BB] $5 $3,500
10月29日 14:10 Speed Racer POWER HOUR $10 [10 BB] $10 $4,000
10月29日 14:20 Speed Racer POWER HOUR $20 [10 BB] $20 $5,000
10月29日 14:30 Global MILLION$ Bounty Edition, $1M GTD [Stage 1] $50 $1,250,000
10月29日 14:30 MYSTERY BOUNTY Main Event - $500K Top Bounty [Stage 1] $210 $5,000,000
10月29日 14:30 Sunday Bounty Superstack $85.50 $85.50 $150,000
10月29日 14:30 Sunday Bounty Superstack $8.55 $8.55 $75,000
10月29日 14:30 Speed Racer POWER HOUR $40 [10 BB] $40 $5,000
10月29日 14:40 Speed Racer POWER HOUR $80 [10 BB] $80 $5,000
10月29日 14:50 Speed Racer POWER HOUR $150 [10 BB] $150 $5,000
10月29日 15:00 Sunday Grand Prix $150 [Bounty Edition] $150 $250,000
10月29日 15:00 GGMasters Sunday Bounty $25 $25 $150,000
10月29日 15:15 Ultra Deepstack Bounty Turbo $21.60 $21.60 $50,000
10月29日 15:30 Sunday Forty Stack $44 $44 $200,000
10月29日 15:40 Sunday Omaholic Forty Stack $44 $44 $20,000
10月29日 16:30 Global MILLION$ Bounty Edition, $1M GTD [Stage 1] $50 $1,250,000
10月29日 16:30 Bounty Hunters HR Main Event $525, $1M GTD $525 $1,000,000
10月29日 16:30 Bounty Hunters Sunday Main Event $54, $500K GTD $54 $500,000
10月29日 17:30 MYSTERY BOUNTY Main Event - $500K Top Bounty [Stage 1] $210 $5,000,000
10月29日 17:30 Sunday Big Game $215 $215 $350,000
10月29日 17:30 Sunday Big Game $21.60 $21.60 $150,000
10月29日 17:40 Sunday Big Game Omaholic $215 $215 $40,000
10月29日 17:40 Sunday Big Game Omaholic $21.60 $21.60 $25,000
10月29日 18:00 Global MILLION$ Bounty Edition, $1M GTD [Last Chance] $50 $1,250,000
10月29日 18:30 GGMasters Bounty Special Edition $320 $320 $400,000
10月29日 18:30 Sunday Bounty King Jr $32.10 $32.10 $150,000
10月29日 18:45 Global MILLION$ Bounty Edition, $1M GTD [Last Minute] $50 $1,250,000
10月29日 19:30 Sunday BIG KO $108 [Big Bounties] $108 $100,000
10月29日 19:40 Sunday BIG KO Omaholic $108 [Big Bounties] $108 $25,000
10月29日 20:30 Global MILLION$ Bounty Edition, $1M GTD [Final Stage] $50 $1,250,000
10月29日 20:30 MYSTERY BOUNTY Main Event - $500K Top Bounty [Stage 1] $210 $5,000,000
10月29日 20:30 Bounty Hunters HR Encore $525 $525 $50,000
10月29日 20:30 Bounty Hunters Encore $54 $54 $100,000
10月29日 21:00 Sunday Heater Special Edition $215 [Turbo] $215 $120,000
10月29日 21:00 Sunday Heater Special Edition $25 [Turbo] $25 $75,000
10月29日 21:40 Sunday Omaholic Heater $215 [Turbo] $215 $15,000
10月29日 21:40 Sunday Omaholic Heater $25 [Turbo] $25 $12,500
10月29日 22:00 SUPER SIX HR $630 [Turbo] $630 $30,000
10月29日 22:00 SUPER SIX $64.50 [Turbo] $64.50 $50,000
10月29日 22:30 America Bounty Bonaza $129 $129 $40,000
10月29日 22:30 America Bounty Bonaza $12.90 $12.90 $20,000
10月29日 23:30 MYSTERY BOUNTY Main Event - $500K Top Bounty [Stage 1] $210 $5,000,000
10月29日 23:30 Sunday Last Call $215 [Hyper] $215 $50,000
10月29日 23:30 Sunday Last Call $25 [Hyper] $25 $30,000
10月30日 00:00 Midnight Madness $85.50 [Bounty Edition] $85.50 $40,000
10月30日 00:00 Midnight Madness $8.55 [Bounty Edition] $8.55 $12,500
10月30日 01:00 Speed Racer POWER HOUR $5 [10 BB] $5 $4,000
10月30日 01:10 Speed Racer POWER HOUR $10 [10 BB] $10 $5,000
10月30日 01:20 Speed Racer POWER HOUR $25 [10 BB] $25 $7,500
10月30日 01:30 Speed Racer POWER HOUR $50 [10 BB] $50 $8,500
10月30日 01:40 Speed Racer POWER HOUR $100 [10 BB] $100 $10,000
10月30日 01:50 Speed Racer POWER HOUR $200 [10 BB] $200 $10,000
10月30日 02:30 MYSTERY BOUNTY Main Event - $500K Top Bounty [Stage 1] $210 $5,000,000
10月30日 05:30 MYSTERY BOUNTY Main Event - $500K Top Bounty [Stage 1] $210 $5,000,000
10月30日 08:30 MYSTERY BOUNTY Main Event - $500K Top Bounty [Stage 1] $210 $5,000,000
10月30日 11:30 MYSTERY BOUNTY Main Event - $500K Top Bounty [Stage 1] $210 $5,000,000
10月30日 12:30 Bounty Blast-Off $88 $88 $20,000
10月30日 12:30 Bounty Blast-Off $8.80 $8.80 $25,000
10月30日 13:15 Ultra Deepstack Bounty Turbo $54 $54 $30,000
10月30日 13:15 Ultra Deepstack Bounty Turbo $5.40 $5.40 $20,000
10月30日 13:30 Monday Hangover $108 [Variable Levels] $108 $17,500
10月30日 13:30 Monday Hangover $10.80 [Variable Levels] $10.80 $15,000
10月30日 14:00 Speed Racer POWER HOUR $5 [10 BB] $5 $3,500
10月30日 14:10 Speed Racer POWER HOUR $10 [10 BB] $10 $4,000
10月30日 14:20 Speed Racer POWER HOUR $20 [10 BB] $20 $5,000
10月30日 14:30 MYSTERY BOUNTY Main Event - $500K Top Bounty [Stage 1] $210 $5,000,000
10月30日 14:30 Bounty Superstack $85.50 $85.50 $50,000
10月30日 14:30 Bounty Superstack $8.55 $8.55 $40,000
10月30日 14:30 Speed Racer POWER HOUR $40 [10 BB] $40 $5,000
10月30日 14:40 Speed Racer POWER HOUR $80 [10 BB] $80 $5,000
10月30日 14:50 Speed Racer POWER HOUR $150 [10 BB] $150 $5,000
10月30日 15:00 GGMasters Bounty Warm-Up Special Edition $25 $25 $75,000
10月30日 15:00 Bounty Warm-Up $250 $250 $50,000
10月30日 15:30 Bounty Forty Stack HR $444 $444 $50,000
10月30日 15:30 Bounty Forty Stack $44 $44 $75,000
10月30日 15:40 Omaholic Forty Stack $44 $44 $10,000
10月30日 16:30 Bounty Hunters HR $525 [6-Max] $525 $225,000
10月30日 16:30 Bounty Hunters Daily Main $54 [6-Max] $54 $175,000
10月30日 16:30 Bounty Hunters Mini Main $5.40 [6-Max] $5.40 $30,000
10月30日 17:30 MYSTERY BOUNTY Main Event - $500K Top Bounty [Stage 1] $210 $5,000,000
10月30日 17:30 Big Game $215 $215 $125,000
10月30日 17:30 Big Game $21.60 $21.60 $70,000
10月30日 17:40 Big Game Omaholic $215 $215 $12,500
10月30日 17:40 Big Game Omaholic $21.60 $21.60 $12,500
10月30日 18:00 Monday Monster Stack $150 [Bounty Edition] $150 $100,000
10月30日 18:00 Monday Monster Stack $15 [Bounty Edition] $15 $50,000
10月30日 18:30 Bounty King Special Edition $320 $320 $50,000
10月30日 18:30 Bounty King Jr $32.10 $32.10 $65,000
10月30日 19:00 GGMasters Bounty Special Edition $25 $25 $40,000
10月30日 19:30 Big KO $108 [Big Bounties] $108 $40,000
10月30日 19:30 Big KO $15 [Big Bounties] $15 $30,000
10月30日 20:30 MYSTERY BOUNTY Main Event - $500K Top Bounty [Stage 1] $210 $5,000,000
10月30日 20:30 Bounty Hunters HR Encore $525 $525 $20,000
10月30日 20:30 Bounty Hunters Encore $54 $54 $30,000
10月30日 21:00 Daily Heater Special Edition $215 [Turbo] $215 $35,000
10月30日 21:00 GGMasters Bounty Special Edition $25 [Turbo] $25 $25,000
10月30日 22:00 SUPER SIX $64.50 [Turbo] $64.50 $25,000
10月30日 22:15 4-MAX HYPER $108 $108 $7,500
10月30日 22:15 4-MAX HYPER $10.80 $10.80 $8,000
10月30日 23:30 MYSTERY BOUNTY Main Event - $500K Top Bounty [Stage 1] $210 $5,000,000
10月30日 23:30 Turbo Takedown $215 [25 BB] $215 $10,000
10月30日 23:30 Turbo Takedown $25 [25 BB] $25 $10,000
10月31日 00:00 Midnight Madness $85.50 [Bounty Edition] $85.50 $20,000
10月31日 00:00 Midnight Madness $8.55 [Bounty Edition] $8.55 $8,888
10月31日 01:00 Speed Racer POWER HOUR $5 [10 BB] $5 $2,000
10月31日 01:10 Speed Racer POWER HOUR $10 [10 BB] $10 $3,000
10月31日 01:20 Speed Racer POWER HOUR $25 [10 BB] $25 $3,500
10月31日 01:30 Speed Racer POWER HOUR $50 [10 BB] $50 $4,000
10月31日 01:40 Speed Racer POWER HOUR $100 [10 BB] $100 $4,500
10月31日 01:50 Speed Racer POWER HOUR $200 [10 BB] $200 $5,000
10月31日 02:30 MYSTERY BOUNTY Main Event - $500K Top Bounty [Stage 1] $210 $5,000,000
10月31日 05:30 MYSTERY BOUNTY Main Event - $500K Top Bounty [Stage 1] $210 $5,000,000
10月31日 08:30 MYSTERY BOUNTY Main Event - $500K Top Bounty [Stage 1] $210 $5,000,000
10月31日 11:30 MYSTERY BOUNTY Main Event - $500K Top Bounty [Stage 1] $210 $5,000,000
10月31日 12:30 Bounty Blast-Off $88 $88 $25,000
10月31日 12:30 Bounty Blast-Off $8.80 $8.80 $30,000
10月31日 13:15 Ultra Deepstack Bounty Turbo $54 $54 $30,000
10月31日 13:15 Ultra Deepstack Bounty Turbo $5.40 $5.40 $20,000
10月31日 13:30 Bounty Hunters 6-Max $108 $108 $20,000
10月31日 13:30 Bounty Hunters 6-Max $10.80 $10.80 $30,000
10月31日 14:00 Speed Racer POWER HOUR $5 [10 BB] $5 $3,500
10月31日 14:10 Speed Racer POWER HOUR $10 [10 BB] $10 $4,000
10月31日 14:20 Speed Racer POWER HOUR $20 [10 BB] $20 $5,000
10月31日 14:30 MYSTERY BOUNTY Main Event - $500K Top Bounty [Stage 1] $210 $5,000,000
10月31日 14:30 Bounty Superstack $85.50 $85.50 $50,000
10月31日 14:30 Bounty Superstack $8.55 $8.55 $40,000
10月31日 14:30 Speed Racer POWER HOUR $40 [10 BB] $40 $5,000
10月31日 14:40 Speed Racer POWER HOUR $80 [10 BB] $80 $5,000
10月31日 14:50 Speed Racer POWER HOUR $150 [10 BB] $150 $5,000
10月31日 15:00 GGMasters Bounty Warm-Up Special Edition $25 $25 $75,000
10月31日 15:00 Bounty Warm-Up $250 $250 $40,000
10月31日 15:30 Bounty Forty Stack HR $444 $444 $40,000
10月31日 15:30 Bounty Forty Stack $44 $44 $75,000
10月31日 15:40 Omaholic Forty Stack $44 $44 $10,000
10月31日 16:30 Bounty Hunters HR $525 [Deepstack] $525 $175,000
10月31日 16:30 Bounty Hunters Daily Main $54 [Deepstack] $54 $200,000
10月31日 16:30 Bounty Hunters Mini Main $5.40 [Deepstack] $5.40 $35,000
10月31日 17:30 MYSTERY BOUNTY Main Event - $500K Top Bounty [Stage 1] $210 $5,000,000
10月31日 17:30 Big Game $215 $215 $125,000
10月31日 17:30 Big Game $21.60 $21.60 $70,000
10月31日 17:40 Big Game Omaholic $215 $215 $15,000
10月31日 17:40 Big Game Omaholic $21.60 $21.60 $12,500
10月31日 18:00 Tuesday Twinkle $150 [Mystery Bounty] $150 $150,000
10月31日 18:00 Tuesday Twinkle $15 [Mystery Bounty] $15 $100,000
10月31日 18:30 Bounty King Special Edition $320 $320 $30,000
10月31日 18:30 Bounty King Jr $32.10 $32.10 $65,000
10月31日 19:00 GGMasters Bounty Special Edition $25 $25 $40,000
10月31日 19:30 Big KO $108 [Big Bounties] $108 $30,000
10月31日 19:30 Big KO $15 [Big Bounties] $15 $40,000
10月31日 20:30 MYSTERY BOUNTY Main Event - $500K Top Bounty [Stage 1] $210 $5,000,000
10月31日 20:30 Bounty Hunters HR Encore $525 $525 $20,000
10月31日 20:30 Bounty Hunters Encore $54 $54 $30,000
10月31日 21:00 Daily Heater Special Edition $215 [Turbo] $215 $35,000
10月31日 21:00 GGMasters Bounty Special Edition $25 [Turbo] $25 $25,000
10月31日 22:00 SUPER SIX $64.50 [Turbo] $64.50 $25,000
10月31日 22:15 4-MAX HYPER $108 $108 $12,000
10月31日 22:15 4-MAX HYPER $10.80 $10.80 $10,000
10月31日 23:30 MYSTERY BOUNTY Main Event - $500K Top Bounty [Stage 1] $210 $5,000,000
10月31日 23:30 Turbo Takedown $215 [25 BB] $215 $10,000
10月31日 23:30 Turbo Takedown $25 [25 BB] $25 $10,000
11月1日 水曜日 00:00 Midnight Madness $85.50 [Bounty Edition] $85.50 $20,000
11月1日 水曜日 00:00 Midnight Madness $8.55 [Bounty Edition] $8.55 $10,000
11月1日 水曜日 01:00 Speed Racer POWER HOUR $5 [10 BB] $5 $2,500
11月1日 水曜日 01:10 Speed Racer POWER HOUR $10 [10 BB] $10 $3,500
11月1日 水曜日 01:20 Speed Racer POWER HOUR $25 [10 BB] $25 $4,000
11月1日 水曜日 01:30 Speed Racer POWER HOUR $50 [10 BB] $50 $5,000
11月1日 水曜日 01:40 Speed Racer POWER HOUR $100 [10 BB] $100 $5,000
11月1日 水曜日 01:50 Speed Racer POWER HOUR $200 [10 BB] $200 $5,500
11月1日 水曜日 02:30 MYSTERY BOUNTY Main Event - $500K Top Bounty [Stage 1] $210 $5,000,000
11月1日 水曜日 05:30 MYSTERY BOUNTY Main Event - $500K Top Bounty [Stage 1] $210 $5,000,000
11月1日 水曜日 08:30 MYSTERY BOUNTY Main Event - $500K Top Bounty [Stage 1] $210 $5,000,000
11月1日 水曜日 11:30 MYSTERY BOUNTY Main Event - $500K Top Bounty [Stage 1] $210 $5,000,000
11月1日 水曜日 12:30 Bounty Blast-Off $88 $88 $25,000
11月1日 水曜日 12:30 Bounty Blast-Off $8.80 $8.80 $30,000
11月1日 水曜日 13:15 Ultra Deepstack Bounty Turbo $54 $54 $30,000
11月1日 水曜日 13:15 Ultra Deepstack Bounty Turbo $5.40 $5.40 $20,000
11月1日 水曜日 13:30 Bounty Hunters 6-Max $108 $108 $25,000
11月1日 水曜日 13:30 Bounty Hunters 6-Max $10.80 $10.80 $30,000
11月1日 水曜日 14:00 Speed Racer POWER HOUR $5 [10 BB] $5 $3,500
11月1日 水曜日 14:10 Speed Racer POWER HOUR $10 [10 BB] $10 $4,000
11月1日 水曜日 14:20 Speed Racer POWER HOUR $20 [10 BB] $20 $5,000
11月1日 水曜日 14:30 MYSTERY BOUNTY Main Event - $500K Top Bounty [Stage 1] $210 $5,000,000
11月1日 水曜日 14:30 Bounty Superstack $85.50 $85.50 $50,000
11月1日 水曜日 14:30 Bounty Superstack $8.55 $8.55 $40,000
11月1日 水曜日 14:30 Speed Racer POWER HOUR $40 [10 BB] $40 $5,000
11月1日 水曜日 14:40 Speed Racer POWER HOUR $80 [10 BB] $80 $5,000
11月1日 水曜日 14:50 Speed Racer POWER HOUR $150 [10 BB] $150 $5,000
11月1日 水曜日 15:00 GGMasters Bounty Warm-Up Special Edition $25 $25 $75,000
11月1日 水曜日 15:00 Bounty Warm-Up $250 $250 $25,000
11月1日 水曜日 15:30 Bounty Forty Stack HR $444 $444 $20,000
11月1日 水曜日 15:30 Bounty Forty Stack $44 $44 $75,000
11月1日 水曜日 15:40 Omaholic Forty Stack $44 $44 $10,000
11月1日 水曜日 16:30 Bounty Hunters HR $525 [Double Stack] $525 $150,000
11月1日 水曜日 16:30 Bounty Hunters Daily Main $54 [Double Stack] $54 $200,000
11月1日 水曜日 16:30 Bounty Hunters Mini Main $5.40 [Double Stack] $5.40 $35,000
11月1日 水曜日 17:30 MYSTERY BOUNTY Main Event - $500K Top Bounty [Stage 1] $210 $5,000,000
11月1日 水曜日 17:30 Big Game $215 $215 $85,000
11月1日 水曜日 17:30 Big Game $21.60 $21.60 $70,000
11月1日 水曜日 17:40 Big Game Omaholic $215 $215 $15,000
11月1日 水曜日 17:40 Big Game Omaholic $21.60 $21.60 $12,500
11月1日 水曜日 18:00 Wednesday Double Stack $150 [Bounty Edition] $150 $100,000
11月1日 水曜日 18:00 Wednesday Double Stack $15 [Bounty Edition] $15 $60,000
11月1日 水曜日 18:30 Bounty King Special Edition $320 $320 $25,000
11月1日 水曜日 18:30 Bounty King Jr $32.10 $32.10 $65,000
11月1日 水曜日 19:00 GGMasters Bounty Special Edition $25 $25 $40,000
11月1日 水曜日 19:30 Big KO $108 [Big Bounties] $108 $35,000
11月1日 水曜日 19:30 Big KO $15 [Big Bounties] $15 $50,000
11月1日 水曜日 20:30 MYSTERY BOUNTY Main Event - $500K Top Bounty [Stage 1] $210 $5,000,000
11月1日 水曜日 20:30 Bounty Hunters HR Encore $525 $525 $20,000
11月1日 水曜日 20:30 Bounty Hunters Encore $54 $54 $30,000
11月1日 水曜日 21:00 Daily Heater Special Edition $215 [Turbo] $215 $25,000
11月1日 水曜日 21:00 GGMasters Bounty Special Edition $25 [Turbo] $25 $25,000
11月1日 水曜日 22:00 SUPER SIX $64.50 [Turbo] $64.50 $25,000
11月1日 水曜日 22:15 4-MAX HYPER $108 $108 $12,500
11月1日 水曜日 22:15 4-MAX HYPER $10.80 $10.80 $12,500
11月1日 水曜日 23:30 MYSTERY BOUNTY Main Event - $500K Top Bounty [Stage 1] $210 $5,000,000
11月1日 水曜日 23:30 Turbo Takedown $215 [25 BB] $215 $10,000
11月1日 水曜日 23:30 Turbo Takedown $25 [25 BB] $25 $10,000
11月2日 00:00 Midnight Madness $85.50 [Bounty Edition] $85.50 $20,000
11月2日 00:00 Midnight Madness $8.55 [Bounty Edition] $8.55 $10,000
11月2日 01:00 Speed Racer POWER HOUR $5 [10 BB] $5 $3,000
11月2日 01:10 Speed Racer POWER HOUR $10 [10 BB] $10 $4,000
11月2日 01:20 Speed Racer POWER HOUR $25 [10 BB] $25 $4,000
11月2日 01:30 Speed Racer POWER HOUR $50 [10 BB] $50 $5,000
11月2日 01:40 Speed Racer POWER HOUR $100 [10 BB] $100 $5,000
11月2日 01:50 Speed Racer POWER HOUR $200 [10 BB] $200 $5,000
11月2日 02:30 MYSTERY BOUNTY Main Event - $500K Top Bounty [Stage 1] $210 $5,000,000
11月2日 05:30 MYSTERY BOUNTY Main Event - $500K Top Bounty [Stage 1] $210 $5,000,000
11月2日 08:30 MYSTERY BOUNTY Main Event - $500K Top Bounty [Stage 1] $210 $5,000,000
11月2日 11:30 MYSTERY BOUNTY Main Event - $500K Top Bounty [Stage 1] $210 $5,000,000
11月2日 12:30 Bounty Blast-Off $88 $88 $25,000
11月2日 12:30 Bounty Blast-Off $8.80 $8.80 $30,000
11月2日 13:15 Ultra Deepstack Bounty Turbo $54 $54 $30,000
11月2日 13:15 Ultra Deepstack Bounty Turbo $5.40 $5.40 $20,000
11月2日 13:30 Bounty Hunters 6-Max $108 $108 $25,000
11月2日 13:30 Bounty Hunters 6-Max $10.80 $10.80 $30,000
11月2日 14:00 Speed Racer POWER HOUR $5 [10 BB] $5 $3,500
11月2日 14:10 Speed Racer POWER HOUR $10 [10 BB] $10 $4,000
11月2日 14:20 Speed Racer POWER HOUR $20 [10 BB] $20 $5,000
11月2日 14:30 MYSTERY BOUNTY Main Event - $500K Top Bounty [Stage 1] $210 $5,000,000
11月2日 14:30 Bounty Superstack $85.50 $85.50 $50,000
11月2日 14:30 Bounty Superstack $8.55 $8.55 $40,000
11月2日 14:30 Speed Racer POWER HOUR $40 [10 BB] $40 $5,000
11月2日 14:40 Speed Racer POWER HOUR $80 [10 BB] $80 $5,000
11月2日 14:50 Speed Racer POWER HOUR $150 [10 BB] $150 $5,000
11月2日 15:00 GGMasters Bounty Warm-Up Special Edition $25 $25 $75,000
11月2日 15:00 Bounty Warm-Up $250 $250 $40,000
11月2日 15:30 Bounty Forty Stack HR $444 $444 $30,000
11月2日 15:30 Bounty Forty Stack $44 $44 $75,000
11月2日 15:40 Omaholic Forty Stack $44 $44 $10,000
11月2日 16:30 Bounty Hunters HR $525 [Classic] $525 $225,000
11月2日 16:30 Bounty Hunters Daily Main $54 [Classic] $54 $200,000
11月2日 16:30 Bounty Hunters Mini Main $5.40 [Classic] $5.40 $35,000
11月2日 17:30 MYSTERY BOUNTY Main Event - $500K Top Bounty [Stage 1] $210 $5,000,000
11月2日 17:30 Big Game $215 $215 $100,000
11月2日 17:30 Big Game $21.60 $21.60 $70,000
11月2日 17:40 Big Game Omaholic $215 $215 $15,000
11月2日 17:40 Big Game Omaholic $21.60 $21.60 $12,500
11月2日 18:00 Thursday Throwdown $150 $150 $150,000
11月2日 18:00 Thursday Throwdown $15 $15 $60,000
11月2日 18:30 Bounty King Special Edition $320 $320 $40,000
11月2日 18:30 Bounty King Jr $32.10 $32.10 $65,000
11月2日 19:00 GGMasters Bounty Special Edition $25 $25 $40,000
11月2日 19:30 Big KO $108 [Big Bounties] $108 $40,000
11月2日 19:30 Big KO $15 [Big Bounties] $15 $50,000
11月2日 20:30 MYSTERY BOUNTY Main Event - $500K Top Bounty [Stage 1] $210 $5,000,000
11月2日 20:30 Bounty Hunters HR Encore $525 $525 $20,000
11月2日 20:30 Bounty Hunters Encore $54 $54 $30,000
11月2日 21:00 Daily Heater Special Edition $215 [Turbo] $215 $35,000
11月2日 21:00 GGMasters Bounty Special Edition $25 [Turbo] $25 $25,000
11月2日 22:00 SUPER SIX $64.50 [Turbo] $64.50 $25,000
11月2日 22:15 4-MAX HYPER $108 $108 $12,500
11月2日 22:15 4-MAX HYPER $10.80 $10.80 $12,500
11月2日 23:30 MYSTERY BOUNTY Main Event - $500K Top Bounty [Stage 1] $210 $5,000,000
11月2日 23:30 Turbo Takedown $215 [25 BB] $215 $10,000
11月2日 23:30 Turbo Takedown $25 [25 BB] $25 $10,000
11月3日 00:00 Midnight Madness $85.50 [Bounty Edition] $85.50 $20,000
11月3日 00:00 Midnight Madness $8.55 [Bounty Edition] $8.55 $10,000
11月3日 01:00 Speed Racer POWER HOUR $5 [10 BB] $5 $3,000
11月3日 01:10 Speed Racer POWER HOUR $10 [10 BB] $10 $4,000
11月3日 01:20 Speed Racer POWER HOUR $25 [10 BB] $25 $4,000
11月3日 01:30 Speed Racer POWER HOUR $50 [10 BB] $50 $5,000
11月3日 01:40 Speed Racer POWER HOUR $100 [10 BB] $100 $5,000
11月3日 01:50 Speed Racer POWER HOUR $200 [10 BB] $200 $5,000
11月3日 02:30 MYSTERY BOUNTY Main Event - $500K Top Bounty [Stage 1] $210 $5,000,000
11月3日 05:30 MYSTERY BOUNTY Main Event - $500K Top Bounty [Stage 1] $210 $5,000,000
11月3日 08:30 MYSTERY BOUNTY Main Event - $500K Top Bounty [Stage 1] $210 $5,000,000
11月3日 11:30 MYSTERY BOUNTY Main Event - $500K Top Bounty [Stage 1] $210 $5,000,000
11月3日 12:30 Bounty Blast-Off $88 $88 $25,000
11月3日 12:30 Bounty Blast-Off $8.80 $8.80 $30,000
11月3日 13:15 Ultra Deepstack Bounty Turbo $54 $54 $30,000
11月3日 13:15 Ultra Deepstack Bounty Turbo $5.40 $5.40 $20,000
11月3日 13:30 Furious Friday 5-Max $108 $108 $15,000
11月3日 13:30 Furious Friday 5-Max $10.80 $10.80 $25,000
11月3日 14:00 Speed Racer POWER HOUR $5 [10 BB] $5 $3,500
11月3日 14:10 Speed Racer POWER HOUR $10 [10 BB] $10 $4,000
11月3日 14:20 Speed Racer POWER HOUR $20 [10 BB] $20 $5,000
11月3日 14:30 MYSTERY BOUNTY Main Event - $500K Top Bounty [Stage 1] $210 $5,000,000
11月3日 14:30 Bounty Superstack $85.50 $85.50 $40,000
11月3日 14:30 Bounty Superstack $8.55 $8.55 $40,000
11月3日 14:30 Speed Racer POWER HOUR $40 [10 BB] $40 $5,000
11月3日 14:40 Speed Racer POWER HOUR $80 [10 BB] $80 $5,000
11月3日 14:50 Speed Racer POWER HOUR $150 [10 BB] $150 $5,000
11月3日 15:00 GGMasters Bounty Warm-Up Special Edition $25 $25 $75,000
11月3日 15:00 Bounty Warm-Up $250 $250 $20,000
11月3日 15:30 Bounty Forty Stack HR $444 $444 $15,000
11月3日 15:30 Bounty Forty Stack $44 $44 $75,000
11月3日 15:40 Omaholic Forty Stack $44 $44 $10,000
11月3日 16:30 Bounty Hunters HR $525 [Ultradeep] $525 $125,000
11月3日 16:30 Bounty Hunters Daily Main $54 [Ultradeep] $54 $200,000
11月3日 16:30 Bounty Hunters Mini Main $5.40 [Ultradeep] $5.40 $35,000
11月3日 17:30 MYSTERY BOUNTY Main Event - $500K Top Bounty [Stage 1] $210 $5,000,000
11月3日 17:30 Big Game $215 $215 $70,000
11月3日 17:30 Big Game $21.60 $21.60 $70,000
11月3日 17:40 Big Game Omaholic $215 $215 $8,000
11月3日 17:40 Big Game Omaholic $21.60 $21.60 $12,500
11月3日 18:00 Friday Night Fight $150 [6-Max] $150 $125,000
11月3日 18:00 Friday Night Fight $15 [6-Max] $15 $60,000
11月3日 18:30 Bounty King Special Edition $320 $320 $20,000
11月3日 18:30 Bounty King Jr $32.10 $32.10 $65,000
11月3日 19:00 GGMasters Bounty Special Edition $25 $25 $40,000
11月3日 19:30 Big KO $108 [Big Bounties] $108 $25,000
11月3日 19:30 Big KO $15 [Big Bounties] $15 $50,000
11月3日 20:30 MYSTERY BOUNTY Main Event - $500K Top Bounty [Stage 1] $210 $5,000,000
11月3日 20:30 Bounty Hunters HR Encore $525 $525 $15,000
11月3日 20:30 Bounty Hunters Encore $54 $54 $30,000
11月3日 21:00 Daily Heater Special Edition $215 [Turbo] $215 $20,000
11月3日 21:00 GGMasters Bounty Special Edition $25 [Turbo] $25 $25,000
11月3日 22:00 SUPER SIX $64.50 [Turbo] $64.50 $25,000
11月3日 22:15 4-MAX HYPER $108 $108 $8,500
11月3日 22:15 4-MAX HYPER $10.80 $10.80 $12,500
11月3日 23:30 MYSTERY BOUNTY Main Event - $500K Top Bounty [Stage 1] $210 $5,000,000
11月3日 23:30 Turbo Takedown $215 [25 BB] $215 $7,500
11月3日 23:30 Turbo Takedown $25 [25 BB] $25 $10,000
11月4日 00:00 Midnight Madness $85.50 [Bounty Edition] $85.50 $15,000
11月4日 00:00 Midnight Madness $8.55 [Bounty Edition] $8.55 $10,000
11月4日 01:00 Speed Racer POWER HOUR $5 [10 BB] $5 $3,000
11月4日 01:10 Speed Racer POWER HOUR $10 [10 BB] $10 $4,000
11月4日 01:20 Speed Racer POWER HOUR $25 [10 BB] $25 $4,000
11月4日 01:30 Speed Racer POWER HOUR $50 [10 BB] $50 $5,000
11月4日 01:40 Speed Racer POWER HOUR $100 [10 BB] $100 $5,000
11月4日 01:50 Speed Racer POWER HOUR $200 [10 BB] $200 $5,000
11月4日 02:30 MYSTERY BOUNTY Main Event - $500K Top Bounty [Stage 1] $210 $5,000,000
11月4日 05:30 MYSTERY BOUNTY Main Event - $500K Top Bounty [Stage 1] $210 $5,000,000
11月4日 08:30 MYSTERY BOUNTY Main Event - $500K Top Bounty [Stage 1] $210 $5,000,000
11月4日 11:30 MYSTERY BOUNTY Main Event - $500K Top Bounty [Stage 1] $210 $5,000,000
11月4日 12:30 Bounty Blast-Off $88 $88 $25,000
11月4日 12:30 Bounty Blast-Off $8.80 $8.80 $30,000
11月4日 13:15 Ultra Deepstack Bounty Turbo $54 $54 $30,000
11月4日 13:15 Ultra Deepstack Bounty Turbo $5.40 $5.40 $20,000
11月4日 13:30 Saturday Showdown 7-Max $108 $108 $20,000
11月4日 13:30 Saturday Showdown 7-Max $10.80 $10.80 $40,000
11月4日 14:00 Speed Racer POWER HOUR $5 [10 BB] $5 $3,500
11月4日 14:10 Speed Racer POWER HOUR $10 [10 BB] $10 $4,000
11月4日 14:20 Speed Racer POWER HOUR $20 [10 BB] $20 $5,000
11月4日 14:30 MYSTERY BOUNTY Main Event - $500K Top Bounty [Stage 1] $210 $5,000,000
11月4日 14:30 Bounty Superstack $85.50 $85.50 $50,000
11月4日 14:30 Bounty Superstack $8.55 $8.55 $40,000
11月4日 14:30 Speed Racer POWER HOUR $40 [10 BB] $40 $5,000
11月4日 14:40 Speed Racer POWER HOUR $80 [10 BB] $80 $5,000
11月4日 14:50 Speed Racer POWER HOUR $150 [10 BB] $150 $5,000
11月4日 15:00 GGMasters Bounty Warm-Up Special Edition $25 $25 $75,000
11月4日 15:00 Bounty Warm-Up $250 $250 $25,000
11月4日 15:30 Bounty Forty Stack HR $444 $444 $20,000
11月4日 15:30 Bounty Forty Stack $44 $44 $75,000
11月4日 15:40 Omaholic Forty Stack $44 $44 $10,000
11月4日 16:30 Bounty Hunters HR $525 [Big Bounties] $525 $175,000
11月4日 16:30 Bounty Hunters Daily Main $54 [Big Bounties] $54 $200,000
11月4日 16:30 Bounty Hunters Mini Main $5.40 [Big Bounties] $5.40 $35,000
11月4日 17:30 MYSTERY BOUNTY Main Event - $500K Top Bounty [Stage 1] $210 $5,000,000
11月4日 17:30 Big Game $21.60 $21.60 $70,000
11月4日 17:40 Big Game Omaholic $215 $215 $15,000
11月4日 17:40 Big Game Omaholic $21.60 $21.60 $12,500
11月4日 18:00 Saturday Secret KO $150 [Mystery Bounty] $150 $300,000
11月4日 18:00 Saturday Secret KO $15 [Mystery Bounty] $15 $175,000
11月4日 18:30 Bounty King Special Edition $320 $320 $20,000
11月4日 18:30 Bounty King Jr $32.10 $32.10 $65,000
11月4日 19:00 GGMasters Bounty Special Edition $25 $25 $40,000
11月4日 19:30 Big KO $108 [Big Bounties] $108 $25,000
11月4日 19:30 Big KO $15 [Big Bounties] $15 $40,000
11月4日 20:30 MYSTERY BOUNTY Main Event - $500K Top Bounty [Stage 1] $210 $5,000,000
11月4日 20:30 Bounty Hunters HR Encore $525 $525 $15,000
11月4日 20:30 Bounty Hunters Encore $54 $54 $30,000
11月4日 21:00 Daily Heater Special Edition $215 [Turbo] $215 $25,000
11月4日 21:00 GGMasters Bounty Special Edition $25 [Turbo] $25 $25,000
11月4日 22:00 SUPER SIX $64.50 [Turbo] $64.50 $25,000
11月4日 22:15 4-MAX HYPER $108 $108 $8,500
11月4日 22:15 4-MAX HYPER $10.80 $10.80 $12,500
11月4日 23:30 MYSTERY BOUNTY Main Event - $500K Top Bounty [Stage 1] $210 $5,000,000
11月4日 23:30 Turbo Takedown $215 [25 BB] $215 $7,500
11月4日 23:30 Turbo Takedown $25 [25 BB] $25 $10,000
11月5日 00:00 Midnight Madness $85.50 [Bounty Edition] $85.50 $15,000
11月5日 00:00 Midnight Madness $8.55 [Bounty Edition] $8.55 $10,000
11月5日 01:00 Speed Racer POWER HOUR $5 [10 BB] $5 $3,000
11月5日 01:10 Speed Racer POWER HOUR $10 [10 BB] $10 $4,000
11月5日 01:20 Speed Racer POWER HOUR $25 [10 BB] $25 $4,000
11月5日 01:30 Speed Racer POWER HOUR $50 [10 BB] $50 $5,000
11月5日 01:40 Speed Racer POWER HOUR $100 [10 BB] $100 $5,000
11月5日 01:50 Speed Racer POWER HOUR $200 [10 BB] $200 $5,000
11月5日 02:30 MYSTERY BOUNTY Main Event - $500K Top Bounty [Stage 1] $210 $5,000,000
11月5日 05:30 MYSTERY BOUNTY Main Event - $500K Top Bounty [Stage 1] $210 $5,000,000
11月5日 08:30 MYSTERY BOUNTY Main Event - $500K Top Bounty [Stage 1] $210 $5,000,000
11月5日 11:30 MYSTERY BOUNTY Main Event - $500K Top Bounty [Stage 1] $210 $5,000,000
11月5日 12:30 Sunday Blast-Off $215 $215 $40,000
11月5日 12:30 Sunday Blast-Off $25 $25 $100,000
11月5日 13:15 Ultra Deepstack Bounty Turbo $54 $54 $75,000
11月5日 13:30 Sunday Six-Max $108 $108 $60,000
11月5日 13:30 Sunday Six-Max $10.80 $10.80 $75,000
11月5日 14:00 Battle of Marathon $320 $320 $100,000
11月5日 14:00 Battle of Marathon $32.10 $32.10 $125,000
11月5日 14:00 Speed Racer POWER HOUR $5 [10 BB] $5 $3,500
11月5日 14:10 Speed Racer POWER HOUR $10 [10 BB] $10 $4,000
11月5日 14:20 Speed Racer POWER HOUR $20 [10 BB] $20 $5,000
11月5日 14:30 MYSTERY BOUNTY Main Event - $500K Top Bounty [Stage 1] $210 $5,000,000
11月5日 14:30 Sunday Bounty Superstack $85.50 $85.50 $150,000
11月5日 14:30 Sunday Bounty Superstack $8.55 $8.55 $75,000
11月5日 14:30 Speed Racer POWER HOUR $40 [10 BB] $40 $5,000
11月5日 14:40 Speed Racer POWER HOUR $80 [10 BB] $80 $5,000
11月5日 14:50 Speed Racer POWER HOUR $150 [10 BB] $150 $5,000
11月5日 15:00 Sunday Grand Prix $150 [Bounty Edition] $150 $250,000
11月5日 15:00 GGMasters Sunday Bounty $25 $25 $150,000
11月5日 15:15 Ultra Deepstack Bounty Turbo $21.60 $21.60 $50,000
11月5日 15:30 Sunday Forty Stack $44 $44 $200,000
11月5日 15:40 Sunday Omaholic Forty Stack $44 $44 $20,000
11月5日 16:30 Bounty Hunters HR Main Event $525, $1M GTD $525 $1,000,000
11月5日 16:30 Bounty Hunters Sunday Main Event $54, $500K GTD $54 $500,000
11月5日 17:30 MYSTERY BOUNTY Main Event - $500K Top Bounty [Stage 1] $210 $5,000,000
11月5日 17:30 Sunday Big Game $215 $215 $350,000
11月5日 17:30 Sunday Big Game $21.60 $21.60 $150,000
11月5日 17:40 Sunday Big Game Omaholic $215 $215 $40,000
11月5日 17:40 Sunday Big Game Omaholic $21.60 $21.60 $25,000
11月5日 18:30 GGMasters Bounty Special Edition $320 $320 $400,000
11月5日 18:30 Sunday Bounty King Jr $32.10 $32.10 $150,000
11月5日 19:30 Sunday BIG KO $108 [Big Bounties] $108 $100,000
11月5日 19:40 Sunday BIG KO Omaholic $108 [Big Bounties] $108 $25,000
11月5日 20:30 MYSTERY BOUNTY Main Event - $500K Top Bounty [Stage 1] $210 $5,000,000
11月5日 20:30 Bounty Hunters HR Encore $525 $525 $50,000
11月5日 20:30 Bounty Hunters Encore $54 $54 $100,000
11月5日 21:00 Sunday Heater Special Edition $215 [Turbo] $215 $120,000
11月5日 21:00 Sunday Heater Special Edition $25 [Turbo] $25 $75,000
11月5日 21:40 Sunday Omaholic Heater $215 [Turbo] $215 $15,000
11月5日 21:40 Sunday Omaholic Heater $25 [Turbo] $25 $12,500
11月5日 22:00 SUPER SIX HR $630 [Turbo] $630 $30,000
11月5日 22:00 SUPER SIX $64.50 [Turbo] $64.50 $50,000
11月5日 22:30 America Bounty Bonaza $129 $129 $40,000
11月5日 22:30 America Bounty Bonaza $12.90 $12.90 $20,000
11月5日 23:30 MYSTERY BOUNTY Main Event - $500K Top Bounty [Stage 1] $210 $5,000,000
11月5日 23:30 Sunday Last Call $215 [Hyper] $215 $50,000
11月5日 23:30 Sunday Last Call $25 [Hyper] $25 $30,000
11月6日 00:00 Midnight Madness $85.50 [Bounty Edition] $85.50 $40,000
11月6日 00:00 Midnight Madness $8.55 [Bounty Edition] $8.55 $12,500
11月6日 01:00 Speed Racer POWER HOUR $5 [10 BB] $5 $4,000
11月6日 01:10 Speed Racer POWER HOUR $10 [10 BB] $10 $5,000
11月6日 01:20 Speed Racer POWER HOUR $25 [10 BB] $25 $7,500
11月6日 01:30 Speed Racer POWER HOUR $50 [10 BB] $50 $8,500
11月6日 01:40 Speed Racer POWER HOUR $100 [10 BB] $100 $10,000
11月6日 01:50 Speed Racer POWER HOUR $200 [10 BB] $200 $10,000
11月6日 02:30 MYSTERY BOUNTY Main Event - $500K Top Bounty [Stage 1] $210 $5,000,000
11月6日 05:30 MYSTERY BOUNTY Main Event - $500K Top Bounty [Stage 1] $210 $5,000,000
11月6日 08:30 MYSTERY BOUNTY Main Event - $500K Top Bounty [Stage 1] $210 $5,000,000
11月6日 10:30 MYSTERY BOUNTY Main Event - $500K Top Bounty [Stage 1] $210 $5,000,000
11月6日 12:30 MYSTERY BOUNTY Main Event - $500K Top Bounty [Stage 1] $210 $5,000,000
11月6日 12:30 Bounty Blast-Off $88 88.00 25,000
11月6日 12:30 Bounty Blast-Off $8.80 8.80 30,000
11月6日 13:15 Ultra Deepstack Bounty Turbo $54 54.00 30,000
11月6日 13:15 Ultra Deepstack Bounty Turbo $5.40 5.40 20,000
11月6日 13:30 Monday Hangover $108 [Variable Levels] 108.00 15,000
11月6日 13:30 Monday Hangover $10.80 [Variable Levels] 10.80 30,000
11月6日 14:00 Speed Racer POWER HOUR $5 [10 BB] 5.00 6,000
11月6日 14:10 Speed Racer POWER HOUR $10 [10 BB] 10.00 6,000
11月6日 14:20 Speed Racer POWER HOUR $20 [10 BB] 20.00 6,000
11月6日 14:30 MYSTERY BOUNTY Main Event - $500K Top Bounty [Stage 1] $210 $5,000,000
11月6日 14:30 Bounty Superstack $85.50 85.50 60,000
11月6日 14:30 Bounty Superstack $8.55 8.55 40,000
11月6日 14:30 Speed Racer POWER HOUR $40 [10 BB] 40.00 6,000
11月6日 14:40 Speed Racer POWER HOUR $80 [10 BB] 80.00 6,000
11月6日 14:50 Speed Racer POWER HOUR $150 [10 BB] 150.00 7,500
11月6日 15:00 GGMasters Bounty Warm-Up Special Edition $25 25.00 75,000
11月6日 15:00 Bounty Warm-Up $250 250.00 40,000
11月6日 15:30 Bounty Forty Stack HR $444 444.00 30,000
11月6日 15:30 Bounty Forty Stack $44 44.00 100,000
11月6日 15:40 Omaholic Forty Stack $44 44.00 10,000
11月6日 16:00 MYSTERY BOUNTY Main Event - $500K Top [Last Chance] $210 $5,000,000
11月6日 16:30 Bounty Hunters HR $525 [6-Max] 525.00 300,000
11月6日 16:30 Bounty Hunters Daily Main $54 [6-Max] 54.00 200,000
11月6日 16:30 Bounty Hunters Mini Main $5.40 [6-Max] 5.40 35,000
11月6日 16:45 MYSTERY BOUNTY Main Event - $500K Top [Last Minute] $210 $5,000,000
11月6日 17:30 Big Game $215 215.00 150,000
11月6日 17:30 Big Game $21.60 21.60 70,000
11月6日 17:40 Big Game Omaholic $215 215.00 15,000
11月6日 17:40 Big Game Omaholic $21.60 21.60 10,000
11月6日 18:00 Monday Monster Stack $150 [Bounty Edition] 150.00 200,000
11月6日 18:00 Monday Monster Stack $15 [Bounty Edition] 15.00 70,000
11月6日 18:30 MYSTERY BOUNTY Main Event - $500K Top Bounty [Day 2] $210 $5,000,000
11月6日 18:30 Bounty King Special Edition $320 320.00 40,000
11月6日 18:30 Bounty King Jr $32.10 32.10 70,000
11月6日 19:00 GGMasters Bounty Special Edition $25 25.00 50,000
11月6日 19:30 Big KO $108 [Big Bounties] 108.00 50,000
11月6日 19:30 Big KO $15 [Big Bounties] 15.00 50,000
11月6日 20:30 Bounty Hunters HR Encore $525 525.00 25,000
11月6日 20:30 Bounty Hunters Encore $54 54.00 30,000
11月6日 21:00 Daily Heater Special Edition $215 [Turbo] 215.00 40,000
11月6日 21:00 GGMasters Bounty Special Edition $25 [Turbo] 25.00 30,000
11月6日 22:00 SUPER SIX $64.50 [Turbo] 64.50 30,000
11月6日 22:15 4-MAX HYPER $108 108.00 17,500
11月6日 22:15 4-MAX HYPER $10.80 10.80 15,000
11月6日 23:30 Turbo Takedown $215 [25 BB] 215.00 12,500
11月6日 23:30 Turbo Takedown $25 [25 BB] 25.00 10,000
11月7日 00:00 Midnight Madness $85.50 [Bounty Edition] 85.50 25,000
11月7日 00:00 Midnight Madness $8.55 [Bounty Edition] 8.55 10,000
11月7日 01:00 Speed Racer POWER HOUR $5 [10 BB] 5.00 3,000
11月7日 01:10 Speed Racer POWER HOUR $10 [10 BB] 10.00 4,000
11月7日 01:20 Speed Racer POWER HOUR $25 [10 BB] 25.00 5,000
11月7日 01:30 Speed Racer POWER HOUR $50 [10 BB] 50.00 5,000
11月7日 01:40 Speed Racer POWER HOUR $100 [10 BB] 100.00 6,000
11月7日 01:50 Speed Racer POWER HOUR $200 [10 BB] 200.00 6,000
DATE DAY UTC EVENT BUY-IN GTD
10月10日 18:30 Global MILLION$ Bounty Edition, $1M GTD [Stage 1] $50 $1,250,000
10月11日 水曜日 12:30 Global MILLION$ Bounty Edition, $1M GTD [Stage 1] $50 $1,250,000
10月11日 水曜日 18:30 Global MILLION$ Bounty Edition, $1M GTD [Stage 1] $50 $1,250,000
10月12日 11:30 MYSTERY BOUNTY Mini Main - $200K Top Bounty [Stage 1] $25 $2,000,000
10月12日 12:30 Global MILLION$ Bounty Edition, $1M GTD [Stage 1] $50 $1,250,000
10月12日 15:30 MYSTERY BOUNTY Mini Main - $200K Top Bounty [Stage 1] $25 $2,000,000
10月12日 18:30 Global MILLION$ Bounty Edition, $1M GTD [Stage 1] $50 $1,250,000
10月12日 19:30 MYSTERY BOUNTY Mini Main - $200K Top Bounty [Stage 1] $25 $2,000,000
10月13日 11:30 MYSTERY BOUNTY Mini Main - $200K Top Bounty [Stage 1] $25 $2,000,000
10月13日 12:30 Global MILLION$ Bounty Edition, $1M GTD [Stage 1] $50 $1,250,000
10月13日 15:30 MYSTERY BOUNTY Mini Main - $200K Top Bounty [Stage 1] $25 $2,000,000
10月13日 18:30 Global MILLION$ Bounty Edition, $1M GTD [Stage 1] $50 $1,250,000
10月13日 19:30 MYSTERY BOUNTY Mini Main - $200K Top Bounty [Stage 1] $25 $2,000,000
10月14日 11:30 MYSTERY BOUNTY Mini Main - $200K Top Bounty [Stage 1] $25 $2,000,000
10月14日 12:30 Global MILLION$ Bounty Edition, $1M GTD [Stage 1] $50 $1,250,000
10月14日 15:30 MYSTERY BOUNTY Mini Main - $200K Top Bounty [Stage 1] $25 $2,000,000
10月14日 18:30 Global MILLION$ Bounty Edition, $1M GTD [Stage 1] $50 $1,250,000
10月14日 19:30 MYSTERY BOUNTY Mini Main - $200K Top Bounty [Stage 1] $25 $2,000,000
10月14日 23:30 MYSTERY BOUNTY Mini Main - $200K Top Bounty [Stage 1] $25 $2,000,000
10月15日 01:00 Speed Racer POWER HOUR $5 [10 BB] $5 $2,000
10月15日 01:10 Speed Racer POWER HOUR $10 [10 BB] $10 $3,000
10月15日 01:20 Speed Racer POWER HOUR $25 [10 BB] $25 $3,500
10月15日 01:30 Speed Racer POWER HOUR $50 [10 BB] $50 $4,000
10月15日 01:40 Speed Racer POWER HOUR $100 [10 BB] $100 $4,500
10月15日 01:50 Speed Racer POWER HOUR $200 [10 BB] $200 $5,000
10月15日 11:30 MYSTERY BOUNTY Mini Main - $200K Top Bounty [Stage 1] $25 $2,000,000
10月15日 12:30 Sunday Blast-Off $215 $215 $40,000
10月15日 12:30 Sunday Blast-Off $25 $25 $70,000
10月15日 12:30 Global MILLION$ Bounty Edition, $1M GTD [Stage 1] $50 $1,250,000
10月15日 13:15 Ultra Deepstack Bounty Turbo $54 $54 $50,000
10月15日 13:30 Sunday Six-Max $108 $108 $50,000
10月15日 13:30 Sunday Six-Max $10.80 $10.80 $65,000
10月15日 14:00 Battle of Marathon $320 $320 $125,000
10月15日 14:00 Battle of Marathon $32.10 $32.10 $125,000
10月15日 14:30 Sunday Bounty Superstack $85.50 $85.50 $150,000
10月15日 14:30 Sunday Bounty Superstack $8.55 $8.55 $50,000
10月15日 15:00 Sunday Grand Prix $150 [Bounty Edition] $150 $250,000
10月15日 15:00 GGMasters Sunday Bounty $25 $25 $120,000
10月15日 15:15 Ultra Deepstack Bounty Turbo $21.60 $21.60 $35,000
10月15日 15:30 Sunday Forty Stack $44 $44 $150,000
10月15日 15:30 MYSTERY BOUNTY Mini Main - $200K Top Bounty [Stage 1] $25 $2,000,000
10月15日 15:40 Sunday Omaholic Forty Stack $44 $44 $20,000
10月15日 16:30 Bounty Hunters HR Main Event $525, $1M GTD $525 $1,000,000
10月15日 16:30 Bounty Hunters Sunday Main Event $54, $500K GTD $54 $500,000
10月15日 17:30 Sunday Big Game $215 $215 $350,000
10月15日 17:30 Sunday Big Game $21.60 $21.60 $150,000
10月15日 17:40 Sunday Big Game Omaholic $215 $215 $40,000
10月15日 17:40 Sunday Big Game Omaholic $21.60 $21.60 $30,000
10月15日 18:30 GGMasters Bounty Special Edition $320 $320 $400,000
10月15日 18:30 Sunday Bounty King Jr $32.10 $32.10 $150,000
10月15日 18:30 Global MILLION$ Bounty Edition, $1M GTD [Stage 1] $50 $1,250,000
10月15日 19:30 Sunday BIG KO $108 [Big Bounties] $108 $75,000
10月15日 19:30 MYSTERY BOUNTY Mini Main - $200K Top Bounty [Stage 1] $25 $2,000,000
10月15日 19:40 Sunday BIG KO Omaholic $108 [Big Bounties] $108 $20,000
10月15日 20:30 Bounty Hunters HR Encore $525 $525 $75,000
10月15日 20:30 Bounty Hunters Encore $54 $54 $100,000
10月15日 21:00 Sunday Heater Special Edition $215 [Turbo] $215 $125,000
10月15日 21:00 Sunday Heater Special Edition $25 [Turbo] $25 $75,000
10月15日 21:40 Sunday Omaholic Heater $215 [Turbo] $215 $15,000
10月15日 21:40 Sunday Omaholic Heater $25 [Turbo] $25 $10,000
10月15日 22:00 SUPER SIX HR $630 [Turbo] $630 $30,000
10月15日 22:00 SUPER SIX $64.50 [Turbo] $64.50 $50,000
10月15日 22:30 America Bounty Bonaza $129 $129 $40,000
10月15日 22:30 America Bounty Bonaza $12.90 $12.90 $12,500
10月15日 23:30 Sunday Last Call $215 [Hyper] $215 $60,000
10月15日 23:30 Sunday Last Call $25 [Hyper] $25 $22,500
10月15日 23:30 MYSTERY BOUNTY Mini Main - $200K Top Bounty [Stage 1] $25 $2,000,000
10月16日 00:00 Midnight Madness $85.50 [Bounty Edition] $85.50 $40,000
10月16日 00:00 Midnight Madness $8.55 [Bounty Edition] $8.55 $12,500
10月16日 01:00 Speed Racer POWER HOUR $5 [10 BB] $5 $2,500
10月16日 01:10 Speed Racer POWER HOUR $10 [10 BB] $10 $3,500
10月16日 01:20 Speed Racer POWER HOUR $25 [10 BB] $25 $4,000
10月16日 01:30 Speed Racer POWER HOUR $50 [10 BB] $50 $4,500
10月16日 01:30 MYSTERY BOUNTY Mini Main - $200K Top Bounty [Stage 1] $25 $2,000,000
10月16日 01:40 Speed Racer POWER HOUR $100 [10 BB] $100 $5,000
10月16日 01:50 Speed Racer POWER HOUR $200 [10 BB] $200 $6,000
10月16日 03:30 MYSTERY BOUNTY Mini Main - $200K Top Bounty [Stage 1] $25 $2,000,000
10月16日 05:30 MYSTERY BOUNTY Mini Main - $200K Top Bounty [Stage 1] $25 $2,000,000
10月16日 07:30 MYSTERY BOUNTY Mini Main - $200K Top Bounty [Stage 1] $25 $2,000,000
10月16日 09:30 MYSTERY BOUNTY Mini Main - $200K Top Bounty [Stage 1] $25 $2,000,000
10月16日 11:30 MYSTERY BOUNTY Mini Main - $200K Top Bounty [Stage 1] $25 $2,000,000
10月16日 12:30 Bounty Blast-Off $88 $88 $20,000
10月16日 12:30 Bounty Blast-Off $8.80 $8.80 $25,000
10月16日 12:30 Global MILLION$ Bounty Edition, $1M GTD [Stage 1] $50 $1,250,000
10月16日 13:15 Ultra Deepstack Bounty Turbo $54 $54 $30,000
10月16日 13:15 Ultra Deepstack Bounty Turbo $5.40 $5.40 $20,000
10月16日 13:30 Monday Hangover $108 [Variable Levels] $108 $17,500
10月16日 13:30 Monday Hangover $10.80 [Variable Levels] $10.80 $15,000
10月16日 13:30 MYSTERY BOUNTY Mini Main - $200K Top Bounty [Stage 1] $25 $2,000,000
10月16日 14:30 Bounty Superstack $85.50 $85.50 $50,000
10月16日 14:30 Bounty Superstack $8.55 $8.55 $40,000
10月16日 15:00 GGMasters Bounty Warm-Up Special Edition $25 $25 $75,000
10月16日 15:00 Bounty Warm-Up $250 $250 $50,000
10月16日 15:30 Bounty Forty Stack HR $444 $444 $50,000
10月16日 15:30 Bounty Forty Stack $44 $44 $75,000
10月16日 15:30 MYSTERY BOUNTY Mini Main - $200K Top Bounty [Stage 1] $25 $2,000,000
10月16日 15:40 Omaholic Forty Stack $44 $44 $10,000
10月16日 16:30 Bounty Hunters HR $525 [6-Max] $525 $225,000
10月16日 16:30 Bounty Hunters Daily Main $54 [6-Max] $54 $175,000
10月16日 16:30 Bounty Hunters Mini Main $5.40 [6-Max] $5.40 $30,000
10月16日 17:30 Big Game $215 $215 $125,000
10月16日 17:30 Big Game $21.60 $21.60 $70,000
10月16日 17:30 MYSTERY BOUNTY Mini Main - $200K Top Bounty [Stage 1] $25 $2,000,000
10月16日 17:40 Big Game Omaholic $215 $215 $12,500
10月16日 17:40 Big Game Omaholic $21.60 $21.60 $12,500
10月16日 18:00 Monday Monster Stack $150 [Bounty Edition] $150 $100,000
10月16日 18:00 Monday Monster Stack $15 [Bounty Edition] $15 $50,000
10月16日 18:30 Bounty King Special Edition $320 $320 $50,000
10月16日 18:30 Bounty King Jr $32.10 $32.10 $65,000
10月16日 18:30 Global MILLION$ Bounty Edition, $1M GTD [Stage 1] $50 $1,250,000
10月16日 19:00 GGMasters Bounty Special Edition $25 $25 $40,000
10月16日 19:30 Big KO $108 [Big Bounties] $108 $40,000
10月16日 19:30 Big KO $15 [Big Bounties] $15 $30,000
10月16日 19:30 MYSTERY BOUNTY Mini Main - $200K Top Bounty [Stage 1] $25 $2,000,000
10月16日 20:30 Bounty Hunters HR Encore $525 $525 $20,000
10月16日 20:30 Bounty Hunters Encore $54 $54 $30,000
10月16日 21:00 Daily Heater Special Edition $215 [Turbo] $215 $35,000
10月16日 21:00 GGMasters Bounty Special Edition $25 [Turbo] $25 $25,000
10月16日 21:30 MYSTERY BOUNTY Mini Main - $200K Top Bounty [Stage 1] $25 $2,000,000
10月16日 22:00 SUPER SIX $64.50 [Turbo] $64.50 $25,000
10月16日 22:15 4-MAX HYPER $108 $108 $7,500
10月16日 22:15 4-MAX HYPER $10.80 $10.80 $8,000
10月16日 23:30 Turbo Takedown $215 [25 BB] $215 $10,000
10月16日 23:30 Turbo Takedown $25 [25 BB] $25 $10,000
10月16日 23:30 MYSTERY BOUNTY Mini Main - $200K Top Bounty [Stage 1] $25 $2,000,000
10月17日 00:00 Midnight Madness $85.50 [Bounty Edition] $85.50 $20,000
10月17日 00:00 Midnight Madness $8.55 [Bounty Edition] $8.55 $8,888
10月17日 01:00 Speed Racer POWER HOUR $5 [10 BB] $5 $2,000
10月17日 01:10 Speed Racer POWER HOUR $10 [10 BB] $10 $3,000
10月17日 01:20 Speed Racer POWER HOUR $25 [10 BB] $25 $3,500
10月17日 01:30 Speed Racer POWER HOUR $50 [10 BB] $50 $4,000
10月17日 01:30 MYSTERY BOUNTY Mini Main - $200K Top Bounty [Stage 1] $25 $2,000,000
10月17日 01:40 Speed Racer POWER HOUR $100 [10 BB] $100 $4,500
10月17日 01:50 Speed Racer POWER HOUR $200 [10 BB] $200 $5,000
10月17日 03:30 MYSTERY BOUNTY Mini Main - $200K Top Bounty [Stage 1] $25 $2,000,000
10月17日 05:30 MYSTERY BOUNTY Mini Main - $200K Top Bounty [Stage 1] $25 $2,000,000
10月17日 07:30 MYSTERY BOUNTY Mini Main - $200K Top Bounty [Stage 1] $25 $2,000,000
10月17日 09:30 MYSTERY BOUNTY Mini Main - $200K Top Bounty [Stage 1] $25 $2,000,000
10月17日 11:30 MYSTERY BOUNTY Mini Main - $200K Top Bounty [Stage 1] $25 $2,000,000
10月17日 12:30 Bounty Blast-Off $88 $88 $25,000
10月17日 12:30 Bounty Blast-Off $8.80 $8.80 $30,000
10月17日 12:30 Global MILLION$ Bounty Edition, $1M GTD [Stage 1] $50 $1,250,000
10月17日 13:15 Ultra Deepstack Bounty Turbo $54 $54 $30,000
10月17日 13:15 Ultra Deepstack Bounty Turbo $5.40 $5.40 $20,000
10月17日 13:30 Bounty Hunters 6-Max $108 $108 $20,000
10月17日 13:30 Bounty Hunters 6-Max $10.80 $10.80 $30,000
10月17日 13:30 MYSTERY BOUNTY Mini Main - $200K Top Bounty [Stage 1] $25 $2,000,000
10月17日 14:30 Bounty Superstack $85.50 $85.50 $50,000
10月17日 14:30 Bounty Superstack $8.55 $8.55 $40,000
10月17日 15:00 GGMasters Bounty Warm-Up Special Edition $25 $25 $75,000
10月17日 15:00 Bounty Warm-Up $250 $250 $40,000
10月17日 15:30 Bounty Forty Stack HR $444 $444 $40,000
10月17日 15:30 Bounty Forty Stack $44 $44 $75,000
10月17日 15:30 MYSTERY BOUNTY Mini Main - $200K Top Bounty [Stage 1] $25 $2,000,000
10月17日 15:40 Omaholic Forty Stack $44 $44 $10,000
10月17日 16:30 Bounty Hunters HR $525 [Deepstack] $525 $175,000
10月17日 16:30 Bounty Hunters Daily Main $54 [Deepstack] $54 $200,000
10月17日 16:30 Bounty Hunters Mini Main $5.40 [Deepstack] $5.40 $35,000
10月17日 17:30 Big Game $215 $215 $125,000
10月17日 17:30 Big Game $21.60 $21.60 $70,000
10月17日 17:30 MYSTERY BOUNTY Mini Main - $200K Top Bounty [Stage 1] $25 $2,000,000
10月17日 17:40 Big Game Omaholic $215 $215 $15,000
10月17日 17:40 Big Game Omaholic $21.60 $21.60 $12,500
10月17日 18:00 Tuesday Twinkle $150 [Mystery Bounty] $150 $150,000
10月17日 18:00 Tuesday Twinkle $15 [Mystery Bounty] $15 $100,000
10月17日 18:30 Bounty King Special Edition $320 $320 $30,000
10月17日 18:30 Bounty King Jr $32.10 $32.10 $65,000
10月17日 18:30 Global MILLION$ Bounty Edition, $1M GTD [Stage 1] $50 $1,250,000
10月17日 19:00 GGMasters Bounty Special Edition $25 $25 $40,000
10月17日 19:30 Big KO $108 [Big Bounties] $108 $30,000
10月17日 19:30 Big KO $15 [Big Bounties] $15 $40,000
10月17日 19:30 MYSTERY BOUNTY Mini Main - $200K Top Bounty [Stage 1] $25 $2,000,000
10月17日 20:30 Bounty Hunters HR Encore $525 $525 $20,000
10月17日 20:30 Bounty Hunters Encore $54 $54 $30,000
10月17日 21:00 Daily Heater Special Edition $215 [Turbo] $215 $35,000
10月17日 21:00 GGMasters Bounty Special Edition $25 [Turbo] $25 $25,000
10月17日 21:30 MYSTERY BOUNTY Mini Main - $200K Top Bounty [Stage 1] $25 $2,000,000
10月17日 22:00 SUPER SIX $64.50 [Turbo] $64.50 $25,000
10月17日 22:15 4-MAX HYPER $108 $108 $12,000
10月17日 22:15 4-MAX HYPER $10.80 $10.80 $10,000
10月17日 23:30 Turbo Takedown $215 [25 BB] $215 $10,000
10月17日 23:30 Turbo Takedown $25 [25 BB] $25 $10,000
10月17日 23:30 MYSTERY BOUNTY Mini Main - $200K Top Bounty [Stage 1] $25 $2,000,000
10月18日 水曜日 00:00 Midnight Madness $85.50 [Bounty Edition] $85.50 $20,000
10月18日 水曜日 00:00 Midnight Madness $8.55 [Bounty Edition] $8.55 $10,000
10月18日 水曜日 01:00 Speed Racer POWER HOUR $5 [10 BB] $5 $2,500
10月18日 水曜日 01:10 Speed Racer POWER HOUR $10 [10 BB] $10 $3,500
10月18日 水曜日 01:20 Speed Racer POWER HOUR $25 [10 BB] $25 $4,000
10月18日 水曜日 01:30 Speed Racer POWER HOUR $50 [10 BB] $50 $5,000
10月18日 水曜日 01:30 MYSTERY BOUNTY Mini Main - $200K Top Bounty [Stage 1] $25 $2,000,000
10月18日 水曜日 01:40 Speed Racer POWER HOUR $100 [10 BB] $100 $5,000
10月18日 水曜日 01:50 Speed Racer POWER HOUR $200 [10 BB] $200 $5,500
10月18日 水曜日 03:30 MYSTERY BOUNTY Mini Main - $200K Top Bounty [Stage 1] $25 $2,000,000
10月18日 水曜日 05:30 MYSTERY BOUNTY Mini Main - $200K Top Bounty [Stage 1] $25 $2,000,000
10月18日 水曜日 07:30 MYSTERY BOUNTY Mini Main - $200K Top Bounty [Stage 1] $25 $2,000,000
10月18日 水曜日 09:30 MYSTERY BOUNTY Mini Main - $200K Top Bounty [Stage 1] $25 $2,000,000
10月18日 水曜日 11:30 MYSTERY BOUNTY Mini Main - $200K Top Bounty [Stage 1] $25 $2,000,000
10月18日 水曜日 12:30 Bounty Blast-Off $88 $88 $25,000
10月18日 水曜日 12:30 Bounty Blast-Off $8.80 $8.80 $30,000
10月18日 水曜日 12:30 Global MILLION$ Bounty Edition, $1M GTD [Stage 1] $50 $1,250,000
10月18日 水曜日 13:15 Ultra Deepstack Bounty Turbo $54 $54 $30,000
10月18日 水曜日 13:15 Ultra Deepstack Bounty Turbo $5.40 $5.40 $20,000
10月18日 水曜日 13:30 Bounty Hunters 6-Max $108 $108 $25,000
10月18日 水曜日 13:30 Bounty Hunters 6-Max $10.80 $10.80 $30,000
10月18日 水曜日 13:30 MYSTERY BOUNTY Mini Main - $200K Top Bounty [Stage 1] $25 $2,000,000
10月18日 水曜日 14:30 Bounty Superstack $85.50 $85.50 $50,000
10月18日 水曜日 14:30 Bounty Superstack $8.55 $8.55 $40,000
10月18日 水曜日 15:00 GGMasters Bounty Warm-Up Special Edition $25 $25 $75,000
10月18日 水曜日 15:00 Bounty Warm-Up $250 $250 $25,000
10月18日 水曜日 15:30 Bounty Forty Stack HR $444 $444 $20,000
10月18日 水曜日 15:30 Bounty Forty Stack $44 $44 $75,000
10月18日 水曜日 15:30 MYSTERY BOUNTY Mini Main - $200K Top Bounty [Stage 1] $25 $2,000,000
10月18日 水曜日 15:40 Omaholic Forty Stack $44 $44 $10,000
10月18日 水曜日 16:30 Bounty Hunters HR $525 [Double Stack] $525 $150,000
10月18日 水曜日 16:30 Bounty Hunters Daily Main $54 [Double Stack] $54 $200,000
10月18日 水曜日 16:30 Bounty Hunters Mini Main $5.40 [Double Stack] $5.40 $35,000
10月18日 水曜日 16:30 MYSTERY BOUNTY Mini Main - $200K Top Bounty [Stage 1] $25 $2,000,000
10月18日 水曜日 17:30 Big Game $215 $215 $85,000
10月18日 水曜日 17:30 Big Game $21.60 $21.60 $70,000
10月18日 水曜日 17:40 Big Game Omaholic $215 $215 $15,000
10月18日 水曜日 17:40 Big Game Omaholic $21.60 $21.60 $12,500
10月18日 水曜日 18:00 Wednesday Double Stack $150 [Bounty Edition] $150 $100,000
10月18日 水曜日 18:00 Wednesday Double Stack $15 [Bounty Edition] $15 $60,000
10月18日 水曜日 18:30 Bounty King Special Edition $320 $320 $25,000
10月18日 水曜日 18:30 Bounty King Jr $32.10 $32.10 $65,000
10月18日 水曜日 18:30 Global MILLION$ Bounty Edition, $1M GTD [Stage 1] $50 $1,250,000
10月18日 水曜日 19:00 GGMasters Bounty Special Edition $25 $25 $40,000
10月18日 水曜日 19:30 Big KO $108 [Big Bounties] $108 $35,000
10月18日 水曜日 19:30 Big KO $15 [Big Bounties] $15 $50,000
10月18日 水曜日 19:30 MYSTERY BOUNTY Mini Main - $200K Top Bounty [Stage 1] $25 $2,000,000
10月18日 水曜日 20:30 Bounty Hunters HR Encore $525 $525 $20,000
10月18日 水曜日 20:30 Bounty Hunters Encore $54 $54 $30,000
10月18日 水曜日 21:00 Daily Heater Special Edition $215 [Turbo] $215 $25,000
10月18日 水曜日 21:00 GGMasters Bounty Special Edition $25 [Turbo] $25 $25,000
10月18日 水曜日 22:00 SUPER SIX $64.50 [Turbo] $64.50 $25,000
10月18日 水曜日 22:15 4-MAX HYPER $108 $108 $12,500
10月18日 水曜日 22:15 4-MAX HYPER $10.80 $10.80 $12,500
10月18日 水曜日 22:30 MYSTERY BOUNTY Mini Main - $200K Top Bounty [Stage 1] $25 $2,000,000
10月18日 水曜日 23:30 Turbo Takedown $215 [25 BB] $215 $10,000
10月18日 水曜日 23:30 Turbo Takedown $25 [25 BB] $25 $10,000
10月19日 00:00 Midnight Madness $85.50 [Bounty Edition] $85.50 $20,000
10月19日 00:00 Midnight Madness $8.55 [Bounty Edition] $8.55 $10,000
10月19日 01:00 Speed Racer POWER HOUR $5 [10 BB] $5 $3,000
10月19日 01:10 Speed Racer POWER HOUR $10 [10 BB] $10 $4,000
10月19日 01:20 Speed Racer POWER HOUR $25 [10 BB] $25 $4,000
10月19日 01:30 Speed Racer POWER HOUR $50 [10 BB] $50 $5,000
10月19日 01:30 MYSTERY BOUNTY Mini Main - $200K Top Bounty [Stage 1] $25 $2,000,000
10月19日 01:40 Speed Racer POWER HOUR $100 [10 BB] $100 $5,000
10月19日 01:50 Speed Racer POWER HOUR $200 [10 BB] $200 $5,000
10月19日 04:30 MYSTERY BOUNTY Mini Main - $200K Top Bounty [Stage 1] $25 $2,000,000
10月19日 07:30 MYSTERY BOUNTY Mini Main - $200K Top Bounty [Stage 1] $25 $2,000,000
10月19日 10:30 MYSTERY BOUNTY Mini Main - $200K Top Bounty [Stage 1] $25 $2,000,000
10月19日 12:30 Bounty Blast-Off $88 $88 $25,000
10月19日 12:30 Bounty Blast-Off $8.80 $8.80 $30,000
10月19日 12:30 Global MILLION$ Bounty Edition, $1M GTD [Stage 1] $50 $1,250,000
10月19日 13:15 Ultra Deepstack Bounty Turbo $54 $54 $30,000
10月19日 13:15 Ultra Deepstack Bounty Turbo $5.40 $5.40 $20,000
10月19日 13:30 Bounty Hunters 6-Max $108 $108 $25,000
10月19日 13:30 Bounty Hunters 6-Max $10.80 $10.80 $30,000
10月19日 13:30 MYSTERY BOUNTY Mini Main - $200K Top Bounty [Stage 1] $25 $2,000,000
10月19日 14:30 Bounty Superstack $85.50 $85.50 $50,000
10月19日 14:30 Bounty Superstack $8.55 $8.55 $40,000
10月19日 15:00 GGMasters Bounty Warm-Up Special Edition $25 $25 $75,000
10月19日 15:00 Bounty Warm-Up $250 $250 $40,000
10月19日 15:30 Bounty Forty Stack HR $444 $444 $30,000
10月19日 15:30 Bounty Forty Stack $44 $44 $75,000
10月19日 15:40 Omaholic Forty Stack $44 $44 $10,000
10月19日 16:30 Bounty Hunters HR $525 [Classic] $525 $225,000
10月19日 16:30 Bounty Hunters Daily Main $54 [Classic] $54 $200,000
10月19日 16:30 Bounty Hunters Mini Main $5.40 [Classic] $5.40 $35,000
10月19日 16:30 MYSTERY BOUNTY Mini Main - $200K Top Bounty [Stage 1] $25 $2,000,000
10月19日 17:30 Big Game $215 $215 $100,000
10月19日 17:30 Big Game $21.60 $21.60 $70,000
10月19日 17:40 Big Game Omaholic $215 $215 $15,000
10月19日 17:40 Big Game Omaholic $21.60 $21.60 $12,500
10月19日 18:00 Thursday Throwdown $150 $150 $150,000
10月19日 18:00 Thursday Throwdown $15 $15 $60,000
10月19日 18:30 Bounty King Special Edition $320 $320 $40,000
10月19日 18:30 Bounty King Jr $32.10 $32.10 $65,000
10月19日 18:30 Global MILLION$ Bounty Edition, $1M GTD [Stage 1] $50 $1,250,000
10月19日 19:00 GGMasters Bounty Special Edition $25 $25 $40,000
10月19日 19:30 Big KO $108 [Big Bounties] $108 $40,000
10月19日 19:30 Big KO $15 [Big Bounties] $15 $50,000
10月19日 19:30 MYSTERY BOUNTY Mini Main - $200K Top Bounty [Stage 1] $25 $2,000,000
10月19日 20:30 Bounty Hunters HR Encore $525 $525 $20,000
10月19日 20:30 Bounty Hunters Encore $54 $54 $30,000
10月19日 21:00 Daily Heater Special Edition $215 [Turbo] $215 $35,000
10月19日 21:00 GGMasters Bounty Special Edition $25 [Turbo] $25 $25,000
10月19日 22:00 SUPER SIX $64.50 [Turbo] $64.50 $25,000
10月19日 22:15 4-MAX HYPER $108 $108 $12,500
10月19日 22:15 4-MAX HYPER $10.80 $10.80 $12,500
10月19日 22:30 MYSTERY BOUNTY Mini Main - $200K Top Bounty [Stage 1] $25 $2,000,000
10月19日 23:30 Turbo Takedown $215 [25 BB] $215 $10,000
10月19日 23:30 Turbo Takedown $25 [25 BB] $25 $10,000
10月20日 00:00 Midnight Madness $85.50 [Bounty Edition] $85.50 $20,000
10月20日 00:00 Midnight Madness $8.55 [Bounty Edition] $8.55 $10,000
10月20日 01:00 Speed Racer POWER HOUR $5 [10 BB] $5 $3,000
10月20日 01:10 Speed Racer POWER HOUR $10 [10 BB] $10 $4,000
10月20日 01:20 Speed Racer POWER HOUR $25 [10 BB] $25 $4,000
10月20日 01:30 Speed Racer POWER HOUR $50 [10 BB] $50 $5,000
10月20日 01:30 MYSTERY BOUNTY Mini Main - $200K Top Bounty [Stage 1] $25 $2,000,000
10月20日 01:40 Speed Racer POWER HOUR $100 [10 BB] $100 $5,000
10月20日 01:50 Speed Racer POWER HOUR $200 [10 BB] $200 $5,000
10月20日 04:30 MYSTERY BOUNTY Mini Main - $200K Top Bounty [Stage 1] $25 $2,000,000
10月20日 07:30 MYSTERY BOUNTY Mini Main - $200K Top Bounty [Stage 1] $25 $2,000,000
10月20日 10:30 MYSTERY BOUNTY Mini Main - $200K Top Bounty [Stage 1] $25 $2,000,000
10月20日 12:30 Bounty Blast-Off $88 $88 $25,000
10月20日 12:30 Bounty Blast-Off $8.80 $8.80 $30,000
10月20日 12:30 Global MILLION$ Bounty Edition, $1M GTD [Stage 1] $50 $1,250,000
10月20日 13:15 Ultra Deepstack Bounty Turbo $54 $54 $30,000
10月20日 13:15 Ultra Deepstack Bounty Turbo $5.40 $5.40 $20,000
10月20日 13:30 Furious Friday 5-Max $108 $108 $15,000
10月20日 13:30 Furious Friday 5-Max $10.80 $10.80 $25,000
10月20日 13:30 MYSTERY BOUNTY Mini Main - $200K Top Bounty [Stage 1] $25 $2,000,000
10月20日 14:00 Speed Racer POWER HOUR $5 [10 BB] $5 $3,500
10月20日 14:10 Speed Racer POWER HOUR $10 [10 BB] $10 $4,000
10月20日 14:20 Speed Racer POWER HOUR $20 [10 BB] $20 $5,000
10月20日 14:30 Bounty Superstack $85.50 $85.50 $40,000
10月20日 14:30 Bounty Superstack $8.55 $8.55 $40,000
10月20日 14:30 Speed Racer POWER HOUR $40 [10 BB] $40 $5,000
10月20日 14:40 Speed Racer POWER HOUR $80 [10 BB] $80 $5,000
10月20日 14:50 Speed Racer POWER HOUR $150 [10 BB] $150 $5,000
10月20日 15:00 GGMasters Bounty Warm-Up Special Edition $25 $25 $75,000
10月20日 15:00 Bounty Warm-Up $250 $250 $20,000
10月20日 15:30 Bounty Forty Stack HR $444 $444 $15,000
10月20日 15:30 Bounty Forty Stack $44 $44 $75,000
10月20日 15:40 Omaholic Forty Stack $44 $44 $10,000
10月20日 16:30 Bounty Hunters HR $525 [Ultradeep] $525 $125,000
10月20日 16:30 Bounty Hunters Daily Main $54 [Ultradeep] $54 $200,000
10月20日 16:30 Bounty Hunters Mini Main $5.40 [Ultradeep] $5.40 $35,000
10月20日 16:30 MYSTERY BOUNTY Mini Main - $200K Top Bounty [Stage 1] $25 $2,000,000
10月20日 17:30 Big Game $215 $215 $70,000
10月20日 17:30 Big Game $21.60 $21.60 $70,000
10月20日 17:40 Big Game Omaholic $215 $215 $8,000
10月20日 17:40 Big Game Omaholic $21.60 $21.60 $12,500
10月20日 18:00 Friday Night Fight $150 [6-Max] $150 $125,000
10月20日 18:00 Friday Night Fight $15 [6-Max] $15 $60,000
10月20日 18:30 Bounty King Special Edition $320 $320 $20,000
10月20日 18:30 Bounty King Jr $32.10 $32.10 $65,000
10月20日 18:30 Global MILLION$ Bounty Edition, $1M GTD [Stage 1] $50 $1,250,000
10月20日 19:00 GGMasters Bounty Special Edition $25 $25 $40,000
10月20日 19:30 Big KO $108 [Big Bounties] $108 $25,000
10月20日 19:30 Big KO $15 [Big Bounties] $15 $50,000
10月20日 19:30 MYSTERY BOUNTY Mini Main - $200K Top Bounty [Stage 1] $25 $2,000,000
10月20日 20:30 Bounty Hunters HR Encore $525 $525 $15,000
10月20日 20:30 Bounty Hunters Encore $54 $54 $30,000
10月20日 21:00 Daily Heater Special Edition $215 [Turbo] $215 $20,000
10月20日 21:00 GGMasters Bounty Special Edition $25 [Turbo] $25 $25,000
10月20日 22:00 SUPER SIX $64.50 [Turbo] $64.50 $25,000
10月20日 22:15 4-MAX HYPER $108 $108 $8,500
10月20日 22:15 4-MAX HYPER $10.80 $10.80 $12,500
10月20日 22:30 MYSTERY BOUNTY Mini Main - $200K Top Bounty [Stage 1] $25 $2,000,000
10月20日 23:30 Turbo Takedown $215 [25 BB] $215 $7,500
10月20日 23:30 Turbo Takedown $25 [25 BB] $25 $10,000
10月21日 00:00 Midnight Madness $85.50 [Bounty Edition] $85.50 $15,000
10月21日 00:00 Midnight Madness $8.55 [Bounty Edition] $8.55 $10,000
10月21日 00:30 Global MILLION$ Bounty Edition, $1M GTD [Stage 1] $50 $1,250,000
10月21日 01:00 Speed Racer POWER HOUR $5 [10 BB] $5 $3,000
10月21日 01:10 Speed Racer POWER HOUR $10 [10 BB] $10 $4,000
10月21日 01:20 Speed Racer POWER HOUR $25 [10 BB] $25 $4,000
10月21日 01:30 Speed Racer POWER HOUR $50 [10 BB] $50 $5,000
10月21日 01:30 MYSTERY BOUNTY Mini Main - $200K Top Bounty [Stage 1] $25 $2,000,000
10月21日 01:40 Speed Racer POWER HOUR $100 [10 BB] $100 $5,000
10月21日 01:50 Speed Racer POWER HOUR $200 [10 BB] $200 $5,000
10月21日 04:30 MYSTERY BOUNTY Mini Main - $200K Top Bounty [Stage 1] $25 $2,000,000
10月21日 06:30 Global MILLION$ Bounty Edition, $1M GTD [Stage 1] $50 $1,250,000
10月21日 07:30 MYSTERY BOUNTY Mini Main - $200K Top Bounty [Stage 1] $25 $2,000,000
10月21日 10:30 MYSTERY BOUNTY Mini Main - $200K Top Bounty [Stage 1] $25 $2,000,000
10月21日 12:30 Bounty Blast-Off $88 $88 $25,000
10月21日 12:30 Bounty Blast-Off $8.80 $8.80 $30,000
10月21日 12:30 Global MILLION$ Bounty Edition, $1M GTD [Stage 1] $50 $1,250,000
10月21日 13:15 Ultra Deepstack Bounty Turbo $54 $54 $30,000
10月21日 13:15 Ultra Deepstack Bounty Turbo $5.40 $5.40 $20,000
10月21日 13:30 Saturday Showdown 7-Max $108 $108 $20,000
10月21日 13:30 Saturday Showdown 7-Max $10.80 $10.80 $40,000
10月21日 13:30 MYSTERY BOUNTY Mini Main - $200K Top Bounty [Stage 1] $25 $2,000,000
10月21日 14:00 Speed Racer POWER HOUR $5 [10 BB] $5 $3,500
10月21日 14:10 Speed Racer POWER HOUR $10 [10 BB] $10 $4,000
10月21日 14:20 Speed Racer POWER HOUR $20 [10 BB] $20 $5,000
10月21日 14:30 Bounty Superstack $85.50 $85.50 $50,000
10月21日 14:30 Bounty Superstack $8.55 $8.55 $40,000
10月21日 14:30 Speed Racer POWER HOUR $40 [10 BB] $40 $5,000
10月21日 14:40 Speed Racer POWER HOUR $80 [10 BB] $80 $5,000
10月21日 14:50 Speed Racer POWER HOUR $150 [10 BB] $150 $5,000
10月21日 15:00 GGMasters Bounty Warm-Up Special Edition $25 $25 $75,000
10月21日 15:00 Bounty Warm-Up $250 $250 $25,000
10月21日 15:30 Bounty Forty Stack HR $444 $444 $20,000
10月21日 15:30 Bounty Forty Stack $44 $44 $75,000
10月21日 15:40 Omaholic Forty Stack $44 $44 $10,000
10月21日 16:30 Bounty Hunters HR $525 [Big Bounties] $525 $175,000
10月21日 16:30 Bounty Hunters Daily Main $54 [Big Bounties] $54 $200,000
10月21日 16:30 Bounty Hunters Mini Main $5.40 [Big Bounties] $5.40 $35,000
10月21日 16:30 MYSTERY BOUNTY Mini Main - $200K Top Bounty [Stage 1] $25 $2,000,000
10月21日 17:30 Big Game $21.60 $21.60 $70,000
10月21日 17:40 Big Game Omaholic $215 $215 $15,000
10月21日 17:40 Big Game Omaholic $21.60 $21.60 $12,500
10月21日 18:00 Saturday Secret KO $150 [Mystery Bounty] $150 $300,000
10月21日 18:00 Saturday Secret KO $15 [Mystery Bounty] $15 $175,000
10月21日 18:30 Bounty King Special Edition $320 $320 $20,000
10月21日 18:30 Bounty King Jr $32.10 $32.10 $65,000
10月21日 18:30 Global MILLION$ Bounty Edition, $1M GTD [Stage 1] $50 $1,250,000
10月21日 19:00 GGMasters Bounty Special Edition $25 $25 $40,000
10月21日 19:30 Big KO $108 [Big Bounties] $108 $25,000
10月21日 19:30 Big KO $15 [Big Bounties] $15 $40,000
10月21日 19:30 MYSTERY BOUNTY Mini Main - $200K Top Bounty [Stage 1] $25 $2,000,000
10月21日 20:30 Bounty Hunters HR Encore $525 $525 $15,000
10月21日 20:30 Bounty Hunters Encore $54 $54 $30,000
10月21日 21:00 Daily Heater Special Edition $215 [Turbo] $215 $25,000
10月21日 21:00 GGMasters Bounty Special Edition $25 [Turbo] $25 $25,000
10月21日 22:00 SUPER SIX $64.50 [Turbo] $64.50 $25,000
10月21日 22:15 4-MAX HYPER $108 $108 $8,500
10月21日 22:15 4-MAX HYPER $10.80 $10.80 $12,500
10月21日 22:30 MYSTERY BOUNTY Mini Main - $200K Top Bounty [Stage 1] $25 $2,000,000
10月21日 23:30 Turbo Takedown $215 [25 BB] $215 $7,500
10月21日 23:30 Turbo Takedown $25 [25 BB] $25 $10,000
10月22日 00:00 Midnight Madness $85.50 [Bounty Edition] $85.50 $15,000
10月22日 00:00 Midnight Madness $8.55 [Bounty Edition] $8.55 $10,000
10月22日 00:30 Global MILLION$ Bounty Edition, $1M GTD [Stage 1] $50 $1,250,000
10月22日 01:30 MYSTERY BOUNTY Mini Main - $200K Top Bounty [Stage 1] $25 $2,000,000
10月22日 03:30 MYSTERY BOUNTY Mini Main - $200K Top Bounty [Stage 1] $25 $2,000,000
10月22日 05:30 MYSTERY BOUNTY Mini Main - $200K Top Bounty [Stage 1] $25 $2,000,000
10月22日 06:30 Global MILLION$ Bounty Edition, $1M GTD [Stage 1] $50 $1,250,000
10月22日 07:30 MYSTERY BOUNTY Mini Main - $200K Top Bounty [Stage 1] $25 $2,000,000
10月22日 09:30 MYSTERY BOUNTY Mini Main - $200K Top Bounty [Stage 1] $25 $2,000,000
10月22日 11:30 MYSTERY BOUNTY Mini Main - $200K Top Bounty [Stage 1] $25 $2,000,000
10月22日 11:30 MYSTERY BOUNTY Main Event - $500K Top Bounty [Stage 1] $210 $5,000,000
10月22日 12:30 Sunday Blast-Off $215 $215 $40,000
10月22日 12:30 Sunday Blast-Off $25 $25 $100,000
10月22日 12:30 Global MILLION$ Bounty Edition, $1M GTD [Stage 1] $50 $1,250,000
10月22日 13:15 Ultra Deepstack Bounty Turbo $54 $54 $75,000
10月22日 13:30 MYSTERY BOUNTY Mini Main - $200K Top Bounty [Stage 1] $25 $2,000,000
10月22日 13:30 Sunday Six-Max $108 $108 $60,000
10月22日 13:30 Sunday Six-Max $10.80 $10.80 $75,000
10月22日 14:00 Battle of Marathon $320 $320 $100,000
10月22日 14:00 Battle of Marathon $32.10 $32.10 $125,000
10月22日 14:00 Speed Racer POWER HOUR $5 [10 BB] $5 $3,500
10月22日 14:10 Speed Racer POWER HOUR $10 [10 BB] $10 $4,000
10月22日 14:20 Speed Racer POWER HOUR $20 [10 BB] $20 $5,000
10月22日 14:30 Sunday Bounty Superstack $85.50 $85.50 $150,000
10月22日 14:30 Sunday Bounty Superstack $8.55 $8.55 $75,000
10月22日 14:30 Speed Racer POWER HOUR $40 [10 BB] $40 $5,000
10月22日 14:40 Speed Racer POWER HOUR $80 [10 BB] $80 $5,000
10月22日 14:50 Speed Racer POWER HOUR $150 [10 BB] $150 $5,000
10月22日 15:00 Sunday Grand Prix $150 [Bounty Edition] $150 $250,000
10月22日 15:00 GGMasters Sunday Bounty $25 $25 $150,000
10月22日 15:15 Ultra Deepstack Bounty Turbo $21.60 $21.60 $50,000
10月22日 15:30 MYSTERY BOUNTY Mini Main - $200K Top Bounty [Stage 1] $25 $2,000,000
10月22日 15:30 Sunday Forty Stack $44 $44 $200,000
10月22日 15:30 MYSTERY BOUNTY Main Event - $500K Top Bounty [Stage 1] $210 $5,000,000
10月22日 15:40 Sunday Omaholic Forty Stack $44 $44 $20,000
10月22日 16:30 Bounty Hunters HR Main Event $525, $1M GTD $525 $1,000,000
10月22日 16:30 Bounty Hunters Sunday Main Event $54, $500K GTD $54 $500,000
10月22日 17:30 MYSTERY BOUNTY Mini Main - $200K Top Bounty [Stage 1] $25 $2,000,000
10月22日 17:30 Sunday Big Game $215 $215 $350,000
10月22日 17:30 Sunday Big Game $21.60 $21.60 $150,000
10月22日 17:40 Sunday Big Game Omaholic $215 $215 $40,000
10月22日 17:40 Sunday Big Game Omaholic $21.60 $21.60 $25,000
10月22日 18:30 GGMasters Bounty Special Edition $320 $320 $400,000
10月22日 18:30 Sunday Bounty King Jr $32.10 $32.10 $150,000
10月22日 18:30 Global MILLION$ Bounty Edition, $1M GTD [Stage 1] $50 $1,250,000
10月22日 19:30 MYSTERY BOUNTY Mini Main - $200K Top Bounty [Stage 1] $25 $2,000,000
10月22日 19:30 Sunday BIG KO $108 [Big Bounties] $108 $100,000
10月22日 19:30 MYSTERY BOUNTY Main Event - $500K Top Bounty [Stage 1] $210 $5,000,000
10月22日 19:40 Sunday BIG KO Omaholic $108 [Big Bounties] $108 $25,000
10月22日 20:30 Bounty Hunters HR Encore $525 $525 $50,000
10月22日 20:30 Bounty Hunters Encore $54 $54 $100,000
10月22日 21:00 Sunday Heater Special Edition $215 [Turbo] $215 $120,000
10月22日 21:00 Sunday Heater Special Edition $25 [Turbo] $25 $75,000
10月22日 21:30 MYSTERY BOUNTY Mini Main - $200K Top Bounty [Stage 1] $25 $2,000,000
10月22日 21:40 Sunday Omaholic Heater $215 [Turbo] $215 $15,000
10月22日 21:40 Sunday Omaholic Heater $25 [Turbo] $25 $12,500
10月22日 22:00 SUPER SIX HR $630 [Turbo] $630 $30,000
10月22日 22:00 SUPER SIX $64.50 [Turbo] $64.50 $50,000
10月22日 22:30 America Bounty Bonaza $129 $129 $40,000
10月22日 22:30 America Bounty Bonaza $12.90 $12.90 $20,000
10月22日 23:30 MYSTERY BOUNTY Mini Main - $200K Top Bounty [Stage 1] $25 $2,000,000
10月22日 23:30 Sunday Last Call $215 [Hyper] $215 $50,000
10月22日 23:30 Sunday Last Call $25 [Hyper] $25 $30,000
10月22日 23:30 MYSTERY BOUNTY Main Event - $500K Top Bounty [Stage 1] $210 $5,000,000
10月23日 00:00 Midnight Madness $85.50 [Bounty Edition] $85.50 $40,000
10月23日 00:00 Midnight Madness $8.55 [Bounty Edition] $8.55 $12,500
10月23日 00:30 Global MILLION$ Bounty Edition, $1M GTD [Stage 1] $50 $1,250,000
10月23日 01:00 Speed Racer POWER HOUR $5 [10 BB] $5 $4,000
10月23日 01:10 Speed Racer POWER HOUR $10 [10 BB] $10 $5,000
10月23日 01:20 Speed Racer POWER HOUR $25 [10 BB] $25 $7,500
10月23日 01:30 MYSTERY BOUNTY Mini Main - $200K Top Bounty [Stage 1] $25 $2,000,000
10月23日 01:30 Speed Racer POWER HOUR $50 [10 BB] $50 $8,500
10月23日 01:40 Speed Racer POWER HOUR $100 [10 BB] $100 $10,000
10月23日 01:50 Speed Racer POWER HOUR $200 [10 BB] $200 $10,000
10月23日 03:30 MYSTERY BOUNTY Mini Main - $200K Top Bounty [Stage 1] $25 $2,000,000
10月23日 05:30 MYSTERY BOUNTY Mini Main - $200K Top Bounty [Stage 1] $25 $2,000,000
10月23日 06:30 Global MILLION$ Bounty Edition, $1M GTD [Stage 1] $50 $1,250,000
10月23日 07:30 MYSTERY BOUNTY Mini Main - $200K Top Bounty [Stage 1] $25 $2,000,000
10月23日 09:30 MYSTERY BOUNTY Mini Main - $200K Top Bounty [Stage 1] $25 $2,000,000
10月23日 11:30 MYSTERY BOUNTY Mini Main - $200K Top Bounty [Stage 1] $25 $2,000,000
10月23日 11:30 MYSTERY BOUNTY Main Event - $500K Top Bounty [Stage 1] $210 $5,000,000
10月23日 12:30 Global MILLION$ Bounty Edition, $1M GTD [Stage 1] $50 $1,250,000
10月23日 12:30 Bounty Blast-Off $88 $88 $20,000
10月23日 12:30 Bounty Blast-Off $8.80 $8.80 $25,000
10月23日 13:15 Ultra Deepstack Bounty Turbo $54 $54 $30,000
10月23日 13:15 Ultra Deepstack Bounty Turbo $5.40 $5.40 $20,000
10月23日 13:30 MYSTERY BOUNTY Mini Main - $200K Top Bounty [Stage 1] $25 $2,000,000
10月23日 13:30 Monday Hangover $108 [Variable Levels] $108 $17,500
10月23日 13:30 Monday Hangover $10.80 [Variable Levels] $10.80 $15,000
10月23日 14:00 Speed Racer POWER HOUR $5 [10 BB] $5 $3,500
10月23日 14:10 Speed Racer POWER HOUR $10 [10 BB] $10 $4,000
10月23日 14:20 Speed Racer POWER HOUR $20 [10 BB] $20 $5,000
10月23日 14:30 Bounty Superstack $85.50 $85.50 $50,000
10月23日 14:30 Bounty Superstack $8.55 $8.55 $40,000
10月23日 14:30 Speed Racer POWER HOUR $40 [10 BB] $40 $5,000
10月23日 14:40 Speed Racer POWER HOUR $80 [10 BB] $80 $5,000
10月23日 14:50 Speed Racer POWER HOUR $150 [10 BB] $150 $5,000
10月23日 15:00 GGMasters Bounty Warm-Up Special Edition $25 $25 $75,000
10月23日 15:00 Bounty Warm-Up $250 $250 $50,000
10月23日 15:30 MYSTERY BOUNTY Mini Main - $200K Top [Last Chance] $25 $2,000,000
10月23日 15:30 MYSTERY BOUNTY Main Event - $500K Top Bounty [Stage 1] $210 $5,000,000
10月23日 15:30 Bounty Forty Stack HR $444 $444 $50,000
10月23日 15:30 Bounty Forty Stack $44 $44 $75,000
10月23日 15:40 Omaholic Forty Stack $44 $44 $10,000
10月23日 16:30 MYSTERY BOUNTY Mini Main - $200K Top [Last Minute] $25 $2,000,000
10月23日 16:30 Global MILLION$ Bounty Edition, $1M GTD [Stage 1] $50 $1,250,000
10月23日 16:30 Bounty Hunters HR $525 [6-Max] $525 $225,000
10月23日 16:30 Bounty Hunters Daily Main $54 [6-Max] $54 $175,000
10月23日 16:30 Bounty Hunters Mini Main $5.40 [6-Max] $5.40 $30,000
10月23日 17:30 Big Game $215 $215 $125,000
10月23日 17:30 Big Game $21.60 $21.60 $70,000
10月23日 17:40 Big Game Omaholic $215 $215 $12,500
10月23日 17:40 Big Game Omaholic $21.60 $21.60 $12,500
10月23日 18:00 Monday Monster Stack $150 [Bounty Edition] $150 $100,000
10月23日 18:00 Monday Monster Stack $15 [Bounty Edition] $15 $50,000
10月23日 18:30 MYSTERY BOUNTY Mini Main - $200K Top Bounty [Day 2] $25 $2,000,000
10月23日 18:30 Bounty King Special Edition $320 $320 $50,000
10月23日 18:30 Bounty King Jr $32.10 $32.10 $65,000
10月23日 18:40 Global MILLION$ Bounty Edition, $1M GTD [Stage 1] $50 $1,250,000
10月23日 19:00 GGMasters Bounty Special Edition $25 $25 $40,000
10月23日 19:30 MYSTERY BOUNTY Main Event - $500K Top Bounty [Stage 1] $210 $5,000,000
10月23日 19:30 Big KO $108 [Big Bounties] $108 $40,000
10月23日 19:30 Big KO $15 [Big Bounties] $15 $30,000
10月23日 20:30 Global MILLION$ Bounty Edition, $1M GTD [Stage 1] $50 $1,250,000
10月23日 20:30 Bounty Hunters HR Encore $525 $525 $20,000
10月23日 20:30 Bounty Hunters Encore $54 $54 $30,000
10月23日 21:00 Daily Heater Special Edition $215 [Turbo] $215 $35,000
10月23日 21:00 GGMasters Bounty Special Edition $25 [Turbo] $25 $25,000
10月23日 22:00 SUPER SIX $64.50 [Turbo] $64.50 $25,000
10月23日 22:15 4-MAX HYPER $108 $108 $7,500
10月23日 22:15 4-MAX HYPER $10.80 $10.80 $8,000
10月23日 22:30 Global MILLION$ Bounty Edition, $1M GTD [Stage 1] $50 $1,250,000
10月23日 23:30 MYSTERY BOUNTY Main Event - $500K Top Bounty [Stage 1] $210 $5,000,000
10月23日 23:30 Turbo Takedown $215 [25 BB] $215 $10,000
10月23日 23:30 Turbo Takedown $25 [25 BB] $25 $10,000
10月24日 00:00 Midnight Madness $85.50 [Bounty Edition] $85.50 $20,000
10月24日 00:00 Midnight Madness $8.55 [Bounty Edition] $8.55 $8,888
10月24日 00:30 Global MILLION$ Bounty Edition, $1M GTD [Stage 1] $50 $1,250,000
10月24日 01:00 Speed Racer POWER HOUR $5 [10 BB] $5 $2,000
10月24日 01:10 Speed Racer POWER HOUR $10 [10 BB] $10 $3,000
10月24日 01:20 Speed Racer POWER HOUR $25 [10 BB] $25 $3,500
10月24日 01:30 Speed Racer POWER HOUR $50 [10 BB] $50 $4,000
10月24日 01:40 Speed Racer POWER HOUR $100 [10 BB] $100 $4,500
10月24日 01:50 Speed Racer POWER HOUR $200 [10 BB] $200 $5,000
10月24日 02:30 Global MILLION$ Bounty Edition, $1M GTD [Stage 1] $50 $1,250,000
10月24日 04:30 Global MILLION$ Bounty Edition, $1M GTD [Stage 1] $50 $1,250,000
10月24日 06:30 Global MILLION$ Bounty Edition, $1M GTD [Stage 1] $50 $1,250,000
10月24日 08:30 Global MILLION$ Bounty Edition, $1M GTD [Stage 1] $50 $1,250,000
10月24日 10:30 Global MILLION$ Bounty Edition, $1M GTD [Stage 1] $50 $1,250,000
10月24日 11:30 MYSTERY BOUNTY Main Event - $500K Top Bounty [Stage 1] $210 $5,000,000
10月24日 12:30 Global MILLION$ Bounty Edition, $1M GTD [Stage 1] $50 $1,250,000
10月24日 12:30 Bounty Blast-Off $88 $88 $25,000
10月24日 12:30 Bounty Blast-Off $8.80 $8.80 $30,000
10月24日 13:15 Ultra Deepstack Bounty Turbo $54 $54 $30,000
10月24日 13:15 Ultra Deepstack Bounty Turbo $5.40 $5.40 $20,000
10月24日 13:30 Bounty Hunters 6-Max $108 $108 $20,000
10月24日 13:30 Bounty Hunters 6-Max $10.80 $10.80 $30,000
10月24日 14:00 Speed Racer POWER HOUR $5 [10 BB] $5 $3,500
10月24日 14:10 Speed Racer POWER HOUR $10 [10 BB] $10 $4,000
10月24日 14:20 Speed Racer POWER HOUR $20 [10 BB] $20 $5,000
10月24日 14:30 Global MILLION$ Bounty Edition, $1M GTD [Stage 1] $50 $1,250,000
10月24日 14:30 Bounty Superstack $85.50 $85.50 $50,000
10月24日 14:30 Bounty Superstack $8.55 $8.55 $40,000
10月24日 14:30 Speed Racer POWER HOUR $40 [10 BB] $40 $5,000
10月24日 14:40 Speed Racer POWER HOUR $80 [10 BB] $80 $5,000
10月24日 14:50 Speed Racer POWER HOUR $150 [10 BB] $150 $5,000
10月24日 15:00 GGMasters Bounty Warm-Up Special Edition $25 $25 $75,000
10月24日 15:00 Bounty Warm-Up $250 $250 $40,000
10月24日 15:30 MYSTERY BOUNTY Main Event - $500K Top Bounty [Stage 1] $210 $5,000,000
10月24日 15:30 Bounty Forty Stack HR $444 $444 $40,000
10月24日 15:30 Bounty Forty Stack $44 $44 $75,000
10月24日 15:40 Omaholic Forty Stack $44 $44 $10,000
10月24日 16:30 Global MILLION$ Bounty Edition, $1M GTD [Stage 1] $50 $1,250,000
10月24日 16:30 Bounty Hunters HR $525 [Deepstack] $525 $175,000
10月24日 16:30 Bounty Hunters Daily Main $54 [Deepstack] $54 $200,000
10月24日 16:30 Bounty Hunters Mini Main $5.40 [Deepstack] $5.40 $35,000
10月24日 17:30 Big Game $215 $215 $125,000
10月24日 17:30 Big Game $21.60 $21.60 $70,000
10月24日 17:40 Big Game Omaholic $215 $215 $15,000
10月24日 17:40 Big Game Omaholic $21.60 $21.60 $12,500
10月24日 18:00 Tuesday Twinkle $150 [Mystery Bounty] $150 $150,000
10月24日 18:00 Tuesday Twinkle $15 [Mystery Bounty] $15 $100,000
10月24日 18:30 Global MILLION$ Bounty Edition, $1M GTD [Stage 1] $50 $1,250,000
10月24日 18:30 Bounty King Special Edition $320 $320 $30,000
10月24日 18:30 Bounty King Jr $32.10 $32.10 $65,000
10月24日 19:00 GGMasters Bounty Special Edition $25 $25 $40,000
10月24日 19:30 MYSTERY BOUNTY Main Event - $500K Top Bounty [Stage 1] $210 $5,000,000
10月24日 19:30 Big KO $108 [Big Bounties] $108 $30,000
10月24日 19:30 Big KO $15 [Big Bounties] $15 $40,000
10月24日 20:30 Global MILLION$ Bounty Edition, $1M GTD [Stage 1] $50 $1,250,000
10月24日 20:30 Bounty Hunters HR Encore $525 $525 $20,000
10月24日 20:30 Bounty Hunters Encore $54 $54 $30,000
10月24日 21:00 Daily Heater Special Edition $215 [Turbo] $215 $35,000
10月24日 21:00 GGMasters Bounty Special Edition $25 [Turbo] $25 $25,000
10月24日 22:00 SUPER SIX $64.50 [Turbo] $64.50 $25,000
10月24日 22:15 4-MAX HYPER $108 $108 $12,000
10月24日 22:15 4-MAX HYPER $10.80 $10.80 $10,000
10月24日 22:30 Global MILLION$ Bounty Edition, $1M GTD [Stage 1] $50 $1,250,000
10月24日 23:30 MYSTERY BOUNTY Main Event - $500K Top Bounty [Stage 1] $210 $5,000,000
10月24日 23:30 Turbo Takedown $215 [25 BB] $215 $10,000
10月24日 23:30 Turbo Takedown $25 [25 BB] $25 $10,000
10月25日 水曜日 00:00 Midnight Madness $85.50 [Bounty Edition] $85.50 $20,000
10月25日 水曜日 00:00 Midnight Madness $8.55 [Bounty Edition] $8.55 $10,000
10月25日 水曜日 00:30 Global MILLION$ Bounty Edition, $1M GTD [Stage 1] $50 $1,250,000
10月25日 水曜日 01:00 Speed Racer POWER HOUR $5 [10 BB] $5 $2,500
10月25日 水曜日 01:10 Speed Racer POWER HOUR $10 [10 BB] $10 $3,500
10月25日 水曜日 01:20 Speed Racer POWER HOUR $25 [10 BB] $25 $4,000
10月25日 水曜日 01:30 Speed Racer POWER HOUR $50 [10 BB] $50 $5,000
10月25日 水曜日 01:40 Speed Racer POWER HOUR $100 [10 BB] $100 $5,000
10月25日 水曜日 01:50 Speed Racer POWER HOUR $200 [10 BB] $200 $5,500
10月25日 水曜日 02:30 Global MILLION$ Bounty Edition, $1M GTD [Stage 1] $50 $1,250,000
10月25日 水曜日 04:30 Global MILLION$ Bounty Edition, $1M GTD [Stage 1] $50 $1,250,000
10月25日 水曜日 06:30 Global MILLION$ Bounty Edition, $1M GTD [Stage 1] $50 $1,250,000
10月25日 水曜日 08:30 Global MILLION$ Bounty Edition, $1M GTD [Stage 1] $50 $1,250,000
10月25日 水曜日 10:30 Global MILLION$ Bounty Edition, $1M GTD [Stage 1] $50 $1,250,000
10月25日 水曜日 11:30 MYSTERY BOUNTY Main Event - $500K Top Bounty [Stage 1] $210 $5,000,000
10月25日 水曜日 12:30 Global MILLION$ Bounty Edition, $1M GTD [Stage 1] $50 $1,250,000
10月25日 水曜日 12:30 Bounty Blast-Off $88 $88 $25,000
10月25日 水曜日 12:30 Bounty Blast-Off $8.80 $8.80 $30,000
10月25日 水曜日 13:15 Ultra Deepstack Bounty Turbo $54 $54 $30,000
10月25日 水曜日 13:15 Ultra Deepstack Bounty Turbo $5.40 $5.40 $20,000
10月25日 水曜日 13:30 Bounty Hunters 6-Max $108 $108 $25,000
10月25日 水曜日 13:30 Bounty Hunters 6-Max $10.80 $10.80 $30,000
10月25日 水曜日 14:00 Speed Racer POWER HOUR $5 [10 BB] $5 $3,500
10月25日 水曜日 14:10 Speed Racer POWER HOUR $10 [10 BB] $10 $4,000
10月25日 水曜日 14:20 Speed Racer POWER HOUR $20 [10 BB] $20 $5,000
10月25日 水曜日 14:30 Global MILLION$ Bounty Edition, $1M GTD [Stage 1] $50 $1,250,000
10月25日 水曜日 14:30 Bounty Superstack $85.50 $85.50 $50,000
10月25日 水曜日 14:30 Bounty Superstack $8.55 $8.55 $40,000
10月25日 水曜日 14:30 Speed Racer POWER HOUR $40 [10 BB] $40 $5,000
10月25日 水曜日 14:40 Speed Racer POWER HOUR $80 [10 BB] $80 $5,000
10月25日 水曜日 14:50 Speed Racer POWER HOUR $150 [10 BB] $150 $5,000
10月25日 水曜日 15:00 GGMasters Bounty Warm-Up Special Edition $25 $25 $75,000
10月25日 水曜日 15:00 Bounty Warm-Up $250 $250 $25,000
10月25日 水曜日 15:30 MYSTERY BOUNTY Main Event - $500K Top Bounty [Stage 1] $210 $5,000,000
10月25日 水曜日 15:30 Bounty Forty Stack HR $444 $444 $20,000
10月25日 水曜日 15:30 Bounty Forty Stack $44 $44 $75,000
10月25日 水曜日 15:40 Omaholic Forty Stack $44 $44 $10,000
10月25日 水曜日 16:30 Global MILLION$ Bounty Edition, $1M GTD [Stage 1] $50 $1,250,000
10月25日 水曜日 16:30 Bounty Hunters HR $525 [Double Stack] $525 $150,000
10月25日 水曜日 16:30 Bounty Hunters Daily Main $54 [Double Stack] $54 $200,000
10月25日 水曜日 16:30 Bounty Hunters Mini Main $5.40 [Double Stack] $5.40 $35,000
10月25日 水曜日 17:30 Big Game $215 $215 $85,000
10月25日 水曜日 17:30 Big Game $21.60 $21.60 $70,000
10月25日 水曜日 17:40 Big Game Omaholic $215 $215 $15,000
10月25日 水曜日 17:40 Big Game Omaholic $21.60 $21.60 $12,500
10月25日 水曜日 18:00 Wednesday Double Stack $150 [Bounty Edition] $150 $100,000
10月25日 水曜日 18:00 Wednesday Double Stack $15 [Bounty Edition] $15 $60,000
10月25日 水曜日 18:30 Global MILLION$ Bounty Edition, $1M GTD [Stage 1] $50 $1,250,000
10月25日 水曜日 18:30 Bounty King Special Edition $320 $320 $25,000
10月25日 水曜日 18:30 Bounty King Jr $32.10 $32.10 $65,000
10月25日 水曜日 19:00 GGMasters Bounty Special Edition $25 $25 $40,000
10月25日 水曜日 19:30 MYSTERY BOUNTY Main Event - $500K Top Bounty [Stage 1] $210 $5,000,000
10月25日 水曜日 19:30 Big KO $108 [Big Bounties] $108 $35,000
10月25日 水曜日 19:30 Big KO $15 [Big Bounties] $15 $50,000
10月25日 水曜日 20:30 Global MILLION$ Bounty Edition, $1M GTD [Stage 1] $50 $1,250,000
10月25日 水曜日 20:30 Bounty Hunters HR Encore $525 $525 $20,000
10月25日 水曜日 20:30 Bounty Hunters Encore $54 $54 $30,000
10月25日 水曜日 21:00 Daily Heater Special Edition $215 [Turbo] $215 $25,000
10月25日 水曜日 21:00 GGMasters Bounty Special Edition $25 [Turbo] $25 $25,000
10月25日 水曜日 22:00 SUPER SIX $64.50 [Turbo] $64.50 $25,000
10月25日 水曜日 22:15 4-MAX HYPER $108 $108 $12,500
10月25日 水曜日 22:15 4-MAX HYPER $10.80 $10.80 $12,500
10月25日 水曜日 22:30 Global MILLION$ Bounty Edition, $1M GTD [Stage 1] $50 $1,250,000
10月25日 水曜日 23:30 MYSTERY BOUNTY Main Event - $500K Top Bounty [Stage 1] $210 $5,000,000
10月25日 水曜日 23:30 Turbo Takedown $215 [25 BB] $215 $10,000
10月25日 水曜日 23:30 Turbo Takedown $25 [25 BB] $25 $10,000
10月26日 00:00 Midnight Madness $85.50 [Bounty Edition] $85.50 $20,000
10月26日 00:00 Midnight Madness $8.55 [Bounty Edition] $8.55 $10,000
10月26日 00:30 Global MILLION$ Bounty Edition, $1M GTD [Stage 1] $50 $1,250,000
10月26日 01:00 Speed Racer POWER HOUR $5 [10 BB] $5 $3,000
10月26日 01:10 Speed Racer POWER HOUR $10 [10 BB] $10 $4,000
10月26日 01:20 Speed Racer POWER HOUR $25 [10 BB] $25 $4,000
10月26日 01:30 Speed Racer POWER HOUR $50 [10 BB] $50 $5,000
10月26日 01:40 Speed Racer POWER HOUR $100 [10 BB] $100 $5,000
10月26日 01:50 Speed Racer POWER HOUR $200 [10 BB] $200 $5,000
10月26日 02:30 Global MILLION$ Bounty Edition, $1M GTD [Stage 1] $50 $1,250,000
10月26日 02:30 MYSTERY BOUNTY Main Event - $500K Top Bounty [Stage 1] $210 $5,000,000
10月26日 04:30 Global MILLION$ Bounty Edition, $1M GTD [Stage 1] $50 $1,250,000
10月26日 05:30 MYSTERY BOUNTY Main Event - $500K Top Bounty [Stage 1] $210 $5,000,000
10月26日 06:30 Global MILLION$ Bounty Edition, $1M GTD [Stage 1] $50 $1,250,000
10月26日 08:30 Global MILLION$ Bounty Edition, $1M GTD [Stage 1] $50 $1,250,000
10月26日 08:30 MYSTERY BOUNTY Main Event - $500K Top Bounty [Stage 1] $210 $5,000,000
10月26日 10:30 Global MILLION$ Bounty Edition, $1M GTD [Stage 1] $50 $1,250,000
10月26日 11:30 MYSTERY BOUNTY Main Event - $500K Top Bounty [Stage 1] $210 $5,000,000
10月26日 12:30 Global MILLION$ Bounty Edition, $1M GTD [Stage 1] $50 $1,250,000
10月26日 12:30 Bounty Blast-Off $88 $88 $25,000
10月26日 12:30 Bounty Blast-Off $8.80 $8.80 $30,000
10月26日 13:15 Ultra Deepstack Bounty Turbo $54 $54 $30,000
10月26日 13:15 Ultra Deepstack Bounty Turbo $5.40 $5.40 $20,000
10月26日 13:30 Bounty Hunters 6-Max $108 $108 $25,000
10月26日 13:30 Bounty Hunters 6-Max $10.80 $10.80 $30,000
10月26日 14:00 Speed Racer POWER HOUR $5 [10 BB] $5 $3,500
10月26日 14:10 Speed Racer POWER HOUR $10 [10 BB] $10 $4,000
10月26日 14:20 Speed Racer POWER HOUR $20 [10 BB] $20 $5,000
10月26日 14:30 Global MILLION$ Bounty Edition, $1M GTD [Stage 1] $50 $1,250,000
10月26日 14:30 MYSTERY BOUNTY Main Event - $500K Top Bounty [Stage 1] $210 $5,000,000
10月26日 14:30 Bounty Superstack $85.50 $85.50 $50,000
10月26日 14:30 Bounty Superstack $8.55 $8.55 $40,000
10月26日 14:30 Speed Racer POWER HOUR $40 [10 BB] $40 $5,000
10月26日 14:40 Speed Racer POWER HOUR $80 [10 BB] $80 $5,000
10月26日 14:50 Speed Racer POWER HOUR $150 [10 BB] $150 $5,000
10月26日 15:00 GGMasters Bounty Warm-Up Special Edition $25 $25 $75,000
10月26日 15:00 Bounty Warm-Up $250 $250 $40,000
10月26日 15:30 Bounty Forty Stack HR $444 $444 $30,000
10月26日 15:30 Bounty Forty Stack $44 $44 $75,000
10月26日 15:40 Omaholic Forty Stack $44 $44 $10,000
10月26日 16:30 Global MILLION$ Bounty Edition, $1M GTD [Stage 1] $50 $1,250,000
10月26日 16:30 Bounty Hunters HR $525 [Classic] $525 $225,000
10月26日 16:30 Bounty Hunters Daily Main $54 [Classic] $54 $200,000
10月26日 16:30 Bounty Hunters Mini Main $5.40 [Classic] $5.40 $35,000
10月26日 17:30 MYSTERY BOUNTY Main Event - $500K Top Bounty [Stage 1] $210 $5,000,000
10月26日 17:30 Big Game $215 $215 $100,000
10月26日 17:30 Big Game $21.60 $21.60 $70,000
10月26日 17:40 Big Game Omaholic $215 $215 $15,000
10月26日 17:40 Big Game Omaholic $21.60 $21.60 $12,500
10月26日 18:00 Thursday Throwdown $150 $150 $150,000
10月26日 18:00 Thursday Throwdown $15 $15 $60,000
10月26日 18:30 Global MILLION$ Bounty Edition, $1M GTD [Stage 1] $50 $1,250,000
10月26日 18:30 Bounty King Special Edition $320 $320 $40,000
10月26日 18:30 Bounty King Jr $32.10 $32.10 $65,000
10月26日 19:00 GGMasters Bounty Special Edition $25 $25 $40,000
10月26日 19:30 Big KO $108 [Big Bounties] $108 $40,000
10月26日 19:30 Big KO $15 [Big Bounties] $15 $50,000
10月26日 20:30 Global MILLION$ Bounty Edition, $1M GTD [Stage 1] $50 $1,250,000
10月26日 20:30 MYSTERY BOUNTY Main Event - $500K Top Bounty [Stage 1] $210 $5,000,000
10月26日 20:30 Bounty Hunters HR Encore $525 $525 $20,000
10月26日 20:30 Bounty Hunters Encore $54 $54 $30,000
10月26日 21:00 Daily Heater Special Edition $215 [Turbo] $215 $35,000
10月26日 21:00 GGMasters Bounty Special Edition $25 [Turbo] $25 $25,000
10月26日 22:00 SUPER SIX $64.50 [Turbo] $64.50 $25,000
10月26日 22:15 4-MAX HYPER $108 $108 $12,500
10月26日 22:15 4-MAX HYPER $10.80 $10.80 $12,500
10月26日 22:30 Global MILLION$ Bounty Edition, $1M GTD [Stage 1] $50 $1,250,000
10月26日 23:30 MYSTERY BOUNTY Main Event - $500K Top Bounty [Stage 1] $210 $5,000,000
10月26日 23:30 Turbo Takedown $215 [25 BB] $215 $10,000
10月26日 23:30 Turbo Takedown $25 [25 BB] $25 $10,000
10月27日 00:00 Midnight Madness $85.50 [Bounty Edition] $85.50 $20,000
10月27日 00:00 Midnight Madness $8.55 [Bounty Edition] $8.55 $10,000
10月27日 00:30 Global MILLION$ Bounty Edition, $1M GTD [Stage 1] $50 $1,250,000
10月27日 01:00 Speed Racer POWER HOUR $5 [10 BB] $5 $3,000
10月27日 01:10 Speed Racer POWER HOUR $10 [10 BB] $10 $4,000
10月27日 01:20 Speed Racer POWER HOUR $25 [10 BB] $25 $4,000
10月27日 01:30 Speed Racer POWER HOUR $50 [10 BB] $50 $5,000
10月27日 01:40 Speed Racer POWER HOUR $100 [10 BB] $100 $5,000
10月27日 01:50 Speed Racer POWER HOUR $200 [10 BB] $200 $5,000
10月27日 02:30 Global MILLION$ Bounty Edition, $1M GTD [Stage 1] $50 $1,250,000
10月27日 02:30 MYSTERY BOUNTY Main Event - $500K Top Bounty [Stage 1] $210 $5,000,000
10月27日 04:30 Global MILLION$ Bounty Edition, $1M GTD [Stage 1] $50 $1,250,000
10月27日 05:30 MYSTERY BOUNTY Main Event - $500K Top Bounty [Stage 1] $210 $5,000,000
10月27日 06:30 Global MILLION$ Bounty Edition, $1M GTD [Stage 1] $50 $1,250,000
10月27日 08:30 Global MILLION$ Bounty Edition, $1M GTD [Stage 1] $50 $1,250,000
10月27日 08:30 MYSTERY BOUNTY Main Event - $500K Top Bounty [Stage 1] $210 $5,000,000
10月27日 10:30 Global MILLION$ Bounty Edition, $1M GTD [Stage 1] $50 $1,250,000
10月27日 11:30 MYSTERY BOUNTY Main Event - $500K Top Bounty [Stage 1] $210 $5,000,000
10月27日 12:30 Global MILLION$ Bounty Edition, $1M GTD [Stage 1] $50 $1,250,000
10月27日 12:30 Bounty Blast-Off $88 $88 $25,000
10月27日 12:30 Bounty Blast-Off $8.80 $8.80 $30,000
10月27日 13:15 Ultra Deepstack Bounty Turbo $54 $54 $30,000
10月27日 13:15 Ultra Deepstack Bounty Turbo $5.40 $5.40 $20,000
10月27日 13:30 Furious Friday 5-Max $108 $108 $15,000
10月27日 13:30 Furious Friday 5-Max $10.80 $10.80 $25,000
10月27日 14:00 Speed Racer POWER HOUR $5 [10 BB] $5 $3,500
10月27日 14:10 Speed Racer POWER HOUR $10 [10 BB] $10 $4,000
10月27日 14:20 Speed Racer POWER HOUR $20 [10 BB] $20 $5,000
10月27日 14:30 Global MILLION$ Bounty Edition, $1M GTD [Stage 1] $50 $1,250,000
10月27日 14:30 MYSTERY BOUNTY Main Event - $500K Top Bounty [Stage 1] $210 $5,000,000
10月27日 14:30 Bounty Superstack $85.50 $85.50 $40,000
10月27日 14:30 Bounty Superstack $8.55 $8.55 $40,000
10月27日 14:30 Speed Racer POWER HOUR $40 [10 BB] $40 $5,000
10月27日 14:40 Speed Racer POWER HOUR $80 [10 BB] $80 $5,000
10月27日 14:50 Speed Racer POWER HOUR $150 [10 BB] $150 $5,000
10月27日 15:00 GGMasters Bounty Warm-Up Special Edition $25 $25 $75,000
10月27日 15:00 Bounty Warm-Up $250 $250 $20,000
10月27日 15:30 Bounty Forty Stack HR $444 $444 $15,000
10月27日 15:30 Bounty Forty Stack $44 $44 $75,000
10月27日 15:40 Omaholic Forty Stack $44 $44 $10,000
10月27日 16:30 Global MILLION$ Bounty Edition, $1M GTD [Stage 1] $50 $1,250,000
10月27日 16:30 Bounty Hunters HR $525 [Ultradeep] $525 $125,000
10月27日 16:30 Bounty Hunters Daily Main $54 [Ultradeep] $54 $200,000
10月27日 16:30 Bounty Hunters Mini Main $5.40 [Ultradeep] $5.40 $35,000
10月27日 17:30 MYSTERY BOUNTY Main Event - $500K Top Bounty [Stage 1] $210 $5,000,000
10月27日 17:30 Big Game $215 $215 $70,000
10月27日 17:30 Big Game $21.60 $21.60 $70,000
10月27日 17:40 Big Game Omaholic $215 $215 $8,000
10月27日 17:40 Big Game Omaholic $21.60 $21.60 $12,500
10月27日 18:00 Friday Night Fight $150 [6-Max] $150 $125,000
10月27日 18:00 Friday Night Fight $15 [6-Max] $15 $60,000
10月27日 18:30 Global MILLION$ Bounty Edition, $1M GTD [Stage 1] $50 $1,250,000
10月27日 18:30 Bounty King Special Edition $320 $320 $20,000
10月27日 18:30 Bounty King Jr $32.10 $32.10 $65,000
10月27日 19:00 GGMasters Bounty Special Edition $25 $25 $40,000
10月27日 19:30 Big KO $108 [Big Bounties] $108 $25,000
10月27日 19:30 Big KO $15 [Big Bounties] $15 $50,000
10月27日 20:30 Global MILLION$ Bounty Edition, $1M GTD [Stage 1] $50 $1,250,000
10月27日 20:30 MYSTERY BOUNTY Main Event - $500K Top Bounty [Stage 1] $210 $5,000,000
10月27日 20:30 Bounty Hunters HR Encore $525 $525 $15,000
10月27日 20:30 Bounty Hunters Encore $54 $54 $30,000
10月27日 21:00 Daily Heater Special Edition $215 [Turbo] $215 $20,000
10月27日 21:00 GGMasters Bounty Special Edition $25 [Turbo] $25 $25,000
10月27日 22:00 SUPER SIX $64.50 [Turbo] $64.50 $25,000
10月27日 22:15 4-MAX HYPER $108 $108 $8,500
10月27日 22:15 4-MAX HYPER $10.80 $10.80 $12,500
10月27日 22:30 Global MILLION$ Bounty Edition, $1M GTD [Stage 1] $50 $1,250,000
10月27日 23:30 MYSTERY BOUNTY Main Event - $500K Top Bounty [Stage 1] $210 $5,000,000
10月27日 23:30 Turbo Takedown $215 [25 BB] $215 $7,500
10月27日 23:30 Turbo Takedown $25 [25 BB] $25 $10,000
10月28日 00:00 Midnight Madness $85.50 [Bounty Edition] $85.50 $15,000
10月28日 00:00 Midnight Madness $8.55 [Bounty Edition] $8.55 $10,000
10月28日 00:30 Global MILLION$ Bounty Edition, $1M GTD [Stage 1] $50 $1,250,000
10月28日 01:00 Speed Racer POWER HOUR $5 [10 BB] $5 $3,000
10月28日 01:10 Speed Racer POWER HOUR $10 [10 BB] $10 $4,000
10月28日 01:20 Speed Racer POWER HOUR $25 [10 BB] $25 $4,000
10月28日 01:30 Speed Racer POWER HOUR $50 [10 BB] $50 $5,000
10月28日 01:40 Speed Racer POWER HOUR $100 [10 BB] $100 $5,000
10月28日 01:50 Speed Racer POWER HOUR $200 [10 BB] $200 $5,000
10月28日 02:30 Global MILLION$ Bounty Edition, $1M GTD [Stage 1] $50 $1,250,000
10月28日 02:30 MYSTERY BOUNTY Main Event - $500K Top Bounty [Stage 1] $210 $5,000,000
10月28日 04:30 Global MILLION$ Bounty Edition, $1M GTD [Stage 1] $50 $1,250,000
10月28日 05:30 MYSTERY BOUNTY Main Event - $500K Top Bounty [Stage 1] $210 $5,000,000
10月28日 06:30 Global MILLION$ Bounty Edition, $1M GTD [Stage 1] $50 $1,250,000
10月28日 08:30 Global MILLION$ Bounty Edition, $1M GTD [Stage 1] $50 $1,250,000
10月28日 08:30 MYSTERY BOUNTY Main Event - $500K Top Bounty [Stage 1] $210 $5,000,000
10月28日 10:30 Global MILLION$ Bounty Edition, $1M GTD [Stage 1] $50 $1,250,000
10月28日 11:30 MYSTERY BOUNTY Main Event - $500K Top Bounty [Stage 1] $210 $5,000,000
10月28日 12:30 Global MILLION$ Bounty Edition, $1M GTD [Stage 1] $50 $1,250,000
10月28日 12:30 Bounty Blast-Off $88 $88 $25,000
10月28日 12:30 Bounty Blast-Off $8.80 $8.80 $30,000
10月28日 13:15 Ultra Deepstack Bounty Turbo $54 $54 $30,000
10月28日 13:15 Ultra Deepstack Bounty Turbo $5.40 $5.40 $20,000
10月28日 13:30 Saturday Showdown 7-Max $108 $108 $20,000
10月28日 13:30 Saturday Showdown 7-Max $10.80 $10.80 $40,000
10月28日 14:00 Speed Racer POWER HOUR $5 [10 BB] $5 $3,500
10月28日 14:10 Speed Racer POWER HOUR $10 [10 BB] $10 $4,000
10月28日 14:20 Speed Racer POWER HOUR $20 [10 BB] $20 $5,000
10月28日 14:30 Global MILLION$ Bounty Edition, $1M GTD [Stage 1] $50 $1,250,000
10月28日 14:30 MYSTERY BOUNTY Main Event - $500K Top Bounty [Stage 1] $210 $5,000,000
10月28日 14:30 Bounty Superstack $85.50 $85.50 $50,000
10月28日 14:30 Bounty Superstack $8.55 $8.55 $40,000
10月28日 14:30 Speed Racer POWER HOUR $40 [10 BB] $40 $5,000
10月28日 14:40 Speed Racer POWER HOUR $80 [10 BB] $80 $5,000
10月28日 14:50 Speed Racer POWER HOUR $150 [10 BB] $150 $5,000
10月28日 15:00 GGMasters Bounty Warm-Up Special Edition $25 $25 $75,000
10月28日 15:00 Bounty Warm-Up $250 $250 $25,000
10月28日 15:30 Bounty Forty Stack HR $444 $444 $20,000
10月28日 15:30 Bounty Forty Stack $44 $44 $75,000
10月28日 15:40 Omaholic Forty Stack $44 $44 $10,000
10月28日 16:30 Global MILLION$ Bounty Edition, $1M GTD [Stage 1] $50 $1,250,000
10月28日 16:30 Bounty Hunters HR $525 [Big Bounties] $525 $175,000
10月28日 16:30 Bounty Hunters Daily Main $54 [Big Bounties] $54 $200,000
10月28日 16:30 Bounty Hunters Mini Main $5.40 [Big Bounties] $5.40 $35,000
10月28日 17:30 MYSTERY BOUNTY Main Event - $500K Top Bounty [Stage 1] $210 $5,000,000
10月28日 17:30 Big Game $21.60 $21.60 $70,000
10月28日 17:40 Big Game Omaholic $215 $215 $15,000
10月28日 17:40 Big Game Omaholic $21.60 $21.60 $12,500
10月28日 18:00 Saturday Secret KO $150 [Mystery Bounty] $150 $300,000
10月28日 18:00 Saturday Secret KO $15 [Mystery Bounty] $15 $175,000
10月28日 18:30 Global MILLION$ Bounty Edition, $1M GTD [Stage 1] $50 $1,250,000
10月28日 18:30 Bounty King Special Edition $320 $320 $20,000
10月28日 18:30 Bounty King Jr $32.10 $32.10 $65,000
10月28日 19:00 GGMasters Bounty Special Edition $25 $25 $40,000
10月28日 19:30 Big KO $108 [Big Bounties] $108 $25,000
10月28日 19:30 Big KO $15 [Big Bounties] $15 $40,000
10月28日 20:30 Global MILLION$ Bounty Edition, $1M GTD [Stage 1] $50 $1,250,000
10月28日 20:30 MYSTERY BOUNTY Main Event - $500K Top Bounty [Stage 1] $210 $5,000,000
10月28日 20:30 Bounty Hunters HR Encore $525 $525 $15,000
10月28日 20:30 Bounty Hunters Encore $54 $54 $30,000
10月28日 21:00 Daily Heater Special Edition $215 [Turbo] $215 $25,000
10月28日 21:00 GGMasters Bounty Special Edition $25 [Turbo] $25 $25,000
10月28日 22:00 SUPER SIX $64.50 [Turbo] $64.50 $25,000
10月28日 22:15 4-MAX HYPER $108 $108 $8,500
10月28日 22:15 4-MAX HYPER $10.80 $10.80 $12,500
10月28日 22:30 Global MILLION$ Bounty Edition, $1M GTD [Stage 1] $50 $1,250,000
10月28日 23:30 MYSTERY BOUNTY Main Event - $500K Top Bounty [Stage 1] $210 $5,000,000
10月28日 23:30 Turbo Takedown $215 [25 BB] $215 $7,500
10月28日 23:30 Turbo Takedown $25 [25 BB] $25 $10,000
10月29日 00:00 Midnight Madness $85.50 [Bounty Edition] $85.50 $15,000
10月29日 00:00 Midnight Madness $8.55 [Bounty Edition] $8.55 $10,000
10月29日 00:30 Global MILLION$ Bounty Edition, $1M GTD [Stage 1] $50 $1,250,000
10月29日 01:00 Speed Racer POWER HOUR $5 [10 BB] $5 $3,000
10月29日 01:10 Speed Racer POWER HOUR $10 [10 BB] $10 $4,000
10月29日 01:20 Speed Racer POWER HOUR $25 [10 BB] $25 $4,000
10月29日 01:30 Speed Racer POWER HOUR $50 [10 BB] $50 $5,000
10月29日 01:40 Speed Racer POWER HOUR $100 [10 BB] $100 $5,000
10月29日 01:50 Speed Racer POWER HOUR $200 [10 BB] $200 $5,000
10月29日 02:30 Global MILLION$ Bounty Edition, $1M GTD [Stage 1] $50 $1,250,000
10月29日 02:30 MYSTERY BOUNTY Main Event - $500K Top Bounty [Stage 1] $210 $5,000,000
10月29日 04:30 Global MILLION$ Bounty Edition, $1M GTD [Stage 1] $50 $1,250,000
10月29日 05:30 MYSTERY BOUNTY Main Event - $500K Top Bounty [Stage 1] $210 $5,000,000
10月29日 06:30 Global MILLION$ Bounty Edition, $1M GTD [Stage 1] $50 $1,250,000
10月29日 08:30 Global MILLION$ Bounty Edition, $1M GTD [Stage 1] $50 $1,250,000
10月29日 08:30 MYSTERY BOUNTY Main Event - $500K Top Bounty [Stage 1] $210 $5,000,000
10月29日 10:30 Global MILLION$ Bounty Edition, $1M GTD [Stage 1] $50 $1,250,000
10月29日 11:30 MYSTERY BOUNTY Main Event - $500K Top Bounty [Stage 1] $210 $5,000,000
10月29日 12:30 Global MILLION$ Bounty Edition, $1M GTD [Stage 1] $50 $1,250,000
10月29日 12:30 Sunday Blast-Off $215 $215 $40,000
10月29日 12:30 Sunday Blast-Off $25 $25 $100,000
10月29日 13:15 Ultra Deepstack Bounty Turbo $54 $54 $75,000
10月29日 13:30 Sunday Six-Max $108 $108 $60,000
10月29日 13:30 Sunday Six-Max $10.80 $10.80 $75,000
10月29日 14:00 Battle of Marathon $320 $320 $100,000
10月29日 14:00 Battle of Marathon $32.10 $32.10 $125,000
10月29日 14:00 Speed Racer POWER HOUR $5 [10 BB] $5 $3,500
10月29日 14:10 Speed Racer POWER HOUR $10 [10 BB] $10 $4,000
10月29日 14:20 Speed Racer POWER HOUR $20 [10 BB] $20 $5,000
10月29日 14:30 Global MILLION$ Bounty Edition, $1M GTD [Stage 1] $50 $1,250,000
10月29日 14:30 MYSTERY BOUNTY Main Event - $500K Top Bounty [Stage 1] $210 $5,000,000
10月29日 14:30 Sunday Bounty Superstack $85.50 $85.50 $150,000
10月29日 14:30 Sunday Bounty Superstack $8.55 $8.55 $75,000
10月29日 14:30 Speed Racer POWER HOUR $40 [10 BB] $40 $5,000
10月29日 14:40 Speed Racer POWER HOUR $80 [10 BB] $80 $5,000
10月29日 14:50 Speed Racer POWER HOUR $150 [10 BB] $150 $5,000
10月29日 15:00 Sunday Grand Prix $150 [Bounty Edition] $150 $250,000
10月29日 15:00 GGMasters Sunday Bounty $25 $25 $150,000
10月29日 15:15 Ultra Deepstack Bounty Turbo $21.60 $21.60 $50,000
10月29日 15:30 Sunday Forty Stack $44 $44 $200,000
10月29日 15:40 Sunday Omaholic Forty Stack $44 $44 $20,000
10月29日 16:30 Global MILLION$ Bounty Edition, $1M GTD [Stage 1] $50 $1,250,000
10月29日 16:30 Bounty Hunters HR Main Event $525, $1M GTD $525 $1,000,000
10月29日 16:30 Bounty Hunters Sunday Main Event $54, $500K GTD $54 $500,000
10月29日 17:30 MYSTERY BOUNTY Main Event - $500K Top Bounty [Stage 1] $210 $5,000,000
10月29日 17:30 Sunday Big Game $215 $215 $350,000
10月29日 17:30 Sunday Big Game $21.60 $21.60 $150,000
10月29日 17:40 Sunday Big Game Omaholic $215 $215 $40,000
10月29日 17:40 Sunday Big Game Omaholic $21.60 $21.60 $25,000
10月29日 18:00 Global MILLION$ Bounty Edition, $1M GTD [Last Chance] $50 $1,250,000
10月29日 18:30 GGMasters Bounty Special Edition $320 $320 $400,000
10月29日 18:30 Sunday Bounty King Jr $32.10 $32.10 $150,000
10月29日 18:45 Global MILLION$ Bounty Edition, $1M GTD [Last Minute] $50 $1,250,000
10月29日 19:30 Sunday BIG KO $108 [Big Bounties] $108 $100,000
10月29日 19:40 Sunday BIG KO Omaholic $108 [Big Bounties] $108 $25,000
10月29日 20:30 Global MILLION$ Bounty Edition, $1M GTD [Final Stage] $50 $1,250,000
10月29日 20:30 MYSTERY BOUNTY Main Event - $500K Top Bounty [Stage 1] $210 $5,000,000
10月29日 20:30 Bounty Hunters HR Encore $525 $525 $50,000
10月29日 20:30 Bounty Hunters Encore $54 $54 $100,000
10月29日 21:00 Sunday Heater Special Edition $215 [Turbo] $215 $120,000
10月29日 21:00 Sunday Heater Special Edition $25 [Turbo] $25 $75,000
10月29日 21:40 Sunday Omaholic Heater $215 [Turbo] $215 $15,000
10月29日 21:40 Sunday Omaholic Heater $25 [Turbo] $25 $12,500
10月29日 22:00 SUPER SIX HR $630 [Turbo] $630 $30,000
10月29日 22:00 SUPER SIX $64.50 [Turbo] $64.50 $50,000
10月29日 22:30 America Bounty Bonaza $129 $129 $40,000
10月29日 22:30 America Bounty Bonaza $12.90 $12.90 $20,000
10月29日 23:30 MYSTERY BOUNTY Main Event - $500K Top Bounty [Stage 1] $210 $5,000,000
10月29日 23:30 Sunday Last Call $215 [Hyper] $215 $50,000
10月29日 23:30 Sunday Last Call $25 [Hyper] $25 $30,000
10月30日 00:00 Midnight Madness $85.50 [Bounty Edition] $85.50 $40,000
10月30日 00:00 Midnight Madness $8.55 [Bounty Edition] $8.55 $12,500
10月30日 01:00 Speed Racer POWER HOUR $5 [10 BB] $5 $4,000
10月30日 01:10 Speed Racer POWER HOUR $10 [10 BB] $10 $5,000
10月30日 01:20 Speed Racer POWER HOUR $25 [10 BB] $25 $7,500
10月30日 01:30 Speed Racer POWER HOUR $50 [10 BB] $50 $8,500
10月30日 01:40 Speed Racer POWER HOUR $100 [10 BB] $100 $10,000
10月30日 01:50 Speed Racer POWER HOUR $200 [10 BB] $200 $10,000
10月30日 02:30 MYSTERY BOUNTY Main Event - $500K Top Bounty [Stage 1] $210 $5,000,000
10月30日 05:30 MYSTERY BOUNTY Main Event - $500K Top Bounty [Stage 1] $210 $5,000,000
10月30日 08:30 MYSTERY BOUNTY Main Event - $500K Top Bounty [Stage 1] $210 $5,000,000
10月30日 11:30 MYSTERY BOUNTY Main Event - $500K Top Bounty [Stage 1] $210 $5,000,000
10月30日 12:30 Bounty Blast-Off $88 $88 $20,000
10月30日 12:30 Bounty Blast-Off $8.80 $8.80 $25,000
10月30日 13:15 Ultra Deepstack Bounty Turbo $54 $54 $30,000
10月30日 13:15 Ultra Deepstack Bounty Turbo $5.40 $5.40 $20,000
10月30日 13:30 Monday Hangover $108 [Variable Levels] $108 $17,500
10月30日 13:30 Monday Hangover $10.80 [Variable Levels] $10.80 $15,000
10月30日 14:00 Speed Racer POWER HOUR $5 [10 BB] $5 $3,500
10月30日 14:10 Speed Racer POWER HOUR $10 [10 BB] $10 $4,000
10月30日 14:20 Speed Racer POWER HOUR $20 [10 BB] $20 $5,000
10月30日 14:30 MYSTERY BOUNTY Main Event - $500K Top Bounty [Stage 1] $210 $5,000,000
10月30日 14:30 Bounty Superstack $85.50 $85.50 $50,000
10月30日 14:30 Bounty Superstack $8.55 $8.55 $40,000
10月30日 14:30 Speed Racer POWER HOUR $40 [10 BB] $40 $5,000
10月30日 14:40 Speed Racer POWER HOUR $80 [10 BB] $80 $5,000
10月30日 14:50 Speed Racer POWER HOUR $150 [10 BB] $150 $5,000
10月30日 15:00 GGMasters Bounty Warm-Up Special Edition $25 $25 $75,000
10月30日 15:00 Bounty Warm-Up $250 $250 $50,000
10月30日 15:30 Bounty Forty Stack HR $444 $444 $50,000
10月30日 15:30 Bounty Forty Stack $44 $44 $75,000
10月30日 15:40 Omaholic Forty Stack $44 $44 $10,000
10月30日 16:30 Bounty Hunters HR $525 [6-Max] $525 $225,000
10月30日 16:30 Bounty Hunters Daily Main $54 [6-Max] $54 $175,000
10月30日 16:30 Bounty Hunters Mini Main $5.40 [6-Max] $5.40 $30,000
10月30日 17:30 MYSTERY BOUNTY Main Event - $500K Top Bounty [Stage 1] $210 $5,000,000
10月30日 17:30 Big Game $215 $215 $125,000
10月30日 17:30 Big Game $21.60 $21.60 $70,000
10月30日 17:40 Big Game Omaholic $215 $215 $12,500
10月30日 17:40 Big Game Omaholic $21.60 $21.60 $12,500
10月30日 18:00 Monday Monster Stack $150 [Bounty Edition] $150 $100,000
10月30日 18:00 Monday Monster Stack $15 [Bounty Edition] $15 $50,000
10月30日 18:30 Bounty King Special Edition $320 $320 $50,000
10月30日 18:30 Bounty King Jr $32.10 $32.10 $65,000
10月30日 19:00 GGMasters Bounty Special Edition $25 $25 $40,000
10月30日 19:30 Big KO $108 [Big Bounties] $108 $40,000
10月30日 19:30 Big KO $15 [Big Bounties] $15 $30,000
10月30日 20:30 MYSTERY BOUNTY Main Event - $500K Top Bounty [Stage 1] $210 $5,000,000
10月30日 20:30 Bounty Hunters HR Encore $525 $525 $20,000
10月30日 20:30 Bounty Hunters Encore $54 $54 $30,000
10月30日 21:00 Daily Heater Special Edition $215 [Turbo] $215 $35,000
10月30日 21:00 GGMasters Bounty Special Edition $25 [Turbo] $25 $25,000
10月30日 22:00 SUPER SIX $64.50 [Turbo] $64.50 $25,000
10月30日 22:15 4-MAX HYPER $108 $108 $7,500
10月30日 22:15 4-MAX HYPER $10.80 $10.80 $8,000
10月30日 23:30 MYSTERY BOUNTY Main Event - $500K Top Bounty [Stage 1] $210 $5,000,000
10月30日 23:30 Turbo Takedown $215 [25 BB] $215 $10,000
10月30日 23:30 Turbo Takedown $25 [25 BB] $25 $10,000
10月31日 00:00 Midnight Madness $85.50 [Bounty Edition] $85.50 $20,000
10月31日 00:00 Midnight Madness $8.55 [Bounty Edition] $8.55 $8,888
10月31日 01:00 Speed Racer POWER HOUR $5 [10 BB] $5 $2,000
10月31日 01:10 Speed Racer POWER HOUR $10 [10 BB] $10 $3,000
10月31日 01:20 Speed Racer POWER HOUR $25 [10 BB] $25 $3,500
10月31日 01:30 Speed Racer POWER HOUR $50 [10 BB] $50 $4,000
10月31日 01:40 Speed Racer POWER HOUR $100 [10 BB] $100 $4,500
10月31日 01:50 Speed Racer POWER HOUR $200 [10 BB] $200 $5,000
10月31日 02:30 MYSTERY BOUNTY Main Event - $500K Top Bounty [Stage 1] $210 $5,000,000
10月31日 05:30 MYSTERY BOUNTY Main Event - $500K Top Bounty [Stage 1] $210 $5,000,000
10月31日 08:30 MYSTERY BOUNTY Main Event - $500K Top Bounty [Stage 1] $210 $5,000,000
10月31日 11:30 MYSTERY BOUNTY Main Event - $500K Top Bounty [Stage 1] $210 $5,000,000
10月31日 12:30 Bounty Blast-Off $88 $88 $25,000
10月31日 12:30 Bounty Blast-Off $8.80 $8.80 $30,000
10月31日 13:15 Ultra Deepstack Bounty Turbo $54 $54 $30,000
10月31日 13:15 Ultra Deepstack Bounty Turbo $5.40 $5.40 $20,000
10月31日 13:30 Bounty Hunters 6-Max $108 $108 $20,000
10月31日 13:30 Bounty Hunters 6-Max $10.80 $10.80 $30,000
10月31日 14:00 Speed Racer POWER HOUR $5 [10 BB] $5 $3,500
10月31日 14:10 Speed Racer POWER HOUR $10 [10 BB] $10 $4,000
10月31日 14:20 Speed Racer POWER HOUR $20 [10 BB] $20 $5,000
10月31日 14:30 MYSTERY BOUNTY Main Event - $500K Top Bounty [Stage 1] $210 $5,000,000
10月31日 14:30 Bounty Superstack $85.50 $85.50 $50,000
10月31日 14:30 Bounty Superstack $8.55 $8.55 $40,000
10月31日 14:30 Speed Racer POWER HOUR $40 [10 BB] $40 $5,000
10月31日 14:40 Speed Racer POWER HOUR $80 [10 BB] $80 $5,000
10月31日 14:50 Speed Racer POWER HOUR $150 [10 BB] $150 $5,000
10月31日 15:00 GGMasters Bounty Warm-Up Special Edition $25 $25 $75,000
10月31日 15:00 Bounty Warm-Up $250 $250 $40,000
10月31日 15:30 Bounty Forty Stack HR $444 $444 $40,000
10月31日 15:30 Bounty Forty Stack $44 $44 $75,000
10月31日 15:40 Omaholic Forty Stack $44 $44 $10,000
10月31日 16:30 Bounty Hunters HR $525 [Deepstack] $525 $175,000
10月31日 16:30 Bounty Hunters Daily Main $54 [Deepstack] $54 $200,000
10月31日 16:30 Bounty Hunters Mini Main $5.40 [Deepstack] $5.40 $35,000
10月31日 17:30 MYSTERY BOUNTY Main Event - $500K Top Bounty [Stage 1] $210 $5,000,000
10月31日 17:30 Big Game $215 $215 $125,000
10月31日 17:30 Big Game $21.60 $21.60 $70,000
10月31日 17:40 Big Game Omaholic $215 $215 $15,000
10月31日 17:40 Big Game Omaholic $21.60 $21.60 $12,500
10月31日 18:00 Tuesday Twinkle $150 [Mystery Bounty] $150 $150,000
10月31日 18:00 Tuesday Twinkle $15 [Mystery Bounty] $15 $100,000
10月31日 18:30 Bounty King Special Edition $320 $320 $30,000
10月31日 18:30 Bounty King Jr $32.10 $32.10 $65,000
10月31日 19:00 GGMasters Bounty Special Edition $25 $25 $40,000
10月31日 19:30 Big KO $108 [Big Bounties] $108 $30,000
10月31日 19:30 Big KO $15 [Big Bounties] $15 $40,000
10月31日 20:30 MYSTERY BOUNTY Main Event - $500K Top Bounty [Stage 1] $210 $5,000,000
10月31日 20:30 Bounty Hunters HR Encore $525 $525 $20,000
10月31日 20:30 Bounty Hunters Encore $54 $54 $30,000
10月31日 21:00 Daily Heater Special Edition $215 [Turbo] $215 $35,000
10月31日 21:00 GGMasters Bounty Special Edition $25 [Turbo] $25 $25,000
10月31日 22:00 SUPER SIX $64.50 [Turbo] $64.50 $25,000
10月31日 22:15 4-MAX HYPER $108 $108 $12,000
10月31日 22:15 4-MAX HYPER $10.80 $10.80 $10,000
10月31日 23:30 MYSTERY BOUNTY Main Event - $500K Top Bounty [Stage 1] $210 $5,000,000
10月31日 23:30 Turbo Takedown $215 [25 BB] $215 $10,000
10月31日 23:30 Turbo Takedown $25 [25 BB] $25 $10,000
11月1日 水曜日 00:00 Midnight Madness $85.50 [Bounty Edition] $85.50 $20,000
11月1日 水曜日 00:00 Midnight Madness $8.55 [Bounty Edition] $8.55 $10,000
11月1日 水曜日 01:00 Speed Racer POWER HOUR $5 [10 BB] $5 $2,500
11月1日 水曜日 01:10 Speed Racer POWER HOUR $10 [10 BB] $10 $3,500
11月1日 水曜日 01:20 Speed Racer POWER HOUR $25 [10 BB] $25 $4,000
11月1日 水曜日 01:30 Speed Racer POWER HOUR $50 [10 BB] $50 $5,000
11月1日 水曜日 01:40 Speed Racer POWER HOUR $100 [10 BB] $100 $5,000
11月1日 水曜日 01:50 Speed Racer POWER HOUR $200 [10 BB] $200 $5,500
11月1日 水曜日 02:30 MYSTERY BOUNTY Main Event - $500K Top Bounty [Stage 1] $210 $5,000,000
11月1日 水曜日 05:30 MYSTERY BOUNTY Main Event - $500K Top Bounty [Stage 1] $210 $5,000,000
11月1日 水曜日 08:30 MYSTERY BOUNTY Main Event - $500K Top Bounty [Stage 1] $210 $5,000,000
11月1日 水曜日 11:30 MYSTERY BOUNTY Main Event - $500K Top Bounty [Stage 1] $210 $5,000,000
11月1日 水曜日 12:30 Bounty Blast-Off $88 $88 $25,000
11月1日 水曜日 12:30 Bounty Blast-Off $8.80 $8.80 $30,000
11月1日 水曜日 13:15 Ultra Deepstack Bounty Turbo $54 $54 $30,000
11月1日 水曜日 13:15 Ultra Deepstack Bounty Turbo $5.40 $5.40 $20,000
11月1日 水曜日 13:30 Bounty Hunters 6-Max $108 $108 $25,000
11月1日 水曜日 13:30 Bounty Hunters 6-Max $10.80 $10.80 $30,000
11月1日 水曜日 14:00 Speed Racer POWER HOUR $5 [10 BB] $5 $3,500
11月1日 水曜日 14:10 Speed Racer POWER HOUR $10 [10 BB] $10 $4,000
11月1日 水曜日 14:20 Speed Racer POWER HOUR $20 [10 BB] $20 $5,000
11月1日 水曜日 14:30 MYSTERY BOUNTY Main Event - $500K Top Bounty [Stage 1] $210 $5,000,000
11月1日 水曜日 14:30 Bounty Superstack $85.50 $85.50 $50,000
11月1日 水曜日 14:30 Bounty Superstack $8.55 $8.55 $40,000
11月1日 水曜日 14:30 Speed Racer POWER HOUR $40 [10 BB] $40 $5,000
11月1日 水曜日 14:40 Speed Racer POWER HOUR $80 [10 BB] $80 $5,000
11月1日 水曜日 14:50 Speed Racer POWER HOUR $150 [10 BB] $150 $5,000
11月1日 水曜日 15:00 GGMasters Bounty Warm-Up Special Edition $25 $25 $75,000
11月1日 水曜日 15:00 Bounty Warm-Up $250 $250 $25,000
11月1日 水曜日 15:30 Bounty Forty Stack HR $444 $444 $20,000
11月1日 水曜日 15:30 Bounty Forty Stack $44 $44 $75,000
11月1日 水曜日 15:40 Omaholic Forty Stack $44 $44 $10,000
11月1日 水曜日 16:30 Bounty Hunters HR $525 [Double Stack] $525 $150,000
11月1日 水曜日 16:30 Bounty Hunters Daily Main $54 [Double Stack] $54 $200,000
11月1日 水曜日 16:30 Bounty Hunters Mini Main $5.40 [Double Stack] $5.40 $35,000
11月1日 水曜日 17:30 MYSTERY BOUNTY Main Event - $500K Top Bounty [Stage 1] $210 $5,000,000
11月1日 水曜日 17:30 Big Game $215 $215 $85,000
11月1日 水曜日 17:30 Big Game $21.60 $21.60 $70,000
11月1日 水曜日 17:40 Big Game Omaholic $215 $215 $15,000
11月1日 水曜日 17:40 Big Game Omaholic $21.60 $21.60 $12,500
11月1日 水曜日 18:00 Wednesday Double Stack $150 [Bounty Edition] $150 $100,000
11月1日 水曜日 18:00 Wednesday Double Stack $15 [Bounty Edition] $15 $60,000
11月1日 水曜日 18:30 Bounty King Special Edition $320 $320 $25,000
11月1日 水曜日 18:30 Bounty King Jr $32.10 $32.10 $65,000
11月1日 水曜日 19:00 GGMasters Bounty Special Edition $25 $25 $40,000
11月1日 水曜日 19:30 Big KO $108 [Big Bounties] $108 $35,000
11月1日 水曜日 19:30 Big KO $15 [Big Bounties] $15 $50,000
11月1日 水曜日 20:30 MYSTERY BOUNTY Main Event - $500K Top Bounty [Stage 1] $210 $5,000,000
11月1日 水曜日 20:30 Bounty Hunters HR Encore $525 $525 $20,000
11月1日 水曜日 20:30 Bounty Hunters Encore $54 $54 $30,000
11月1日 水曜日 21:00 Daily Heater Special Edition $215 [Turbo] $215 $25,000
11月1日 水曜日 21:00 GGMasters Bounty Special Edition $25 [Turbo] $25 $25,000
11月1日 水曜日 22:00 SUPER SIX $64.50 [Turbo] $64.50 $25,000
11月1日 水曜日 22:15 4-MAX HYPER $108 $108 $12,500
11月1日 水曜日 22:15 4-MAX HYPER $10.80 $10.80 $12,500
11月1日 水曜日 23:30 MYSTERY BOUNTY Main Event - $500K Top Bounty [Stage 1] $210 $5,000,000
11月1日 水曜日 23:30 Turbo Takedown $215 [25 BB] $215 $10,000
11月1日 水曜日 23:30 Turbo Takedown $25 [25 BB] $25 $10,000
11月2日 00:00 Midnight Madness $85.50 [Bounty Edition] $85.50 $20,000
11月2日 00:00 Midnight Madness $8.55 [Bounty Edition] $8.55 $10,000
11月2日 01:00 Speed Racer POWER HOUR $5 [10 BB] $5 $3,000
11月2日 01:10 Speed Racer POWER HOUR $10 [10 BB] $10 $4,000
11月2日 01:20 Speed Racer POWER HOUR $25 [10 BB] $25 $4,000
11月2日 01:30 Speed Racer POWER HOUR $50 [10 BB] $50 $5,000
11月2日 01:40 Speed Racer POWER HOUR $100 [10 BB] $100 $5,000
11月2日 01:50 Speed Racer POWER HOUR $200 [10 BB] $200 $5,000
11月2日 02:30 MYSTERY BOUNTY Main Event - $500K Top Bounty [Stage 1] $210 $5,000,000
11月2日 05:30 MYSTERY BOUNTY Main Event - $500K Top Bounty [Stage 1] $210 $5,000,000
11月2日 08:30 MYSTERY BOUNTY Main Event - $500K Top Bounty [Stage 1] $210 $5,000,000
11月2日 11:30 MYSTERY BOUNTY Main Event - $500K Top Bounty [Stage 1] $210 $5,000,000
11月2日 12:30 Bounty Blast-Off $88 $88 $25,000
11月2日 12:30 Bounty Blast-Off $8.80 $8.80 $30,000
11月2日 13:15 Ultra Deepstack Bounty Turbo $54 $54 $30,000
11月2日 13:15 Ultra Deepstack Bounty Turbo $5.40 $5.40 $20,000
11月2日 13:30 Bounty Hunters 6-Max $108 $108 $25,000
11月2日 13:30 Bounty Hunters 6-Max $10.80 $10.80 $30,000
11月2日 14:00 Speed Racer POWER HOUR $5 [10 BB] $5 $3,500
11月2日 14:10 Speed Racer POWER HOUR $10 [10 BB] $10 $4,000
11月2日 14:20 Speed Racer POWER HOUR $20 [10 BB] $20 $5,000
11月2日 14:30 MYSTERY BOUNTY Main Event - $500K Top Bounty [Stage 1] $210 $5,000,000
11月2日 14:30 Bounty Superstack $85.50 $85.50 $50,000
11月2日 14:30 Bounty Superstack $8.55 $8.55 $40,000
11月2日 14:30 Speed Racer POWER HOUR $40 [10 BB] $40 $5,000
11月2日 14:40 Speed Racer POWER HOUR $80 [10 BB] $80 $5,000
11月2日 14:50 Speed Racer POWER HOUR $150 [10 BB] $150 $5,000
11月2日 15:00 GGMasters Bounty Warm-Up Special Edition $25 $25 $75,000
11月2日 15:00 Bounty Warm-Up $250 $250 $40,000
11月2日 15:30 Bounty Forty Stack HR $444 $444 $30,000
11月2日 15:30 Bounty Forty Stack $44 $44 $75,000
11月2日 15:40 Omaholic Forty Stack $44 $44 $10,000
11月2日 16:30 Bounty Hunters HR $525 [Classic] $525 $225,000
11月2日 16:30 Bounty Hunters Daily Main $54 [Classic] $54 $200,000
11月2日 16:30 Bounty Hunters Mini Main $5.40 [Classic] $5.40 $35,000
11月2日 17:30 MYSTERY BOUNTY Main Event - $500K Top Bounty [Stage 1] $210 $5,000,000
11月2日 17:30 Big Game $215 $215 $100,000
11月2日 17:30 Big Game $21.60 $21.60 $70,000
11月2日 17:40 Big Game Omaholic $215 $215 $15,000
11月2日 17:40 Big Game Omaholic $21.60 $21.60 $12,500
11月2日 18:00 Thursday Throwdown $150 $150 $150,000
11月2日 18:00 Thursday Throwdown $15 $15 $60,000
11月2日 18:30 Bounty King Special Edition $320 $320 $40,000
11月2日 18:30 Bounty King Jr $32.10 $32.10 $65,000
11月2日 19:00 GGMasters Bounty Special Edition $25 $25 $40,000
11月2日 19:30 Big KO $108 [Big Bounties] $108 $40,000
11月2日 19:30 Big KO $15 [Big Bounties] $15 $50,000
11月2日 20:30 MYSTERY BOUNTY Main Event - $500K Top Bounty [Stage 1] $210 $5,000,000
11月2日 20:30 Bounty Hunters HR Encore $525 $525 $20,000
11月2日 20:30 Bounty Hunters Encore $54 $54 $30,000
11月2日 21:00 Daily Heater Special Edition $215 [Turbo] $215 $35,000
11月2日 21:00 GGMasters Bounty Special Edition $25 [Turbo] $25 $25,000
11月2日 22:00 SUPER SIX $64.50 [Turbo] $64.50 $25,000
11月2日 22:15 4-MAX HYPER $108 $108 $12,500
11月2日 22:15 4-MAX HYPER $10.80 $10.80 $12,500
11月2日 23:30 MYSTERY BOUNTY Main Event - $500K Top Bounty [Stage 1] $210 $5,000,000
11月2日 23:30 Turbo Takedown $215 [25 BB] $215 $10,000
11月2日 23:30 Turbo Takedown $25 [25 BB] $25 $10,000
11月3日 00:00 Midnight Madness $85.50 [Bounty Edition] $85.50 $20,000
11月3日 00:00 Midnight Madness $8.55 [Bounty Edition] $8.55 $10,000
11月3日 01:00 Speed Racer POWER HOUR $5 [10 BB] $5 $3,000
11月3日 01:10 Speed Racer POWER HOUR $10 [10 BB] $10 $4,000
11月3日 01:20 Speed Racer POWER HOUR $25 [10 BB] $25 $4,000
11月3日 01:30 Speed Racer POWER HOUR $50 [10 BB] $50 $5,000
11月3日 01:40 Speed Racer POWER HOUR $100 [10 BB] $100 $5,000
11月3日 01:50 Speed Racer POWER HOUR $200 [10 BB] $200 $5,000
11月3日 02:30 MYSTERY BOUNTY Main Event - $500K Top Bounty [Stage 1] $210 $5,000,000
11月3日 05:30 MYSTERY BOUNTY Main Event - $500K Top Bounty [Stage 1] $210 $5,000,000
11月3日 08:30 MYSTERY BOUNTY Main Event - $500K Top Bounty [Stage 1] $210 $5,000,000
11月3日 11:30 MYSTERY BOUNTY Main Event - $500K Top Bounty [Stage 1] $210 $5,000,000
11月3日 12:30 Bounty Blast-Off $88 $88 $25,000
11月3日 12:30 Bounty Blast-Off $8.80 $8.80 $30,000
11月3日 13:15 Ultra Deepstack Bounty Turbo $54 $54 $30,000
11月3日 13:15 Ultra Deepstack Bounty Turbo $5.40 $5.40 $20,000
11月3日 13:30 Furious Friday 5-Max $108 $108 $15,000
11月3日 13:30 Furious Friday 5-Max $10.80 $10.80 $25,000
11月3日 14:00 Speed Racer POWER HOUR $5 [10 BB] $5 $3,500
11月3日 14:10 Speed Racer POWER HOUR $10 [10 BB] $10 $4,000
11月3日 14:20 Speed Racer POWER HOUR $20 [10 BB] $20 $5,000
11月3日 14:30 MYSTERY BOUNTY Main Event - $500K Top Bounty [Stage 1] $210 $5,000,000
11月3日 14:30 Bounty Superstack $85.50 $85.50 $40,000
11月3日 14:30 Bounty Superstack $8.55 $8.55 $40,000
11月3日 14:30 Speed Racer POWER HOUR $40 [10 BB] $40 $5,000
11月3日 14:40 Speed Racer POWER HOUR $80 [10 BB] $80 $5,000
11月3日 14:50 Speed Racer POWER HOUR $150 [10 BB] $150 $5,000
11月3日 15:00 GGMasters Bounty Warm-Up Special Edition $25 $25 $75,000
11月3日 15:00 Bounty Warm-Up $250 $250 $20,000
11月3日 15:30 Bounty Forty Stack HR $444 $444 $15,000
11月3日 15:30 Bounty Forty Stack $44 $44 $75,000
11月3日 15:40 Omaholic Forty Stack $44 $44 $10,000
11月3日 16:30 Bounty Hunters HR $525 [Ultradeep] $525 $125,000
11月3日 16:30 Bounty Hunters Daily Main $54 [Ultradeep] $54 $200,000
11月3日 16:30 Bounty Hunters Mini Main $5.40 [Ultradeep] $5.40 $35,000
11月3日 17:30 MYSTERY BOUNTY Main Event - $500K Top Bounty [Stage 1] $210 $5,000,000
11月3日 17:30 Big Game $215 $215 $70,000
11月3日 17:30 Big Game $21.60 $21.60 $70,000
11月3日 17:40 Big Game Omaholic $215 $215 $8,000
11月3日 17:40 Big Game Omaholic $21.60 $21.60 $12,500
11月3日 18:00 Friday Night Fight $150 [6-Max] $150 $125,000
11月3日 18:00 Friday Night Fight $15 [6-Max] $15 $60,000
11月3日 18:30 Bounty King Special Edition $320 $320 $20,000
11月3日 18:30 Bounty King Jr $32.10 $32.10 $65,000
11月3日 19:00 GGMasters Bounty Special Edition $25 $25 $40,000
11月3日 19:30 Big KO $108 [Big Bounties] $108 $25,000
11月3日 19:30 Big KO $15 [Big Bounties] $15 $50,000
11月3日 20:30 MYSTERY BOUNTY Main Event - $500K Top Bounty [Stage 1] $210 $5,000,000
11月3日 20:30 Bounty Hunters HR Encore $525 $525 $15,000
11月3日 20:30 Bounty Hunters Encore $54 $54 $30,000
11月3日 21:00 Daily Heater Special Edition $215 [Turbo] $215 $20,000
11月3日 21:00 GGMasters Bounty Special Edition $25 [Turbo] $25 $25,000
11月3日 22:00 SUPER SIX $64.50 [Turbo] $64.50 $25,000
11月3日 22:15 4-MAX HYPER $108 $108 $8,500
11月3日 22:15 4-MAX HYPER $10.80 $10.80 $12,500
11月3日 23:30 MYSTERY BOUNTY Main Event - $500K Top Bounty [Stage 1] $210 $5,000,000
11月3日 23:30 Turbo Takedown $215 [25 BB] $215 $7,500
11月3日 23:30 Turbo Takedown $25 [25 BB] $25 $10,000
11月4日 00:00 Midnight Madness $85.50 [Bounty Edition] $85.50 $15,000
11月4日 00:00 Midnight Madness $8.55 [Bounty Edition] $8.55 $10,000
11月4日 01:00 Speed Racer POWER HOUR $5 [10 BB] $5 $3,000
11月4日 01:10 Speed Racer POWER HOUR $10 [10 BB] $10 $4,000
11月4日 01:20 Speed Racer POWER HOUR $25 [10 BB] $25 $4,000
11月4日 01:30 Speed Racer POWER HOUR $50 [10 BB] $50 $5,000
11月4日 01:40 Speed Racer POWER HOUR $100 [10 BB] $100 $5,000
11月4日 01:50 Speed Racer POWER HOUR $200 [10 BB] $200 $5,000
11月4日 02:30 MYSTERY BOUNTY Main Event - $500K Top Bounty [Stage 1] $210 $5,000,000
11月4日 05:30 MYSTERY BOUNTY Main Event - $500K Top Bounty [Stage 1] $210 $5,000,000
11月4日 08:30 MYSTERY BOUNTY Main Event - $500K Top Bounty [Stage 1] $210 $5,000,000
11月4日 11:30 MYSTERY BOUNTY Main Event - $500K Top Bounty [Stage 1] $210 $5,000,000
11月4日 12:30 Bounty Blast-Off $88 $88 $25,000
11月4日 12:30 Bounty Blast-Off $8.80 $8.80 $30,000
11月4日 13:15 Ultra Deepstack Bounty Turbo $54 $54 $30,000
11月4日 13:15 Ultra Deepstack Bounty Turbo $5.40 $5.40 $20,000
11月4日 13:30 Saturday Showdown 7-Max $108 $108 $20,000
11月4日 13:30 Saturday Showdown 7-Max $10.80 $10.80 $40,000
11月4日 14:00 Speed Racer POWER HOUR $5 [10 BB] $5 $3,500
11月4日 14:10 Speed Racer POWER HOUR $10 [10 BB] $10 $4,000
11月4日 14:20 Speed Racer POWER HOUR $20 [10 BB] $20 $5,000
11月4日 14:30 MYSTERY BOUNTY Main Event - $500K Top Bounty [Stage 1] $210 $5,000,000
11月4日 14:30 Bounty Superstack $85.50 $85.50 $50,000
11月4日 14:30 Bounty Superstack $8.55 $8.55 $40,000
11月4日 14:30 Speed Racer POWER HOUR $40 [10 BB] $40 $5,000
11月4日 14:40 Speed Racer POWER HOUR $80 [10 BB] $80 $5,000
11月4日 14:50 Speed Racer POWER HOUR $150 [10 BB] $150 $5,000
11月4日 15:00 GGMasters Bounty Warm-Up Special Edition $25 $25 $75,000
11月4日 15:00 Bounty Warm-Up $250 $250 $25,000
11月4日 15:30 Bounty Forty Stack HR $444 $444 $20,000
11月4日 15:30 Bounty Forty Stack $44 $44 $75,000
11月4日 15:40 Omaholic Forty Stack $44 $44 $10,000
11月4日 16:30 Bounty Hunters HR $525 [Big Bounties] $525 $175,000
11月4日 16:30 Bounty Hunters Daily Main $54 [Big Bounties] $54 $200,000
11月4日 16:30 Bounty Hunters Mini Main $5.40 [Big Bounties] $5.40 $35,000
11月4日 17:30 MYSTERY BOUNTY Main Event - $500K Top Bounty [Stage 1] $210 $5,000,000
11月4日 17:30 Big Game $21.60 $21.60 $70,000
11月4日 17:40 Big Game Omaholic $215 $215 $15,000
11月4日 17:40 Big Game Omaholic $21.60 $21.60 $12,500
11月4日 18:00 Saturday Secret KO $150 [Mystery Bounty] $150 $300,000
11月4日 18:00 Saturday Secret KO $15 [Mystery Bounty] $15 $175,000
11月4日 18:30 Bounty King Special Edition $320 $320 $20,000
11月4日 18:30 Bounty King Jr $32.10 $32.10 $65,000
11月4日 19:00 GGMasters Bounty Special Edition $25 $25 $40,000
11月4日 19:30 Big KO $108 [Big Bounties] $108 $25,000
11月4日 19:30 Big KO $15 [Big Bounties] $15 $40,000
11月4日 20:30 MYSTERY BOUNTY Main Event - $500K Top Bounty [Stage 1] $210 $5,000,000
11月4日 20:30 Bounty Hunters HR Encore $525 $525 $15,000
11月4日 20:30 Bounty Hunters Encore $54 $54 $30,000
11月4日 21:00 Daily Heater Special Edition $215 [Turbo] $215 $25,000
11月4日 21:00 GGMasters Bounty Special Edition $25 [Turbo] $25 $25,000
11月4日 22:00 SUPER SIX $64.50 [Turbo] $64.50 $25,000
11月4日 22:15 4-MAX HYPER $108 $108 $8,500
11月4日 22:15 4-MAX HYPER $10.80 $10.80 $12,500
11月4日 23:30 MYSTERY BOUNTY Main Event - $500K Top Bounty [Stage 1] $210 $5,000,000
11月4日 23:30 Turbo Takedown $215 [25 BB] $215 $7,500
11月4日 23:30 Turbo Takedown $25 [25 BB] $25 $10,000
11月5日 00:00 Midnight Madness $85.50 [Bounty Edition] $85.50 $15,000
11月5日 00:00 Midnight Madness $8.55 [Bounty Edition] $8.55 $10,000
11月5日 01:00 Speed Racer POWER HOUR $5 [10 BB] $5 $3,000
11月5日 01:10 Speed Racer POWER HOUR $10 [10 BB] $10 $4,000
11月5日 01:20 Speed Racer POWER HOUR $25 [10 BB] $25 $4,000
11月5日 01:30 Speed Racer POWER HOUR $50 [10 BB] $50 $5,000
11月5日 01:40 Speed Racer POWER HOUR $100 [10 BB] $100 $5,000
11月5日 01:50 Speed Racer POWER HOUR $200 [10 BB] $200 $5,000
11月5日 02:30 MYSTERY BOUNTY Main Event - $500K Top Bounty [Stage 1] $210 $5,000,000
11月5日 05:30 MYSTERY BOUNTY Main Event - $500K Top Bounty [Stage 1] $210 $5,000,000
11月5日 08:30 MYSTERY BOUNTY Main Event - $500K Top Bounty [Stage 1] $210 $5,000,000
11月5日 11:30 MYSTERY BOUNTY Main Event - $500K Top Bounty [Stage 1] $210 $5,000,000
11月5日 12:30 Sunday Blast-Off $215 $215 $40,000
11月5日 12:30 Sunday Blast-Off $25 $25 $100,000
11月5日 13:15 Ultra Deepstack Bounty Turbo $54 $54 $75,000
11月5日 13:30 Sunday Six-Max $108 $108 $60,000
11月5日 13:30 Sunday Six-Max $10.80 $10.80 $75,000
11月5日 14:00 Battle of Marathon $320 $320 $100,000
11月5日 14:00 Battle of Marathon $32.10 $32.10 $125,000
11月5日 14:00 Speed Racer POWER HOUR $5 [10 BB] $5 $3,500
11月5日 14:10 Speed Racer POWER HOUR $10 [10 BB] $10 $4,000
11月5日 14:20 Speed Racer POWER HOUR $20 [10 BB] $20 $5,000
11月5日 14:30 MYSTERY BOUNTY Main Event - $500K Top Bounty [Stage 1] $210 $5,000,000
11月5日 14:30 Sunday Bounty Superstack $85.50 $85.50 $150,000
11月5日 14:30 Sunday Bounty Superstack $8.55 $8.55 $75,000
11月5日 14:30 Speed Racer POWER HOUR $40 [10 BB] $40 $5,000
11月5日 14:40 Speed Racer POWER HOUR $80 [10 BB] $80 $5,000
11月5日 14:50 Speed Racer POWER HOUR $150 [10 BB] $150 $5,000
11月5日 15:00 Sunday Grand Prix $150 [Bounty Edition] $150 $250,000
11月5日 15:00 GGMasters Sunday Bounty $25 $25 $150,000
11月5日 15:15 Ultra Deepstack Bounty Turbo $21.60 $21.60 $50,000
11月5日 15:30 Sunday Forty Stack $44 $44 $200,000
11月5日 15:40 Sunday Omaholic Forty Stack $44 $44 $20,000
11月5日 16:30 Bounty Hunters HR Main Event $525, $1M GTD $525 $1,000,000
11月5日 16:30 Bounty Hunters Sunday Main Event $54, $500K GTD $54 $500,000
11月5日 17:30 MYSTERY BOUNTY Main Event - $500K Top Bounty [Stage 1] $210 $5,000,000
11月5日 17:30 Sunday Big Game $215 $215 $350,000
11月5日 17:30 Sunday Big Game $21.60 $21.60 $150,000
11月5日 17:40 Sunday Big Game Omaholic $215 $215 $40,000
11月5日 17:40 Sunday Big Game Omaholic $21.60 $21.60 $25,000
11月5日 18:30 GGMasters Bounty Special Edition $320 $320 $400,000
11月5日 18:30 Sunday Bounty King Jr $32.10 $32.10 $150,000
11月5日 19:30 Sunday BIG KO $108 [Big Bounties] $108 $100,000
11月5日 19:40 Sunday BIG KO Omaholic $108 [Big Bounties] $108 $25,000
11月5日 20:30 MYSTERY BOUNTY Main Event - $500K Top Bounty [Stage 1] $210 $5,000,000
11月5日 20:30 Bounty Hunters HR Encore $525 $525 $50,000
11月5日 20:30 Bounty Hunters Encore $54 $54 $100,000
11月5日 21:00 Sunday Heater Special Edition $215 [Turbo] $215 $120,000
11月5日 21:00 Sunday Heater Special Edition $25 [Turbo] $25 $75,000
11月5日 21:40 Sunday Omaholic Heater $215 [Turbo] $215 $15,000
11月5日 21:40 Sunday Omaholic Heater $25 [Turbo] $25 $12,500
11月5日 22:00 SUPER SIX HR $630 [Turbo] $630 $30,000
11月5日 22:00 SUPER SIX $64.50 [Turbo] $64.50 $50,000
11月5日 22:30 America Bounty Bonaza $129 $129 $40,000
11月5日 22:30 America Bounty Bonaza $12.90 $12.90 $20,000
11月5日 23:30 MYSTERY BOUNTY Main Event - $500K Top Bounty [Stage 1] $210 $5,000,000
11月5日 23:30 Sunday Last Call $215 [Hyper] $215 $50,000
11月5日 23:30 Sunday Last Call $25 [Hyper] $25 $30,000
11月6日 00:00 Midnight Madness $85.50 [Bounty Edition] $85.50 $40,000
11月6日 00:00 Midnight Madness $8.55 [Bounty Edition] $8.55 $12,500
11月6日 01:00 Speed Racer POWER HOUR $5 [10 BB] $5 $4,000
11月6日 01:10 Speed Racer POWER HOUR $10 [10 BB] $10 $5,000
11月6日 01:20 Speed Racer POWER HOUR $25 [10 BB] $25 $7,500
11月6日 01:30 Speed Racer POWER HOUR $50 [10 BB] $50 $8,500
11月6日 01:40 Speed Racer POWER HOUR $100 [10 BB] $100 $10,000
11月6日 01:50 Speed Racer POWER HOUR $200 [10 BB] $200 $10,000
11月6日 02:30 MYSTERY BOUNTY Main Event - $500K Top Bounty [Stage 1] $210 $5,000,000
11月6日 05:30 MYSTERY BOUNTY Main Event - $500K Top Bounty [Stage 1] $210 $5,000,000
11月6日 08:30 MYSTERY BOUNTY Main Event - $500K Top Bounty [Stage 1] $210 $5,000,000
11月6日 10:30 MYSTERY BOUNTY Main Event - $500K Top Bounty [Stage 1] $210 $5,000,000
11月6日 12:30 MYSTERY BOUNTY Main Event - $500K Top Bounty [Stage 1] $210 $5,000,000
11月6日 12:30 Bounty Blast-Off $88 88.00 25,000
11月6日 12:30 Bounty Blast-Off $8.80 8.80 30,000
11月6日 13:15 Ultra Deepstack Bounty Turbo $54 54.00 30,000
11月6日 13:15 Ultra Deepstack Bounty Turbo $5.40 5.40 20,000
11月6日 13:30 Monday Hangover $108 [Variable Levels] 108.00 15,000
11月6日 13:30 Monday Hangover $10.80 [Variable Levels] 10.80 30,000
11月6日 14:00 Speed Racer POWER HOUR $5 [10 BB] 5.00 6,000
11月6日 14:10 Speed Racer POWER HOUR $10 [10 BB] 10.00 6,000
11月6日 14:20 Speed Racer POWER HOUR $20 [10 BB] 20.00 6,000
11月6日 14:30 MYSTERY BOUNTY Main Event - $500K Top Bounty [Stage 1] $210 $5,000,000
11月6日 14:30 Bounty Superstack $85.50 85.50 60,000
11月6日 14:30 Bounty Superstack $8.55 8.55 40,000
11月6日 14:30 Speed Racer POWER HOUR $40 [10 BB] 40.00 6,000
11月6日 14:40 Speed Racer POWER HOUR $80 [10 BB] 80.00 6,000
11月6日 14:50 Speed Racer POWER HOUR $150 [10 BB] 150.00 7,500
11月6日 15:00 GGMasters Bounty Warm-Up Special Edition $25 25.00 75,000
11月6日 15:00 Bounty Warm-Up $250 250.00 40,000
11月6日 15:30 Bounty Forty Stack HR $444 444.00 30,000
11月6日 15:30 Bounty Forty Stack $44 44.00 100,000
11月6日 15:40 Omaholic Forty Stack $44 44.00 10,000
11月6日 16:00 MYSTERY BOUNTY Main Event - $500K Top [Last Chance] $210 $5,000,000
11月6日 16:30 Bounty Hunters HR $525 [6-Max] 525.00 300,000
11月6日 16:30 Bounty Hunters Daily Main $54 [6-Max] 54.00 200,000
11月6日 16:30 Bounty Hunters Mini Main $5.40 [6-Max] 5.40 35,000
11月6日 16:45 MYSTERY BOUNTY Main Event - $500K Top [Last Minute] $210 $5,000,000
11月6日 17:30 Big Game $215 215.00 150,000
11月6日 17:30 Big Game $21.60 21.60 70,000
11月6日 17:40 Big Game Omaholic $215 215.00 15,000
11月6日 17:40 Big Game Omaholic $21.60 21.60 10,000
11月6日 18:00 Monday Monster Stack $150 [Bounty Edition] 150.00 200,000
11月6日 18:00 Monday Monster Stack $15 [Bounty Edition] 15.00 70,000
11月6日 18:30 MYSTERY BOUNTY Main Event - $500K Top Bounty [Day 2] $210 $5,000,000
11月6日 18:30 Bounty King Special Edition $320 320.00 40,000
11月6日 18:30 Bounty King Jr $32.10 32.10 70,000
11月6日 19:00 GGMasters Bounty Special Edition $25 25.00 50,000
11月6日 19:30 Big KO $108 [Big Bounties] 108.00 50,000
11月6日 19:30 Big KO $15 [Big Bounties] 15.00 50,000
11月6日 20:30 Bounty Hunters HR Encore $525 525.00 25,000
11月6日 20:30 Bounty Hunters Encore $54 54.00 30,000
11月6日 21:00 Daily Heater Special Edition $215 [Turbo] 215.00 40,000
11月6日 21:00 GGMasters Bounty Special Edition $25 [Turbo] 25.00 30,000
11月6日 22:00 SUPER SIX $64.50 [Turbo] 64.50 30,000
11月6日 22:15 4-MAX HYPER $108 108.00 17,500
11月6日 22:15 4-MAX HYPER $10.80 10.80 15,000
11月6日 23:30 Turbo Takedown $215 [25 BB] 215.00 12,500
11月6日 23:30 Turbo Takedown $25 [25 BB] 25.00 10,000
11月7日 00:00 Midnight Madness $85.50 [Bounty Edition] 85.50 25,000
11月7日 00:00 Midnight Madness $8.55 [Bounty Edition] 8.55 10,000
11月7日 01:00 Speed Racer POWER HOUR $5 [10 BB] 5.00 3,000
11月7日 01:10 Speed Racer POWER HOUR $10 [10 BB] 10.00 4,000
11月7日 01:20 Speed Racer POWER HOUR $25 [10 BB] 25.00 5,000
11月7日 01:30 Speed Racer POWER HOUR $50 [10 BB] 50.00 5,000
11月7日 01:40 Speed Racer POWER HOUR $100 [10 BB] 100.00 6,000
11月7日 01:50 Speed Racer POWER HOUR $200 [10 BB] 200.00 6,000
トーナメントの詳細と制限
  • バウンティキング・デイリーリーダーボードは、毎日06:00:00~05:59:59(UTC)に実施されます。
  • ポイントはバウンティハンターシリーズのトーナメント中でのみ獲得できます。
  • リーダーボードが同点の場合、先にポイント合計に達した選手が勝利する。 それでも同点だった場合、次の決め手となるのは、ポイント合計に達した大会の終了時刻となる。
  • プレイヤーは、バウンティキングリーダーボードのタイトルをそれぞれ1回のみ獲得することができます。それ以降のタイトルと報酬は、リーダーボードで次に高い順位を獲得したプレイヤーに与えられます。
  • WSOPパラダイス・パッケージには、5,000ドルのメインイベント・バイイン、アトランティスでの10泊の宿泊、毎日のランチ・ビュッフェが含まれています。
  • WSOPパラダイス・パッケージには旅行は含まれていません。旅行の手配、その他の費用や付随的なものは、プレイヤー自身の責任となります。
  • WSOPパラダイス・パッケージは譲渡不可、交換不可、換金不可です。
  • WSOP ParadiseはWilliam Hill US Holdco, Inc.の商標です。許可を得て使用しています。
利用契約
  • 参加者は管轄地域によって18歳以上、19歳以上、21歳以上、24歳以上、または24歳以上である必要があります。
  • 賞金もしくは保証額については変更されることがあり、ウェブサイトに記載された金額が最新ではない可能性があります。最新の情報についてはゲームクライアントに記載されている保証額をご確認してください。
  • 当社は、プロモーション、トーナメント、またはゲームの機能を変更または中断する権利を有します。
  • 不正行為が疑われるプレイヤーがいる場合、GGPokerは調査を行い、確認された場合はプレイヤーを除外する権利を有します。
  • 利用規約は、ゲームクライアントに記載されている利用規約に従うものとします。
標準規則が適用されます。
ギャンブルの代償は? 時間通りに止め、責任を持ってプレイしましょう www.begambleaware.org